<?xml version="1.0" encoding="UTF-8" standalone="no" ?>
<gpx xmlns="http://www.topografix.com/GPX/1/1" xmlns:xsi="http://www.w3.org/2001/XMLSchema-instance" xsi:schemaLocation="http://www.topografix.com/GPX/1/1 http://www.topografix.com/GPX/1/1/gpx.xsd" version="1.1" creator="VisuGPX - https://www.visugpx.com">
  <metadata>
    <name>Puyloubier boucle 34km</name>
    <desc><![CDATA[
Joli parcours sans difficultés. Retour en prenant le chemin de Malivert en descente (à éviter dans le sens de la montée)]]></desc>
  </metadata>
  <trk>
    <name><![CDATA[2022-01-23 08:54]]></name>
    <desc><![CDATA[<p>Heure de départ: 01/23/2022 08:54</p><p>Heure d'arrivée: 01/23/2022 11:57</p><p>Distance: 34 km (03:02)</p><p>Temps déplacement: 02:34</p><p>Vitesse moyenne: 11,16 km/h</p><p>Vitesse moyenne mouv.: 13,18 km/h</p><p>Vitesse Max.: 42,03km/h</p><p>Altitude minimale: 284 m</p><p>Altitude maximale: 648 m</p><p>Vitesse de montée: 590,8 m/h</p><p>Vitesse de descente: -894,1 m/h</p><p>Gain d'altitude: 941 m</p><p>Perte d'altitude: -907 m</p><p>Temps de montée: 01:35</p><p>Temps de descente: 01:00</p><hr align="center" width="480" style="height: 2px; width: 517px"/>]]></desc>
    <extensions>
      <line xmlns="http://www.topografix.com/GPX/gpx_style/0/2">
        <color>0000FF</color>
        <width>4</width>
      </line>
    </extensions>
    <trkseg>
      <trkpt lat="43.52654" lon="5.68157">
        <ele>284.75</ele>
        <time>2022-01-23T07:54:31Z</time>
      </trkpt>
      <trkpt lat="43.5264" lon="5.68175">
        <ele>302.2</ele>
        <time>2022-01-23T07:58:32Z</time>
      </trkpt>
      <trkpt lat="43.52637" lon="5.68201">
        <ele>304.38</ele>
        <time>2022-01-23T07:58:42Z</time>
      </trkpt>
      <trkpt lat="43.52634" lon="5.68228">
        <ele>308.05</ele>
        <time>2022-01-23T07:58:52Z</time>
      </trkpt>
      <trkpt lat="43.52634" lon="5.68254">
        <ele>310.85</ele>
        <time>2022-01-23T07:58:59Z</time>
      </trkpt>
      <trkpt lat="43.52638" lon="5.68281">
        <ele>313.4</ele>
        <time>2022-01-23T07:59:07Z</time>
      </trkpt>
      <trkpt lat="43.52643" lon="5.68308">
        <ele>314.27</ele>
        <time>2022-01-23T07:59:13Z</time>
      </trkpt>
      <trkpt lat="43.52647" lon="5.68336">
        <ele>315.58</ele>
        <time>2022-01-23T07:59:18Z</time>
      </trkpt>
      <trkpt lat="43.5265" lon="5.68363">
        <ele>316.3</ele>
        <time>2022-01-23T07:59:22Z</time>
      </trkpt>
      <trkpt lat="43.52651" lon="5.68395">
        <ele>316.54</ele>
        <time>2022-01-23T07:59:26Z</time>
      </trkpt>
      <trkpt lat="43.52647" lon="5.68421">
        <ele>316.82</ele>
        <time>2022-01-23T07:59:29Z</time>
      </trkpt>
      <trkpt lat="43.52642" lon="5.68448">
        <ele>316.51</ele>
        <time>2022-01-23T07:59:32Z</time>
      </trkpt>
      <trkpt lat="43.52634" lon="5.68475">
        <ele>315.94</ele>
        <time>2022-01-23T07:59:35Z</time>
      </trkpt>
      <trkpt lat="43.52625" lon="5.68498">
        <ele>315.16</ele>
        <time>2022-01-23T07:59:38Z</time>
      </trkpt>
      <trkpt lat="43.52619" lon="5.68525">
        <ele>313.32</ele>
        <time>2022-01-23T07:59:41Z</time>
      </trkpt>
      <trkpt lat="43.52612" lon="5.68551">
        <ele>311.76</ele>
        <time>2022-01-23T07:59:44Z</time>
      </trkpt>
      <trkpt lat="43.52607" lon="5.68579">
        <ele>309.88</ele>
        <time>2022-01-23T07:59:47Z</time>
      </trkpt>
      <trkpt lat="43.52605" lon="5.68607">
        <ele>307.82</ele>
        <time>2022-01-23T07:59:50Z</time>
      </trkpt>
      <trkpt lat="43.52608" lon="5.68636">
        <ele>306.29</ele>
        <time>2022-01-23T07:59:53Z</time>
      </trkpt>
      <trkpt lat="43.52616" lon="5.68662">
        <ele>305.6</ele>
        <time>2022-01-23T07:59:56Z</time>
      </trkpt>
      <trkpt lat="43.52626" lon="5.68688">
        <ele>304.08</ele>
        <time>2022-01-23T07:59:59Z</time>
      </trkpt>
      <trkpt lat="43.52637" lon="5.68711">
        <ele>302.55</ele>
        <time>2022-01-23T08:00:02Z</time>
      </trkpt>
      <trkpt lat="43.52647" lon="5.68733">
        <ele>300.7</ele>
        <time>2022-01-23T08:00:05Z</time>
      </trkpt>
      <trkpt lat="43.52658" lon="5.68759">
        <ele>298.37</ele>
        <time>2022-01-23T08:00:09Z</time>
      </trkpt>
      <trkpt lat="43.52667" lon="5.68782">
        <ele>296.51</ele>
        <time>2022-01-23T08:00:13Z</time>
      </trkpt>
      <trkpt lat="43.52674" lon="5.68806">
        <ele>295.04</ele>
        <time>2022-01-23T08:00:17Z</time>
      </trkpt>
      <trkpt lat="43.52678" lon="5.68833">
        <ele>294.15</ele>
        <time>2022-01-23T08:00:22Z</time>
      </trkpt>
      <trkpt lat="43.5268" lon="5.68859">
        <ele>294.05</ele>
        <time>2022-01-23T08:00:29Z</time>
      </trkpt>
      <trkpt lat="43.52683" lon="5.68885">
        <ele>293.27</ele>
        <time>2022-01-23T08:00:36Z</time>
      </trkpt>
      <trkpt lat="43.52686" lon="5.68912">
        <ele>293.43</ele>
        <time>2022-01-23T08:00:44Z</time>
      </trkpt>
      <trkpt lat="43.52691" lon="5.68938">
        <ele>294.39</ele>
        <time>2022-01-23T08:00:52Z</time>
      </trkpt>
      <trkpt lat="43.52694" lon="5.68964">
        <ele>295.68</ele>
        <time>2022-01-23T08:01:00Z</time>
      </trkpt>
      <trkpt lat="43.52696" lon="5.6899">
        <ele>296.61</ele>
        <time>2022-01-23T08:01:08Z</time>
      </trkpt>
      <trkpt lat="43.52703" lon="5.69014">
        <ele>297.44</ele>
        <time>2022-01-23T08:01:17Z</time>
      </trkpt>
      <trkpt lat="43.52717" lon="5.69031">
        <ele>298.54</ele>
        <time>2022-01-23T08:01:24Z</time>
      </trkpt>
      <trkpt lat="43.52728" lon="5.69052">
        <ele>299.42</ele>
        <time>2022-01-23T08:01:31Z</time>
      </trkpt>
      <trkpt lat="43.52736" lon="5.69077">
        <ele>299.94</ele>
        <time>2022-01-23T08:01:38Z</time>
      </trkpt>
      <trkpt lat="43.52743" lon="5.69101">
        <ele>300.35</ele>
        <time>2022-01-23T08:01:44Z</time>
      </trkpt>
      <trkpt lat="43.52753" lon="5.69124">
        <ele>300.6</ele>
        <time>2022-01-23T08:01:50Z</time>
      </trkpt>
      <trkpt lat="43.52762" lon="5.69146">
        <ele>300.52</ele>
        <time>2022-01-23T08:01:56Z</time>
      </trkpt>
      <trkpt lat="43.52772" lon="5.69169">
        <ele>301.1</ele>
        <time>2022-01-23T08:02:02Z</time>
      </trkpt>
      <trkpt lat="43.52779" lon="5.69193">
        <ele>301.54</ele>
        <time>2022-01-23T08:02:09Z</time>
      </trkpt>
      <trkpt lat="43.52788" lon="5.69216">
        <ele>302.07</ele>
        <time>2022-01-23T08:02:17Z</time>
      </trkpt>
      <trkpt lat="43.52801" lon="5.69235">
        <ele>302.39</ele>
        <time>2022-01-23T08:02:26Z</time>
      </trkpt>
      <trkpt lat="43.52818" lon="5.69247">
        <ele>303.2</ele>
        <time>2022-01-23T08:02:36Z</time>
      </trkpt>
      <trkpt lat="43.52838" lon="5.69248">
        <ele>306.92</ele>
        <time>2022-01-23T08:02:47Z</time>
      </trkpt>
      <trkpt lat="43.52856" lon="5.69249">
        <ele>311.03</ele>
        <time>2022-01-23T08:02:57Z</time>
      </trkpt>
      <trkpt lat="43.52874" lon="5.69253">
        <ele>313.61</ele>
        <time>2022-01-23T08:03:08Z</time>
      </trkpt>
      <trkpt lat="43.52883" lon="5.69276">
        <ele>316.33</ele>
        <time>2022-01-23T08:03:20Z</time>
      </trkpt>
      <trkpt lat="43.5288" lon="5.69302">
        <ele>322.51</ele>
        <time>2022-01-23T08:03:32Z</time>
      </trkpt>
      <trkpt lat="43.52884" lon="5.69326">
        <ele>331.21</ele>
        <time>2022-01-23T08:03:45Z</time>
      </trkpt>
      <trkpt lat="43.52885" lon="5.69352">
        <ele>334.22</ele>
        <time>2022-01-23T08:03:56Z</time>
      </trkpt>
      <trkpt lat="43.52888" lon="5.69379">
        <ele>338.97</ele>
        <time>2022-01-23T08:04:07Z</time>
      </trkpt>
      <trkpt lat="43.52895" lon="5.69402">
        <ele>342.17</ele>
        <time>2022-01-23T08:04:19Z</time>
      </trkpt>
      <trkpt lat="43.52902" lon="5.69427">
        <ele>343.16</ele>
        <time>2022-01-23T08:04:31Z</time>
      </trkpt>
      <trkpt lat="43.52913" lon="5.69447">
        <ele>343.7</ele>
        <time>2022-01-23T08:04:42Z</time>
      </trkpt>
      <trkpt lat="43.52928" lon="5.69464">
        <ele>345.72</ele>
        <time>2022-01-23T08:04:54Z</time>
      </trkpt>
      <trkpt lat="43.52944" lon="5.69477">
        <ele>347.94</ele>
        <time>2022-01-23T08:05:07Z</time>
      </trkpt>
      <trkpt lat="43.52963" lon="5.69475">
        <ele>349.52</ele>
        <time>2022-01-23T08:05:20Z</time>
      </trkpt>
      <trkpt lat="43.52981" lon="5.69469">
        <ele>351.2</ele>
        <time>2022-01-23T08:05:31Z</time>
      </trkpt>
      <trkpt lat="43.52999" lon="5.6946">
        <ele>354.2</ele>
        <time>2022-01-23T08:05:44Z</time>
      </trkpt>
      <trkpt lat="43.53017" lon="5.69455">
        <ele>357.64</ele>
        <time>2022-01-23T08:05:55Z</time>
      </trkpt>
      <trkpt lat="43.53035" lon="5.69447">
        <ele>363.28</ele>
        <time>2022-01-23T08:06:08Z</time>
      </trkpt>
      <trkpt lat="43.53048" lon="5.69465">
        <ele>367.27</ele>
        <time>2022-01-23T08:06:30Z</time>
      </trkpt>
      <trkpt lat="43.5305" lon="5.69491">
        <ele>371.79</ele>
        <time>2022-01-23T08:06:44Z</time>
      </trkpt>
      <trkpt lat="43.53053" lon="5.69517">
        <ele>375.85</ele>
        <time>2022-01-23T08:06:57Z</time>
      </trkpt>
      <trkpt lat="43.53058" lon="5.69544">
        <ele>379.39</ele>
        <time>2022-01-23T08:07:08Z</time>
      </trkpt>
      <trkpt lat="43.53063" lon="5.69569">
        <ele>382.2</ele>
        <time>2022-01-23T08:07:19Z</time>
      </trkpt>
      <trkpt lat="43.53069" lon="5.69596">
        <ele>382.8</ele>
        <time>2022-01-23T08:07:28Z</time>
      </trkpt>
      <trkpt lat="43.53075" lon="5.6962">
        <ele>383.38</ele>
        <time>2022-01-23T08:07:36Z</time>
      </trkpt>
      <trkpt lat="43.5308" lon="5.69645">
        <ele>385.08</ele>
        <time>2022-01-23T08:07:45Z</time>
      </trkpt>
      <trkpt lat="43.53082" lon="5.6967">
        <ele>387.32</ele>
        <time>2022-01-23T08:07:55Z</time>
      </trkpt>
      <trkpt lat="43.53084" lon="5.69697">
        <ele>387.52</ele>
        <time>2022-01-23T08:08:06Z</time>
      </trkpt>
      <trkpt lat="43.53097" lon="5.69716">
        <ele>386.76</ele>
        <time>2022-01-23T08:08:14Z</time>
      </trkpt>
      <trkpt lat="43.53113" lon="5.69727">
        <ele>386.35</ele>
        <time>2022-01-23T08:08:23Z</time>
      </trkpt>
      <trkpt lat="43.5313" lon="5.69734">
        <ele>385.77</ele>
        <time>2022-01-23T08:08:32Z</time>
      </trkpt>
      <trkpt lat="43.53149" lon="5.69738">
        <ele>384.5</ele>
        <time>2022-01-23T08:08:42Z</time>
      </trkpt>
      <trkpt lat="43.53166" lon="5.69751">
        <ele>382.11</ele>
        <time>2022-01-23T08:08:51Z</time>
      </trkpt>
      <trkpt lat="43.53164" lon="5.69776">
        <ele>381.57</ele>
        <time>2022-01-23T08:09:04Z</time>
      </trkpt>
      <trkpt lat="43.53151" lon="5.69794">
        <ele>380.67</ele>
        <time>2022-01-23T08:09:14Z</time>
      </trkpt>
      <trkpt lat="43.53145" lon="5.69819">
        <ele>380.34</ele>
        <time>2022-01-23T08:09:24Z</time>
      </trkpt>
      <trkpt lat="43.53148" lon="5.69845">
        <ele>380.8</ele>
        <time>2022-01-23T08:09:32Z</time>
      </trkpt>
      <trkpt lat="43.53154" lon="5.69868">
        <ele>381.75</ele>
        <time>2022-01-23T08:09:41Z</time>
      </trkpt>
      <trkpt lat="43.53168" lon="5.69889">
        <ele>382.74</ele>
        <time>2022-01-23T08:09:51Z</time>
      </trkpt>
      <trkpt lat="43.53182" lon="5.69903">
        <ele>384.21</ele>
        <time>2022-01-23T08:10:00Z</time>
      </trkpt>
      <trkpt lat="43.53198" lon="5.69916">
        <ele>386.47</ele>
        <time>2022-01-23T08:10:09Z</time>
      </trkpt>
      <trkpt lat="43.53216" lon="5.69923">
        <ele>388.36</ele>
        <time>2022-01-23T08:10:19Z</time>
      </trkpt>
      <trkpt lat="43.53221" lon="5.6995">
        <ele>391.99</ele>
        <time>2022-01-23T08:10:30Z</time>
      </trkpt>
      <trkpt lat="43.53212" lon="5.69974">
        <ele>394.5</ele>
        <time>2022-01-23T08:10:40Z</time>
      </trkpt>
      <trkpt lat="43.53199" lon="5.69993">
        <ele>396.5</ele>
        <time>2022-01-23T08:10:49Z</time>
      </trkpt>
      <trkpt lat="43.53195" lon="5.70018">
        <ele>398.29</ele>
        <time>2022-01-23T08:10:57Z</time>
      </trkpt>
      <trkpt lat="43.53199" lon="5.70044">
        <ele>400.69</ele>
        <time>2022-01-23T08:11:07Z</time>
      </trkpt>
      <trkpt lat="43.53202" lon="5.70069">
        <ele>403.37</ele>
        <time>2022-01-23T08:11:17Z</time>
      </trkpt>
      <trkpt lat="43.53204" lon="5.70095">
        <ele>406.88</ele>
        <time>2022-01-23T08:11:28Z</time>
      </trkpt>
      <trkpt lat="43.53208" lon="5.7012">
        <ele>408.12</ele>
        <time>2022-01-23T08:11:37Z</time>
      </trkpt>
      <trkpt lat="43.53214" lon="5.70147">
        <ele>409.52</ele>
        <time>2022-01-23T08:11:47Z</time>
      </trkpt>
      <trkpt lat="43.53218" lon="5.70172">
        <ele>411.02</ele>
        <time>2022-01-23T08:11:56Z</time>
      </trkpt>
      <trkpt lat="43.53223" lon="5.70198">
        <ele>412.32</ele>
        <time>2022-01-23T08:12:06Z</time>
      </trkpt>
      <trkpt lat="43.53228" lon="5.70223">
        <ele>413.72</ele>
        <time>2022-01-23T08:12:15Z</time>
      </trkpt>
      <trkpt lat="43.53243" lon="5.7024">
        <ele>414.44</ele>
        <time>2022-01-23T08:12:24Z</time>
      </trkpt>
      <trkpt lat="43.53261" lon="5.70251">
        <ele>414.15</ele>
        <time>2022-01-23T08:12:33Z</time>
      </trkpt>
      <trkpt lat="43.53263" lon="5.70277">
        <ele>415.42</ele>
        <time>2022-01-23T08:12:44Z</time>
      </trkpt>
      <trkpt lat="43.53266" lon="5.70303">
        <ele>417.3</ele>
        <time>2022-01-23T08:12:55Z</time>
      </trkpt>
      <trkpt lat="43.53269" lon="5.70329">
        <ele>419.1</ele>
        <time>2022-01-23T08:13:04Z</time>
      </trkpt>
      <trkpt lat="43.53271" lon="5.70355">
        <ele>420.9</ele>
        <time>2022-01-23T08:13:13Z</time>
      </trkpt>
      <trkpt lat="43.53277" lon="5.7038">
        <ele>422.59</ele>
        <time>2022-01-23T08:13:22Z</time>
      </trkpt>
      <trkpt lat="43.53283" lon="5.70406">
        <ele>423.74</ele>
        <time>2022-01-23T08:13:31Z</time>
      </trkpt>
      <trkpt lat="43.53291" lon="5.70432">
        <ele>424.66</ele>
        <time>2022-01-23T08:13:40Z</time>
      </trkpt>
      <trkpt lat="43.53297" lon="5.70455">
        <ele>424.85</ele>
        <time>2022-01-23T08:13:47Z</time>
      </trkpt>
      <trkpt lat="43.53307" lon="5.7048">
        <ele>424.75</ele>
        <time>2022-01-23T08:13:54Z</time>
      </trkpt>
      <trkpt lat="43.53316" lon="5.70504">
        <ele>424.25</ele>
        <time>2022-01-23T08:14:00Z</time>
      </trkpt>
      <trkpt lat="43.53325" lon="5.70528">
        <ele>424.25</ele>
        <time>2022-01-23T08:14:06Z</time>
      </trkpt>
      <trkpt lat="43.53336" lon="5.70551">
        <ele>424.25</ele>
        <time>2022-01-23T08:14:12Z</time>
      </trkpt>
      <trkpt lat="43.53347" lon="5.70574">
        <ele>424.41</ele>
        <time>2022-01-23T08:14:18Z</time>
      </trkpt>
      <trkpt lat="43.53359" lon="5.70597">
        <ele>424.55</ele>
        <time>2022-01-23T08:14:24Z</time>
      </trkpt>
      <trkpt lat="43.53369" lon="5.7062">
        <ele>424.19</ele>
        <time>2022-01-23T08:14:30Z</time>
      </trkpt>
      <trkpt lat="43.53378" lon="5.70642">
        <ele>423.77</ele>
        <time>2022-01-23T08:14:35Z</time>
      </trkpt>
      <trkpt lat="43.53386" lon="5.70664">
        <ele>423.19</ele>
        <time>2022-01-23T08:14:40Z</time>
      </trkpt>
      <trkpt lat="43.53396" lon="5.70687">
        <ele>422.77</ele>
        <time>2022-01-23T08:14:45Z</time>
      </trkpt>
      <trkpt lat="43.53405" lon="5.70709">
        <ele>422.55</ele>
        <time>2022-01-23T08:14:50Z</time>
      </trkpt>
      <trkpt lat="43.53415" lon="5.70732">
        <ele>422.65</ele>
        <time>2022-01-23T08:14:55Z</time>
      </trkpt>
      <trkpt lat="43.53424" lon="5.70755">
        <ele>422.67</ele>
        <time>2022-01-23T08:15:00Z</time>
      </trkpt>
      <trkpt lat="43.53433" lon="5.7078">
        <ele>422.85</ele>
        <time>2022-01-23T08:15:05Z</time>
      </trkpt>
      <trkpt lat="43.53442" lon="5.70806">
        <ele>422.85</ele>
        <time>2022-01-23T08:15:10Z</time>
      </trkpt>
      <trkpt lat="43.53451" lon="5.7083">
        <ele>422.67</ele>
        <time>2022-01-23T08:15:15Z</time>
      </trkpt>
      <trkpt lat="43.5346" lon="5.70855">
        <ele>422.47</ele>
        <time>2022-01-23T08:15:20Z</time>
      </trkpt>
      <trkpt lat="43.53467" lon="5.70882">
        <ele>422.82</ele>
        <time>2022-01-23T08:15:25Z</time>
      </trkpt>
      <trkpt lat="43.53475" lon="5.70907">
        <ele>422.67</ele>
        <time>2022-01-23T08:15:30Z</time>
      </trkpt>
      <trkpt lat="43.53484" lon="5.70931">
        <ele>422.58</ele>
        <time>2022-01-23T08:15:35Z</time>
      </trkpt>
      <trkpt lat="43.53492" lon="5.70954">
        <ele>422.64</ele>
        <time>2022-01-23T08:15:40Z</time>
      </trkpt>
      <trkpt lat="43.53501" lon="5.70976">
        <ele>422.76</ele>
        <time>2022-01-23T08:15:45Z</time>
      </trkpt>
      <trkpt lat="43.5351" lon="5.70999">
        <ele>422.57</ele>
        <time>2022-01-23T08:15:50Z</time>
      </trkpt>
      <trkpt lat="43.53518" lon="5.71022">
        <ele>422.35</ele>
        <time>2022-01-23T08:15:55Z</time>
      </trkpt>
      <trkpt lat="43.53528" lon="5.71048">
        <ele>422.9</ele>
        <time>2022-01-23T08:16:01Z</time>
      </trkpt>
      <trkpt lat="43.53537" lon="5.71074">
        <ele>423.52</ele>
        <time>2022-01-23T08:16:07Z</time>
      </trkpt>
      <trkpt lat="43.53546" lon="5.71097">
        <ele>423.66</ele>
        <time>2022-01-23T08:16:12Z</time>
      </trkpt>
      <trkpt lat="43.53554" lon="5.7112">
        <ele>423.93</ele>
        <time>2022-01-23T08:16:17Z</time>
      </trkpt>
      <trkpt lat="43.53564" lon="5.71146">
        <ele>424.05</ele>
        <time>2022-01-23T08:16:23Z</time>
      </trkpt>
      <trkpt lat="43.53577" lon="5.71167">
        <ele>423.93</ele>
        <time>2022-01-23T08:16:29Z</time>
      </trkpt>
      <trkpt lat="43.53591" lon="5.71188">
        <ele>424.15</ele>
        <time>2022-01-23T08:16:35Z</time>
      </trkpt>
      <trkpt lat="43.53604" lon="5.71209">
        <ele>424.17</ele>
        <time>2022-01-23T08:16:41Z</time>
      </trkpt>
      <trkpt lat="43.53617" lon="5.7123">
        <ele>424.54</ele>
        <time>2022-01-23T08:16:47Z</time>
      </trkpt>
      <trkpt lat="43.5363" lon="5.71252">
        <ele>424.55</ele>
        <time>2022-01-23T08:16:53Z</time>
      </trkpt>
      <trkpt lat="43.53643" lon="5.71271">
        <ele>424.47</ele>
        <time>2022-01-23T08:16:59Z</time>
      </trkpt>
      <trkpt lat="43.53656" lon="5.71293">
        <ele>424.35</ele>
        <time>2022-01-23T08:17:05Z</time>
      </trkpt>
      <trkpt lat="43.53669" lon="5.71313">
        <ele>424.25</ele>
        <time>2022-01-23T08:17:11Z</time>
      </trkpt>
      <trkpt lat="43.53681" lon="5.71332">
        <ele>424.82</ele>
        <time>2022-01-23T08:17:17Z</time>
      </trkpt>
      <trkpt lat="43.53694" lon="5.71354">
        <ele>425.72</ele>
        <time>2022-01-23T08:17:24Z</time>
      </trkpt>
      <trkpt lat="43.53707" lon="5.71376">
        <ele>426.32</ele>
        <time>2022-01-23T08:17:31Z</time>
      </trkpt>
      <trkpt lat="43.53719" lon="5.71396">
        <ele>427</ele>
        <time>2022-01-23T08:17:37Z</time>
      </trkpt>
      <trkpt lat="43.53731" lon="5.71414">
        <ele>427.41</ele>
        <time>2022-01-23T08:17:43Z</time>
      </trkpt>
      <trkpt lat="43.53747" lon="5.71431">
        <ele>428.11</ele>
        <time>2022-01-23T08:17:50Z</time>
      </trkpt>
      <trkpt lat="43.5376" lon="5.71452">
        <ele>429.52</ele>
        <time>2022-01-23T08:17:58Z</time>
      </trkpt>
      <trkpt lat="43.53755" lon="5.71477">
        <ele>430.7</ele>
        <time>2022-01-23T08:18:06Z</time>
      </trkpt>
      <trkpt lat="43.53745" lon="5.715">
        <ele>431.8</ele>
        <time>2022-01-23T08:18:12Z</time>
      </trkpt>
      <trkpt lat="43.53734" lon="5.71521">
        <ele>432.72</ele>
        <time>2022-01-23T08:18:19Z</time>
      </trkpt>
      <trkpt lat="43.53725" lon="5.71544">
        <ele>433.52</ele>
        <time>2022-01-23T08:18:26Z</time>
      </trkpt>
      <trkpt lat="43.5373" lon="5.71569">
        <ele>435</ele>
        <time>2022-01-23T08:18:35Z</time>
      </trkpt>
      <trkpt lat="43.5375" lon="5.71571">
        <ele>436.5</ele>
        <time>2022-01-23T08:18:43Z</time>
      </trkpt>
      <trkpt lat="43.53768" lon="5.71569">
        <ele>438.06</ele>
        <time>2022-01-23T08:18:51Z</time>
      </trkpt>
      <trkpt lat="43.53786" lon="5.71565">
        <ele>439.71</ele>
        <time>2022-01-23T08:18:58Z</time>
      </trkpt>
      <trkpt lat="43.53804" lon="5.71562">
        <ele>441.01</ele>
        <time>2022-01-23T08:19:05Z</time>
      </trkpt>
      <trkpt lat="43.53825" lon="5.71557">
        <ele>442.46</ele>
        <time>2022-01-23T08:19:13Z</time>
      </trkpt>
      <trkpt lat="43.53843" lon="5.71555">
        <ele>442.86</ele>
        <time>2022-01-23T08:19:20Z</time>
      </trkpt>
      <trkpt lat="43.53863" lon="5.71552">
        <ele>445.11</ele>
        <time>2022-01-23T08:19:28Z</time>
      </trkpt>
      <trkpt lat="43.53883" lon="5.7155">
        <ele>446.71</ele>
        <time>2022-01-23T08:19:36Z</time>
      </trkpt>
      <trkpt lat="43.53902" lon="5.71547">
        <ele>447.49</ele>
        <time>2022-01-23T08:19:44Z</time>
      </trkpt>
      <trkpt lat="43.53921" lon="5.71543">
        <ele>449.8</ele>
        <time>2022-01-23T08:19:53Z</time>
      </trkpt>
      <trkpt lat="43.5394" lon="5.71541">
        <ele>451.81</ele>
        <time>2022-01-23T08:20:01Z</time>
      </trkpt>
      <trkpt lat="43.53958" lon="5.7154">
        <ele>453.72</ele>
        <time>2022-01-23T08:20:10Z</time>
      </trkpt>
      <trkpt lat="43.53978" lon="5.71536">
        <ele>455.51</ele>
        <time>2022-01-23T08:20:18Z</time>
      </trkpt>
      <trkpt lat="43.53994" lon="5.71524">
        <ele>456.88</ele>
        <time>2022-01-23T08:20:24Z</time>
      </trkpt>
      <trkpt lat="43.54012" lon="5.71509">
        <ele>459.23</ele>
        <time>2022-01-23T08:20:31Z</time>
      </trkpt>
      <trkpt lat="43.54027" lon="5.71492">
        <ele>462.05</ele>
        <time>2022-01-23T08:20:38Z</time>
      </trkpt>
      <trkpt lat="43.54043" lon="5.71474">
        <ele>464.09</ele>
        <time>2022-01-23T08:20:45Z</time>
      </trkpt>
      <trkpt lat="43.5406" lon="5.71457">
        <ele>464.55</ele>
        <time>2022-01-23T08:20:50Z</time>
      </trkpt>
      <trkpt lat="43.54074" lon="5.71441">
        <ele>463.8</ele>
        <time>2022-01-23T08:20:54Z</time>
      </trkpt>
      <trkpt lat="43.54091" lon="5.71423">
        <ele>463.2</ele>
        <time>2022-01-23T08:20:58Z</time>
      </trkpt>
      <trkpt lat="43.54108" lon="5.71403">
        <ele>462.2</ele>
        <time>2022-01-23T08:21:02Z</time>
      </trkpt>
      <trkpt lat="43.54123" lon="5.71387">
        <ele>461.22</ele>
        <time>2022-01-23T08:21:05Z</time>
      </trkpt>
      <trkpt lat="43.54137" lon="5.7137">
        <ele>460.34</ele>
        <time>2022-01-23T08:21:08Z</time>
      </trkpt>
      <trkpt lat="43.54151" lon="5.7135">
        <ele>459.58</ele>
        <time>2022-01-23T08:21:11Z</time>
      </trkpt>
      <trkpt lat="43.54164" lon="5.71328">
        <ele>458.82</ele>
        <time>2022-01-23T08:21:14Z</time>
      </trkpt>
      <trkpt lat="43.5418" lon="5.71307">
        <ele>458.1</ele>
        <time>2022-01-23T08:21:17Z</time>
      </trkpt>
      <trkpt lat="43.54194" lon="5.71284">
        <ele>457.32</ele>
        <time>2022-01-23T08:21:20Z</time>
      </trkpt>
      <trkpt lat="43.54209" lon="5.71259">
        <ele>456.6</ele>
        <time>2022-01-23T08:21:23Z</time>
      </trkpt>
      <trkpt lat="43.54225" lon="5.71234">
        <ele>455.56</ele>
        <time>2022-01-23T08:21:26Z</time>
      </trkpt>
      <trkpt lat="43.54241" lon="5.71207">
        <ele>454.53</ele>
        <time>2022-01-23T08:21:29Z</time>
      </trkpt>
      <trkpt lat="43.54259" lon="5.7118">
        <ele>453.33</ele>
        <time>2022-01-23T08:21:32Z</time>
      </trkpt>
      <trkpt lat="43.54275" lon="5.71154">
        <ele>451.6</ele>
        <time>2022-01-23T08:21:35Z</time>
      </trkpt>
      <trkpt lat="43.54291" lon="5.71126">
        <ele>449.5</ele>
        <time>2022-01-23T08:21:38Z</time>
      </trkpt>
      <trkpt lat="43.54306" lon="5.711">
        <ele>447.41</ele>
        <time>2022-01-23T08:21:41Z</time>
      </trkpt>
      <trkpt lat="43.5432" lon="5.71075">
        <ele>445.48</ele>
        <time>2022-01-23T08:21:44Z</time>
      </trkpt>
      <trkpt lat="43.54334" lon="5.71054">
        <ele>444.23</ele>
        <time>2022-01-23T08:21:47Z</time>
      </trkpt>
      <trkpt lat="43.5435" lon="5.7103">
        <ele>442.88</ele>
        <time>2022-01-23T08:21:51Z</time>
      </trkpt>
      <trkpt lat="43.54362" lon="5.7101">
        <ele>441.47</ele>
        <time>2022-01-23T08:21:54Z</time>
      </trkpt>
      <trkpt lat="43.54378" lon="5.70988">
        <ele>440.39</ele>
        <time>2022-01-23T08:21:58Z</time>
      </trkpt>
      <trkpt lat="43.54394" lon="5.70967">
        <ele>439.78</ele>
        <time>2022-01-23T08:22:02Z</time>
      </trkpt>
      <trkpt lat="43.5441" lon="5.70945">
        <ele>438.92</ele>
        <time>2022-01-23T08:22:06Z</time>
      </trkpt>
      <trkpt lat="43.54423" lon="5.70925">
        <ele>438.83</ele>
        <time>2022-01-23T08:22:10Z</time>
      </trkpt>
      <trkpt lat="43.54436" lon="5.70901">
        <ele>439.6</ele>
        <time>2022-01-23T08:22:16Z</time>
      </trkpt>
      <trkpt lat="43.54451" lon="5.70882">
        <ele>441.29</ele>
        <time>2022-01-23T08:22:22Z</time>
      </trkpt>
      <trkpt lat="43.54464" lon="5.70857">
        <ele>442.14</ele>
        <time>2022-01-23T08:22:27Z</time>
      </trkpt>
      <trkpt lat="43.54479" lon="5.70833">
        <ele>441.87</ele>
        <time>2022-01-23T08:22:32Z</time>
      </trkpt>
      <trkpt lat="43.54492" lon="5.70812">
        <ele>442.12</ele>
        <time>2022-01-23T08:22:37Z</time>
      </trkpt>
      <trkpt lat="43.54502" lon="5.70792">
        <ele>442.78</ele>
        <time>2022-01-23T08:22:42Z</time>
      </trkpt>
      <trkpt lat="43.54513" lon="5.70772">
        <ele>442.33</ele>
        <time>2022-01-23T08:22:47Z</time>
      </trkpt>
      <trkpt lat="43.54523" lon="5.7075">
        <ele>441.45</ele>
        <time>2022-01-23T08:22:53Z</time>
      </trkpt>
      <trkpt lat="43.54535" lon="5.7073">
        <ele>441.63</ele>
        <time>2022-01-23T08:23:00Z</time>
      </trkpt>
      <trkpt lat="43.54549" lon="5.70709">
        <ele>441.24</ele>
        <time>2022-01-23T08:23:06Z</time>
      </trkpt>
      <trkpt lat="43.54561" lon="5.70688">
        <ele>441.69</ele>
        <time>2022-01-23T08:23:13Z</time>
      </trkpt>
      <trkpt lat="43.54571" lon="5.70667">
        <ele>442.03</ele>
        <time>2022-01-23T08:23:20Z</time>
      </trkpt>
      <trkpt lat="43.54583" lon="5.70647">
        <ele>443.4</ele>
        <time>2022-01-23T08:23:26Z</time>
      </trkpt>
      <trkpt lat="43.54596" lon="5.70628">
        <ele>443.04</ele>
        <time>2022-01-23T08:23:33Z</time>
      </trkpt>
      <trkpt lat="43.54608" lon="5.70609">
        <ele>444.32</ele>
        <time>2022-01-23T08:23:39Z</time>
      </trkpt>
      <trkpt lat="43.54621" lon="5.70592">
        <ele>443.97</ele>
        <time>2022-01-23T08:23:45Z</time>
      </trkpt>
      <trkpt lat="43.54634" lon="5.70572">
        <ele>444.19</ele>
        <time>2022-01-23T08:23:51Z</time>
      </trkpt>
      <trkpt lat="43.54649" lon="5.70557">
        <ele>443.91</ele>
        <time>2022-01-23T08:23:57Z</time>
      </trkpt>
      <trkpt lat="43.54669" lon="5.70555">
        <ele>444.79</ele>
        <time>2022-01-23T08:24:05Z</time>
      </trkpt>
      <trkpt lat="43.54688" lon="5.70562">
        <ele>444.64</ele>
        <time>2022-01-23T08:24:11Z</time>
      </trkpt>
      <trkpt lat="43.54705" lon="5.70568">
        <ele>444.37</ele>
        <time>2022-01-23T08:24:16Z</time>
      </trkpt>
      <trkpt lat="43.54724" lon="5.70572">
        <ele>444.22</ele>
        <time>2022-01-23T08:24:21Z</time>
      </trkpt>
      <trkpt lat="43.54745" lon="5.70576">
        <ele>444.9</ele>
        <time>2022-01-23T08:24:26Z</time>
      </trkpt>
      <trkpt lat="43.54766" lon="5.70578">
        <ele>447.1</ele>
        <time>2022-01-23T08:24:31Z</time>
      </trkpt>
      <trkpt lat="43.54787" lon="5.70584">
        <ele>448.69</ele>
        <time>2022-01-23T08:24:36Z</time>
      </trkpt>
      <trkpt lat="43.54807" lon="5.70588">
        <ele>448.38</ele>
        <time>2022-01-23T08:24:40Z</time>
      </trkpt>
      <trkpt lat="43.54826" lon="5.7059">
        <ele>447.59</ele>
        <time>2022-01-23T08:24:44Z</time>
      </trkpt>
      <trkpt lat="43.54845" lon="5.7059">
        <ele>448.17</ele>
        <time>2022-01-23T08:24:48Z</time>
      </trkpt>
      <trkpt lat="43.54865" lon="5.70589">
        <ele>448.07</ele>
        <time>2022-01-23T08:24:52Z</time>
      </trkpt>
      <trkpt lat="43.54883" lon="5.70591">
        <ele>448.41</ele>
        <time>2022-01-23T08:24:56Z</time>
      </trkpt>
      <trkpt lat="43.54904" lon="5.70592">
        <ele>448.4</ele>
        <time>2022-01-23T08:25:00Z</time>
      </trkpt>
      <trkpt lat="43.54925" lon="5.70594">
        <ele>449.45</ele>
        <time>2022-01-23T08:25:04Z</time>
      </trkpt>
      <trkpt lat="43.54946" lon="5.70597">
        <ele>451.26</ele>
        <time>2022-01-23T08:25:09Z</time>
      </trkpt>
      <trkpt lat="43.54965" lon="5.70599">
        <ele>450.93</ele>
        <time>2022-01-23T08:25:14Z</time>
      </trkpt>
      <trkpt lat="43.54986" lon="5.706">
        <ele>450.68</ele>
        <time>2022-01-23T08:25:19Z</time>
      </trkpt>
      <trkpt lat="43.55004" lon="5.70603">
        <ele>450.5</ele>
        <time>2022-01-23T08:25:24Z</time>
      </trkpt>
      <trkpt lat="43.55022" lon="5.70605">
        <ele>450.43</ele>
        <time>2022-01-23T08:25:29Z</time>
      </trkpt>
      <trkpt lat="43.55043" lon="5.70608">
        <ele>449.45</ele>
        <time>2022-01-23T08:25:35Z</time>
      </trkpt>
      <trkpt lat="43.55063" lon="5.7061">
        <ele>448.11</ele>
        <time>2022-01-23T08:25:40Z</time>
      </trkpt>
      <trkpt lat="43.55083" lon="5.70616">
        <ele>447.9</ele>
        <time>2022-01-23T08:25:45Z</time>
      </trkpt>
      <trkpt lat="43.55101" lon="5.70621">
        <ele>449.9</ele>
        <time>2022-01-23T08:25:50Z</time>
      </trkpt>
      <trkpt lat="43.55121" lon="5.70626">
        <ele>450.84</ele>
        <time>2022-01-23T08:25:55Z</time>
      </trkpt>
      <trkpt lat="43.5514" lon="5.70633">
        <ele>449.78</ele>
        <time>2022-01-23T08:25:59Z</time>
      </trkpt>
      <trkpt lat="43.55158" lon="5.70639">
        <ele>448.4</ele>
        <time>2022-01-23T08:26:03Z</time>
      </trkpt>
      <trkpt lat="43.55177" lon="5.70645">
        <ele>447.69</ele>
        <time>2022-01-23T08:26:08Z</time>
      </trkpt>
      <trkpt lat="43.55197" lon="5.70649">
        <ele>448.71</ele>
        <time>2022-01-23T08:26:13Z</time>
      </trkpt>
      <trkpt lat="43.55217" lon="5.70652">
        <ele>448.36</ele>
        <time>2022-01-23T08:26:18Z</time>
      </trkpt>
      <trkpt lat="43.55238" lon="5.70655">
        <ele>447.18</ele>
        <time>2022-01-23T08:26:24Z</time>
      </trkpt>
      <trkpt lat="43.55259" lon="5.70657">
        <ele>446.37</ele>
        <time>2022-01-23T08:26:30Z</time>
      </trkpt>
      <trkpt lat="43.55279" lon="5.70659">
        <ele>445.35</ele>
        <time>2022-01-23T08:26:35Z</time>
      </trkpt>
      <trkpt lat="43.55299" lon="5.70662">
        <ele>445</ele>
        <time>2022-01-23T08:26:40Z</time>
      </trkpt>
      <trkpt lat="43.55319" lon="5.70664">
        <ele>445.2</ele>
        <time>2022-01-23T08:26:45Z</time>
      </trkpt>
      <trkpt lat="43.55339" lon="5.70666">
        <ele>445.46</ele>
        <time>2022-01-23T08:26:51Z</time>
      </trkpt>
      <trkpt lat="43.55359" lon="5.70666">
        <ele>445.26</ele>
        <time>2022-01-23T08:26:57Z</time>
      </trkpt>
      <trkpt lat="43.55378" lon="5.70666">
        <ele>445.78</ele>
        <time>2022-01-23T08:27:02Z</time>
      </trkpt>
      <trkpt lat="43.55396" lon="5.70662">
        <ele>446.19</ele>
        <time>2022-01-23T08:27:07Z</time>
      </trkpt>
      <trkpt lat="43.55416" lon="5.70655">
        <ele>445.56</ele>
        <time>2022-01-23T08:27:13Z</time>
      </trkpt>
      <trkpt lat="43.55434" lon="5.70648">
        <ele>445.27</ele>
        <time>2022-01-23T08:27:18Z</time>
      </trkpt>
      <trkpt lat="43.55453" lon="5.70639">
        <ele>445.23</ele>
        <time>2022-01-23T08:27:23Z</time>
      </trkpt>
      <trkpt lat="43.5547" lon="5.7063">
        <ele>446.55</ele>
        <time>2022-01-23T08:27:28Z</time>
      </trkpt>
      <trkpt lat="43.55487" lon="5.70621">
        <ele>448.3</ele>
        <time>2022-01-23T08:27:33Z</time>
      </trkpt>
      <trkpt lat="43.55507" lon="5.70615">
        <ele>450.86</ele>
        <time>2022-01-23T08:27:39Z</time>
      </trkpt>
      <trkpt lat="43.55525" lon="5.70608">
        <ele>452.23</ele>
        <time>2022-01-23T08:27:45Z</time>
      </trkpt>
      <trkpt lat="43.55545" lon="5.70602">
        <ele>453.62</ele>
        <time>2022-01-23T08:27:51Z</time>
      </trkpt>
      <trkpt lat="43.55564" lon="5.70595">
        <ele>453.79</ele>
        <time>2022-01-23T08:27:56Z</time>
      </trkpt>
      <trkpt lat="43.55582" lon="5.70582">
        <ele>454.82</ele>
        <time>2022-01-23T08:28:01Z</time>
      </trkpt>
      <trkpt lat="43.55599" lon="5.70571">
        <ele>454.54</ele>
        <time>2022-01-23T08:28:06Z</time>
      </trkpt>
      <trkpt lat="43.55618" lon="5.70581">
        <ele>453.14</ele>
        <time>2022-01-23T08:28:12Z</time>
      </trkpt>
      <trkpt lat="43.55622" lon="5.7061">
        <ele>450.86</ele>
        <time>2022-01-23T08:28:17Z</time>
      </trkpt>
      <trkpt lat="43.55624" lon="5.70642">
        <ele>449.26</ele>
        <time>2022-01-23T08:28:21Z</time>
      </trkpt>
      <trkpt lat="43.55625" lon="5.70673">
        <ele>447.56</ele>
        <time>2022-01-23T08:28:24Z</time>
      </trkpt>
      <trkpt lat="43.55625" lon="5.70705">
        <ele>446.8</ele>
        <time>2022-01-23T08:28:27Z</time>
      </trkpt>
      <trkpt lat="43.55622" lon="5.70733">
        <ele>446.1</ele>
        <time>2022-01-23T08:28:30Z</time>
      </trkpt>
      <trkpt lat="43.55618" lon="5.70758">
        <ele>445.87</ele>
        <time>2022-01-23T08:28:33Z</time>
      </trkpt>
      <trkpt lat="43.55636" lon="5.70749">
        <ele>444.55</ele>
        <time>2022-01-23T08:28:53Z</time>
      </trkpt>
      <trkpt lat="43.5565" lon="5.70732">
        <ele>444.62</ele>
        <time>2022-01-23T08:29:02Z</time>
      </trkpt>
      <trkpt lat="43.55663" lon="5.70714">
        <ele>446.69</ele>
        <time>2022-01-23T08:29:12Z</time>
      </trkpt>
      <trkpt lat="43.55678" lon="5.70696">
        <ele>448.98</ele>
        <time>2022-01-23T08:29:22Z</time>
      </trkpt>
      <trkpt lat="43.55692" lon="5.70679">
        <ele>451.59</ele>
        <time>2022-01-23T08:29:31Z</time>
      </trkpt>
      <trkpt lat="43.55707" lon="5.70662">
        <ele>454.28</ele>
        <time>2022-01-23T08:29:41Z</time>
      </trkpt>
      <trkpt lat="43.55724" lon="5.7065">
        <ele>458.3</ele>
        <time>2022-01-23T08:29:52Z</time>
      </trkpt>
      <trkpt lat="43.55743" lon="5.70646">
        <ele>459.12</ele>
        <time>2022-01-23T08:30:02Z</time>
      </trkpt>
      <trkpt lat="43.55761" lon="5.70644">
        <ele>458.93</ele>
        <time>2022-01-23T08:30:10Z</time>
      </trkpt>
      <trkpt lat="43.5578" lon="5.70652">
        <ele>458.05</ele>
        <time>2022-01-23T08:30:19Z</time>
      </trkpt>
      <trkpt lat="43.55797" lon="5.70662">
        <ele>457.44</ele>
        <time>2022-01-23T08:30:28Z</time>
      </trkpt>
      <trkpt lat="43.55814" lon="5.70672">
        <ele>460.55</ele>
        <time>2022-01-23T08:30:38Z</time>
      </trkpt>
      <trkpt lat="43.55832" lon="5.70668">
        <ele>464.35</ele>
        <time>2022-01-23T08:30:52Z</time>
      </trkpt>
      <trkpt lat="43.55836" lon="5.70642">
        <ele>467.2</ele>
        <time>2022-01-23T08:31:03Z</time>
      </trkpt>
      <trkpt lat="43.55845" lon="5.70619">
        <ele>471.04</ele>
        <time>2022-01-23T08:31:14Z</time>
      </trkpt>
      <trkpt lat="43.55859" lon="5.70602">
        <ele>474.07</ele>
        <time>2022-01-23T08:31:25Z</time>
      </trkpt>
      <trkpt lat="43.55874" lon="5.70586">
        <ele>476.7</ele>
        <time>2022-01-23T08:31:37Z</time>
      </trkpt>
      <trkpt lat="43.55892" lon="5.70588">
        <ele>478.25</ele>
        <time>2022-01-23T08:31:47Z</time>
      </trkpt>
      <trkpt lat="43.5591" lon="5.70593">
        <ele>477.22</ele>
        <time>2022-01-23T08:31:56Z</time>
      </trkpt>
      <trkpt lat="43.55927" lon="5.70604">
        <ele>478.14</ele>
        <time>2022-01-23T08:32:06Z</time>
      </trkpt>
      <trkpt lat="43.55943" lon="5.70617">
        <ele>478.84</ele>
        <time>2022-01-23T08:32:16Z</time>
      </trkpt>
      <trkpt lat="43.55962" lon="5.70617">
        <ele>480.4</ele>
        <time>2022-01-23T08:32:29Z</time>
      </trkpt>
      <trkpt lat="43.55974" lon="5.70597">
        <ele>482.65</ele>
        <time>2022-01-23T08:32:39Z</time>
      </trkpt>
      <trkpt lat="43.5599" lon="5.70585">
        <ele>485.73</ele>
        <time>2022-01-23T08:32:49Z</time>
      </trkpt>
      <trkpt lat="43.56007" lon="5.70574">
        <ele>489.39</ele>
        <time>2022-01-23T08:32:59Z</time>
      </trkpt>
      <trkpt lat="43.56014" lon="5.7055">
        <ele>490.44</ele>
        <time>2022-01-23T08:33:09Z</time>
      </trkpt>
      <trkpt lat="43.56016" lon="5.70524">
        <ele>490.75</ele>
        <time>2022-01-23T08:33:18Z</time>
      </trkpt>
      <trkpt lat="43.56011" lon="5.705">
        <ele>491.04</ele>
        <time>2022-01-23T08:33:28Z</time>
      </trkpt>
      <trkpt lat="43.56004" lon="5.70475">
        <ele>490.59</ele>
        <time>2022-01-23T08:33:38Z</time>
      </trkpt>
      <trkpt lat="43.55994" lon="5.70451">
        <ele>490.05</ele>
        <time>2022-01-23T08:33:49Z</time>
      </trkpt>
      <trkpt lat="43.55988" lon="5.70425">
        <ele>490.93</ele>
        <time>2022-01-23T08:33:59Z</time>
      </trkpt>
      <trkpt lat="43.55986" lon="5.70399">
        <ele>491.33</ele>
        <time>2022-01-23T08:34:08Z</time>
      </trkpt>
      <trkpt lat="43.55989" lon="5.70374">
        <ele>490.75</ele>
        <time>2022-01-23T08:34:16Z</time>
      </trkpt>
      <trkpt lat="43.55989" lon="5.70346">
        <ele>490.3</ele>
        <time>2022-01-23T08:34:23Z</time>
      </trkpt>
      <trkpt lat="43.55983" lon="5.70322">
        <ele>489.45</ele>
        <time>2022-01-23T08:34:30Z</time>
      </trkpt>
      <trkpt lat="43.55975" lon="5.70297">
        <ele>489.45</ele>
        <time>2022-01-23T08:34:39Z</time>
      </trkpt>
      <trkpt lat="43.55961" lon="5.70281">
        <ele>489.87</ele>
        <time>2022-01-23T08:34:48Z</time>
      </trkpt>
      <trkpt lat="43.55946" lon="5.70263">
        <ele>491.54</ele>
        <time>2022-01-23T08:34:57Z</time>
      </trkpt>
      <trkpt lat="43.55932" lon="5.70247">
        <ele>492.2</ele>
        <time>2022-01-23T08:35:06Z</time>
      </trkpt>
      <trkpt lat="43.55916" lon="5.70233">
        <ele>493.42</ele>
        <time>2022-01-23T08:35:15Z</time>
      </trkpt>
      <trkpt lat="43.55912" lon="5.70207">
        <ele>494.52</ele>
        <time>2022-01-23T08:36:16Z</time>
      </trkpt>
      <trkpt lat="43.55918" lon="5.70184">
        <ele>497.45</ele>
        <time>2022-01-23T08:36:26Z</time>
      </trkpt>
      <trkpt lat="43.55923" lon="5.70158">
        <ele>501.11</ele>
        <time>2022-01-23T08:36:37Z</time>
      </trkpt>
      <trkpt lat="43.55925" lon="5.70133">
        <ele>503.3</ele>
        <time>2022-01-23T08:36:49Z</time>
      </trkpt>
      <trkpt lat="43.55936" lon="5.7011">
        <ele>504.5</ele>
        <time>2022-01-23T08:37:00Z</time>
      </trkpt>
      <trkpt lat="43.55946" lon="5.70087">
        <ele>505.74</ele>
        <time>2022-01-23T08:37:09Z</time>
      </trkpt>
      <trkpt lat="43.55956" lon="5.70066">
        <ele>506.24</ele>
        <time>2022-01-23T08:37:16Z</time>
      </trkpt>
      <trkpt lat="43.55965" lon="5.70043">
        <ele>506.54</ele>
        <time>2022-01-23T08:37:22Z</time>
      </trkpt>
      <trkpt lat="43.5597" lon="5.70018">
        <ele>506.65</ele>
        <time>2022-01-23T08:37:27Z</time>
      </trkpt>
      <trkpt lat="43.55973" lon="5.69989">
        <ele>506.53</ele>
        <time>2022-01-23T08:37:32Z</time>
      </trkpt>
      <trkpt lat="43.55975" lon="5.69959">
        <ele>505.97</ele>
        <time>2022-01-23T08:37:37Z</time>
      </trkpt>
      <trkpt lat="43.55977" lon="5.69929">
        <ele>505.75</ele>
        <time>2022-01-23T08:37:42Z</time>
      </trkpt>
      <trkpt lat="43.55978" lon="5.699">
        <ele>505.57</ele>
        <time>2022-01-23T08:37:47Z</time>
      </trkpt>
      <trkpt lat="43.55976" lon="5.69871">
        <ele>505.09</ele>
        <time>2022-01-23T08:37:52Z</time>
      </trkpt>
      <trkpt lat="43.55974" lon="5.69845">
        <ele>504.47</ele>
        <time>2022-01-23T08:37:57Z</time>
      </trkpt>
      <trkpt lat="43.55972" lon="5.69818">
        <ele>503.97</ele>
        <time>2022-01-23T08:38:02Z</time>
      </trkpt>
      <trkpt lat="43.5597" lon="5.69787">
        <ele>503.11</ele>
        <time>2022-01-23T08:38:07Z</time>
      </trkpt>
      <trkpt lat="43.55973" lon="5.69758">
        <ele>501.73</ele>
        <time>2022-01-23T08:38:11Z</time>
      </trkpt>
      <trkpt lat="43.55977" lon="5.69734">
        <ele>500.74</ele>
        <time>2022-01-23T08:38:14Z</time>
      </trkpt>
      <trkpt lat="43.5598" lon="5.69707">
        <ele>499.84</ele>
        <time>2022-01-23T08:38:17Z</time>
      </trkpt>
      <trkpt lat="43.55975" lon="5.69683">
        <ele>498.45</ele>
        <time>2022-01-23T08:38:20Z</time>
      </trkpt>
      <trkpt lat="43.55967" lon="5.69657">
        <ele>496.85</ele>
        <time>2022-01-23T08:38:24Z</time>
      </trkpt>
      <trkpt lat="43.55966" lon="5.69628">
        <ele>495.17</ele>
        <time>2022-01-23T08:38:28Z</time>
      </trkpt>
      <trkpt lat="43.55969" lon="5.69598">
        <ele>493.45</ele>
        <time>2022-01-23T08:38:32Z</time>
      </trkpt>
      <trkpt lat="43.55971" lon="5.69567">
        <ele>491.75</ele>
        <time>2022-01-23T08:38:36Z</time>
      </trkpt>
      <trkpt lat="43.5597" lon="5.69535">
        <ele>490.51</ele>
        <time>2022-01-23T08:38:40Z</time>
      </trkpt>
      <trkpt lat="43.5597" lon="5.6951">
        <ele>489.44</ele>
        <time>2022-01-23T08:38:44Z</time>
      </trkpt>
      <trkpt lat="43.55971" lon="5.69481">
        <ele>488.45</ele>
        <time>2022-01-23T08:38:50Z</time>
      </trkpt>
      <trkpt lat="43.55976" lon="5.69454">
        <ele>487.5</ele>
        <time>2022-01-23T08:38:56Z</time>
      </trkpt>
      <trkpt lat="43.55983" lon="5.69431">
        <ele>486.68</ele>
        <time>2022-01-23T08:39:01Z</time>
      </trkpt>
      <trkpt lat="43.55994" lon="5.69407">
        <ele>486.37</ele>
        <time>2022-01-23T08:39:06Z</time>
      </trkpt>
      <trkpt lat="43.56009" lon="5.69383">
        <ele>486.07</ele>
        <time>2022-01-23T08:39:11Z</time>
      </trkpt>
      <trkpt lat="43.56023" lon="5.69363">
        <ele>486.25</ele>
        <time>2022-01-23T08:39:15Z</time>
      </trkpt>
      <trkpt lat="43.56041" lon="5.69344">
        <ele>486.25</ele>
        <time>2022-01-23T08:39:19Z</time>
      </trkpt>
      <trkpt lat="43.56055" lon="5.69319">
        <ele>485.85</ele>
        <time>2022-01-23T08:39:23Z</time>
      </trkpt>
      <trkpt lat="43.56049" lon="5.69289">
        <ele>485.09</ele>
        <time>2022-01-23T08:39:27Z</time>
      </trkpt>
      <trkpt lat="43.56037" lon="5.69267">
        <ele>484.4</ele>
        <time>2022-01-23T08:39:30Z</time>
      </trkpt>
      <trkpt lat="43.56024" lon="5.69245">
        <ele>483.72</ele>
        <time>2022-01-23T08:39:33Z</time>
      </trkpt>
      <trkpt lat="43.56013" lon="5.69218">
        <ele>482.82</ele>
        <time>2022-01-23T08:39:36Z</time>
      </trkpt>
      <trkpt lat="43.56001" lon="5.69191">
        <ele>482.02</ele>
        <time>2022-01-23T08:39:39Z</time>
      </trkpt>
      <trkpt lat="43.55986" lon="5.69166">
        <ele>481.31</ele>
        <time>2022-01-23T08:39:42Z</time>
      </trkpt>
      <trkpt lat="43.55973" lon="5.6914">
        <ele>480.8</ele>
        <time>2022-01-23T08:39:45Z</time>
      </trkpt>
      <trkpt lat="43.55962" lon="5.69116">
        <ele>480.31</ele>
        <time>2022-01-23T08:39:48Z</time>
      </trkpt>
      <trkpt lat="43.55953" lon="5.69091">
        <ele>479.88</ele>
        <time>2022-01-23T08:39:51Z</time>
      </trkpt>
      <trkpt lat="43.55945" lon="5.69066">
        <ele>479.57</ele>
        <time>2022-01-23T08:39:54Z</time>
      </trkpt>
      <trkpt lat="43.55939" lon="5.69042">
        <ele>479.1</ele>
        <time>2022-01-23T08:39:57Z</time>
      </trkpt>
      <trkpt lat="43.55937" lon="5.6901">
        <ele>478.69</ele>
        <time>2022-01-23T08:40:01Z</time>
      </trkpt>
      <trkpt lat="43.55935" lon="5.68981">
        <ele>478.45</ele>
        <time>2022-01-23T08:40:05Z</time>
      </trkpt>
      <trkpt lat="43.55933" lon="5.68953">
        <ele>478.27</ele>
        <time>2022-01-23T08:40:09Z</time>
      </trkpt>
      <trkpt lat="43.5593" lon="5.68928">
        <ele>478.05</ele>
        <time>2022-01-23T08:40:13Z</time>
      </trkpt>
      <trkpt lat="43.55921" lon="5.68903">
        <ele>478.56</ele>
        <time>2022-01-23T08:40:19Z</time>
      </trkpt>
      <trkpt lat="43.55915" lon="5.6888">
        <ele>478.95</ele>
        <time>2022-01-23T08:40:30Z</time>
      </trkpt>
      <trkpt lat="43.55933" lon="5.68869">
        <ele>482.55</ele>
        <time>2022-01-23T08:40:46Z</time>
      </trkpt>
      <trkpt lat="43.55952" lon="5.68867">
        <ele>487.15</ele>
        <time>2022-01-23T08:40:56Z</time>
      </trkpt>
      <trkpt lat="43.5597" lon="5.68874">
        <ele>491.72</ele>
        <time>2022-01-23T08:41:07Z</time>
      </trkpt>
      <trkpt lat="43.55987" lon="5.68865">
        <ele>494.85</ele>
        <time>2022-01-23T08:41:19Z</time>
      </trkpt>
      <trkpt lat="43.56003" lon="5.68852">
        <ele>497.58</ele>
        <time>2022-01-23T08:41:31Z</time>
      </trkpt>
      <trkpt lat="43.5602" lon="5.68844">
        <ele>501.47</ele>
        <time>2022-01-23T08:41:44Z</time>
      </trkpt>
      <trkpt lat="43.56037" lon="5.68832">
        <ele>504.78</ele>
        <time>2022-01-23T08:41:57Z</time>
      </trkpt>
      <trkpt lat="43.56055" lon="5.68824">
        <ele>507.26</ele>
        <time>2022-01-23T08:42:08Z</time>
      </trkpt>
      <trkpt lat="43.56074" lon="5.68831">
        <ele>506.25</ele>
        <time>2022-01-23T08:42:18Z</time>
      </trkpt>
      <trkpt lat="43.56092" lon="5.68837">
        <ele>506.41</ele>
        <time>2022-01-23T08:42:28Z</time>
      </trkpt>
      <trkpt lat="43.56109" lon="5.68843">
        <ele>506</ele>
        <time>2022-01-23T08:42:37Z</time>
      </trkpt>
      <trkpt lat="43.56129" lon="5.68847">
        <ele>506.43</ele>
        <time>2022-01-23T08:42:46Z</time>
      </trkpt>
      <trkpt lat="43.56148" lon="5.68851">
        <ele>504.88</ele>
        <time>2022-01-23T08:42:53Z</time>
      </trkpt>
      <trkpt lat="43.56166" lon="5.68863">
        <ele>503.8</ele>
        <time>2022-01-23T08:43:00Z</time>
      </trkpt>
      <trkpt lat="43.56183" lon="5.68878">
        <ele>502.55</ele>
        <time>2022-01-23T08:43:06Z</time>
      </trkpt>
      <trkpt lat="43.562" lon="5.68894">
        <ele>502.05</ele>
        <time>2022-01-23T08:43:12Z</time>
      </trkpt>
      <trkpt lat="43.56217" lon="5.68905">
        <ele>501.85</ele>
        <time>2022-01-23T08:43:18Z</time>
      </trkpt>
      <trkpt lat="43.56235" lon="5.68914">
        <ele>501.96</ele>
        <time>2022-01-23T08:43:24Z</time>
      </trkpt>
      <trkpt lat="43.56251" lon="5.68926">
        <ele>501.8</ele>
        <time>2022-01-23T08:43:30Z</time>
      </trkpt>
      <trkpt lat="43.56271" lon="5.68922">
        <ele>501.45</ele>
        <time>2022-01-23T08:43:37Z</time>
      </trkpt>
      <trkpt lat="43.56281" lon="5.68897">
        <ele>501.52</ele>
        <time>2022-01-23T08:43:42Z</time>
      </trkpt>
      <trkpt lat="43.56284" lon="5.68868">
        <ele>501.37</ele>
        <time>2022-01-23T08:43:47Z</time>
      </trkpt>
      <trkpt lat="43.56282" lon="5.68838">
        <ele>500.3</ele>
        <time>2022-01-23T08:43:51Z</time>
      </trkpt>
      <trkpt lat="43.56281" lon="5.6881">
        <ele>499.5</ele>
        <time>2022-01-23T08:43:54Z</time>
      </trkpt>
      <trkpt lat="43.56274" lon="5.68784">
        <ele>499.15</ele>
        <time>2022-01-23T08:43:57Z</time>
      </trkpt>
      <trkpt lat="43.5626" lon="5.68768">
        <ele>499.14</ele>
        <time>2022-01-23T08:44:00Z</time>
      </trkpt>
      <trkpt lat="43.56242" lon="5.68752">
        <ele>499.6</ele>
        <time>2022-01-23T08:44:04Z</time>
      </trkpt>
      <trkpt lat="43.56225" lon="5.68741">
        <ele>500.4</ele>
        <time>2022-01-23T08:44:09Z</time>
      </trkpt>
      <trkpt lat="43.56208" lon="5.68731">
        <ele>501.92</ele>
        <time>2022-01-23T08:44:16Z</time>
      </trkpt>
      <trkpt lat="43.56196" lon="5.68713">
        <ele>503.2</ele>
        <time>2022-01-23T08:44:24Z</time>
      </trkpt>
      <trkpt lat="43.56185" lon="5.68693">
        <ele>503.86</ele>
        <time>2022-01-23T08:44:31Z</time>
      </trkpt>
      <trkpt lat="43.56177" lon="5.68668">
        <ele>504.49</ele>
        <time>2022-01-23T08:44:38Z</time>
      </trkpt>
      <trkpt lat="43.56176" lon="5.6864">
        <ele>505.02</ele>
        <time>2022-01-23T08:44:45Z</time>
      </trkpt>
      <trkpt lat="43.56178" lon="5.68612">
        <ele>506.5</ele>
        <time>2022-01-23T08:44:53Z</time>
      </trkpt>
      <trkpt lat="43.56174" lon="5.68586">
        <ele>507.22</ele>
        <time>2022-01-23T08:45:01Z</time>
      </trkpt>
      <trkpt lat="43.56172" lon="5.68561">
        <ele>507.35</ele>
        <time>2022-01-23T08:45:08Z</time>
      </trkpt>
      <trkpt lat="43.56164" lon="5.68537">
        <ele>507.17</ele>
        <time>2022-01-23T08:45:15Z</time>
      </trkpt>
      <trkpt lat="43.56149" lon="5.68517">
        <ele>506.53</ele>
        <time>2022-01-23T08:45:22Z</time>
      </trkpt>
      <trkpt lat="43.56133" lon="5.68503">
        <ele>507.49</ele>
        <time>2022-01-23T08:45:29Z</time>
      </trkpt>
      <trkpt lat="43.56117" lon="5.68486">
        <ele>509.05</ele>
        <time>2022-01-23T08:45:36Z</time>
      </trkpt>
      <trkpt lat="43.56105" lon="5.68463">
        <ele>510.28</ele>
        <time>2022-01-23T08:45:43Z</time>
      </trkpt>
      <trkpt lat="43.56095" lon="5.68439">
        <ele>511.69</ele>
        <time>2022-01-23T08:45:50Z</time>
      </trkpt>
      <trkpt lat="43.56087" lon="5.68413">
        <ele>512.46</ele>
        <time>2022-01-23T08:45:57Z</time>
      </trkpt>
      <trkpt lat="43.56082" lon="5.68389">
        <ele>512.43</ele>
        <time>2022-01-23T08:46:03Z</time>
      </trkpt>
      <trkpt lat="43.56081" lon="5.68364">
        <ele>513.14</ele>
        <time>2022-01-23T08:46:09Z</time>
      </trkpt>
      <trkpt lat="43.56085" lon="5.68338">
        <ele>514.87</ele>
        <time>2022-01-23T08:46:15Z</time>
      </trkpt>
      <trkpt lat="43.56091" lon="5.68315">
        <ele>516.1</ele>
        <time>2022-01-23T08:46:21Z</time>
      </trkpt>
      <trkpt lat="43.561" lon="5.68288">
        <ele>517.7</ele>
        <time>2022-01-23T08:46:28Z</time>
      </trkpt>
      <trkpt lat="43.56113" lon="5.68268">
        <ele>519.02</ele>
        <time>2022-01-23T08:46:36Z</time>
      </trkpt>
      <trkpt lat="43.5613" lon="5.68255">
        <ele>519.42</ele>
        <time>2022-01-23T08:46:40Z</time>
      </trkpt>
      <trkpt lat="43.56148" lon="5.68233">
        <ele>519.72</ele>
        <time>2022-01-23T08:46:44Z</time>
      </trkpt>
      <trkpt lat="43.56155" lon="5.68205">
        <ele>520.06</ele>
        <time>2022-01-23T08:46:48Z</time>
      </trkpt>
      <trkpt lat="43.56165" lon="5.68182">
        <ele>520.35</ele>
        <time>2022-01-23T08:46:53Z</time>
      </trkpt>
      <trkpt lat="43.56179" lon="5.68165">
        <ele>520.92</ele>
        <time>2022-01-23T08:46:58Z</time>
      </trkpt>
      <trkpt lat="43.56194" lon="5.6815">
        <ele>521.52</ele>
        <time>2022-01-23T08:47:03Z</time>
      </trkpt>
      <trkpt lat="43.56208" lon="5.68131">
        <ele>521.92</ele>
        <time>2022-01-23T08:47:08Z</time>
      </trkpt>
      <trkpt lat="43.56223" lon="5.68111">
        <ele>522.44</ele>
        <time>2022-01-23T08:47:14Z</time>
      </trkpt>
      <trkpt lat="43.56239" lon="5.68097">
        <ele>522.13</ele>
        <time>2022-01-23T08:47:19Z</time>
      </trkpt>
      <trkpt lat="43.56251" lon="5.68075">
        <ele>522.44</ele>
        <time>2022-01-23T08:47:25Z</time>
      </trkpt>
      <trkpt lat="43.56258" lon="5.68052">
        <ele>522.74</ele>
        <time>2022-01-23T08:47:30Z</time>
      </trkpt>
      <trkpt lat="43.56266" lon="5.68024">
        <ele>522.55</ele>
        <time>2022-01-23T08:47:35Z</time>
      </trkpt>
      <trkpt lat="43.56269" lon="5.67998">
        <ele>522.82</ele>
        <time>2022-01-23T08:47:40Z</time>
      </trkpt>
      <trkpt lat="43.56271" lon="5.67971">
        <ele>522.77</ele>
        <time>2022-01-23T08:47:46Z</time>
      </trkpt>
      <trkpt lat="43.56272" lon="5.67945">
        <ele>522.95</ele>
        <time>2022-01-23T08:47:53Z</time>
      </trkpt>
      <trkpt lat="43.56275" lon="5.6792">
        <ele>522.77</ele>
        <time>2022-01-23T08:48:01Z</time>
      </trkpt>
      <trkpt lat="43.56272" lon="5.67895">
        <ele>521.4</ele>
        <time>2022-01-23T08:48:07Z</time>
      </trkpt>
      <trkpt lat="43.56255" lon="5.67884">
        <ele>520.14</ele>
        <time>2022-01-23T08:48:11Z</time>
      </trkpt>
      <trkpt lat="43.56236" lon="5.67879">
        <ele>518.42</ele>
        <time>2022-01-23T08:48:16Z</time>
      </trkpt>
      <trkpt lat="43.56251" lon="5.67864">
        <ele>517.28</ele>
        <time>2022-01-23T08:48:22Z</time>
      </trkpt>
      <trkpt lat="43.56268" lon="5.67852">
        <ele>516.97</ele>
        <time>2022-01-23T08:48:26Z</time>
      </trkpt>
      <trkpt lat="43.56281" lon="5.67834">
        <ele>516.4</ele>
        <time>2022-01-23T08:48:31Z</time>
      </trkpt>
      <trkpt lat="43.5628" lon="5.67809">
        <ele>512.91</ele>
        <time>2022-01-23T08:48:41Z</time>
      </trkpt>
      <trkpt lat="43.56283" lon="5.67784">
        <ele>510.76</ele>
        <time>2022-01-23T08:54:48Z</time>
      </trkpt>
      <trkpt lat="43.56293" lon="5.67762">
        <ele>512.7</ele>
        <time>2022-01-23T08:54:58Z</time>
      </trkpt>
      <trkpt lat="43.56309" lon="5.67745">
        <ele>514.2</ele>
        <time>2022-01-23T08:55:06Z</time>
      </trkpt>
      <trkpt lat="43.56323" lon="5.67726">
        <ele>515.8</ele>
        <time>2022-01-23T08:55:14Z</time>
      </trkpt>
      <trkpt lat="43.56325" lon="5.67699">
        <ele>516.44</ele>
        <time>2022-01-23T08:55:22Z</time>
      </trkpt>
      <trkpt lat="43.56317" lon="5.67675">
        <ele>516.39</ele>
        <time>2022-01-23T08:55:30Z</time>
      </trkpt>
      <trkpt lat="43.563" lon="5.67661">
        <ele>519.16</ele>
        <time>2022-01-23T08:55:38Z</time>
      </trkpt>
      <trkpt lat="43.56285" lon="5.67642">
        <ele>520.7</ele>
        <time>2022-01-23T08:55:46Z</time>
      </trkpt>
      <trkpt lat="43.56276" lon="5.67617">
        <ele>523.03</ele>
        <time>2022-01-23T08:55:55Z</time>
      </trkpt>
      <trkpt lat="43.56277" lon="5.67592">
        <ele>524.31</ele>
        <time>2022-01-23T08:56:01Z</time>
      </trkpt>
      <trkpt lat="43.56281" lon="5.67566">
        <ele>526.17</ele>
        <time>2022-01-23T08:56:08Z</time>
      </trkpt>
      <trkpt lat="43.56289" lon="5.67541">
        <ele>529.66</ele>
        <time>2022-01-23T08:56:16Z</time>
      </trkpt>
      <trkpt lat="43.56299" lon="5.67519">
        <ele>530.45</ele>
        <time>2022-01-23T08:56:23Z</time>
      </trkpt>
      <trkpt lat="43.56308" lon="5.67498">
        <ele>530.03</ele>
        <time>2022-01-23T08:56:30Z</time>
      </trkpt>
      <trkpt lat="43.56318" lon="5.67476">
        <ele>530.03</ele>
        <time>2022-01-23T08:56:37Z</time>
      </trkpt>
      <trkpt lat="43.56326" lon="5.67451">
        <ele>529.83</ele>
        <time>2022-01-23T08:56:44Z</time>
      </trkpt>
      <trkpt lat="43.56332" lon="5.67426">
        <ele>529.74</ele>
        <time>2022-01-23T08:56:51Z</time>
      </trkpt>
      <trkpt lat="43.56334" lon="5.67401">
        <ele>530.71</ele>
        <time>2022-01-23T08:56:59Z</time>
      </trkpt>
      <trkpt lat="43.56329" lon="5.67376">
        <ele>532.14</ele>
        <time>2022-01-23T08:57:06Z</time>
      </trkpt>
      <trkpt lat="43.5632" lon="5.67351">
        <ele>531.85</ele>
        <time>2022-01-23T08:57:13Z</time>
      </trkpt>
      <trkpt lat="43.56305" lon="5.67337">
        <ele>532.9</ele>
        <time>2022-01-23T08:57:20Z</time>
      </trkpt>
      <trkpt lat="43.56287" lon="5.67332">
        <ele>534.2</ele>
        <time>2022-01-23T08:57:27Z</time>
      </trkpt>
      <trkpt lat="43.56269" lon="5.67319">
        <ele>535.48</ele>
        <time>2022-01-23T08:57:34Z</time>
      </trkpt>
      <trkpt lat="43.56258" lon="5.67297">
        <ele>536.88</ele>
        <time>2022-01-23T08:57:41Z</time>
      </trkpt>
      <trkpt lat="43.56254" lon="5.67272">
        <ele>540.24</ele>
        <time>2022-01-23T08:57:48Z</time>
      </trkpt>
      <trkpt lat="43.56251" lon="5.67244">
        <ele>544.22</ele>
        <time>2022-01-23T08:57:56Z</time>
      </trkpt>
      <trkpt lat="43.56251" lon="5.67219">
        <ele>546.87</ele>
        <time>2022-01-23T08:58:03Z</time>
      </trkpt>
      <trkpt lat="43.5625" lon="5.6719">
        <ele>549.87</ele>
        <time>2022-01-23T08:58:11Z</time>
      </trkpt>
      <trkpt lat="43.56249" lon="5.67164">
        <ele>552.07</ele>
        <time>2022-01-23T08:58:18Z</time>
      </trkpt>
      <trkpt lat="43.56247" lon="5.67139">
        <ele>554.86</ele>
        <time>2022-01-23T08:58:25Z</time>
      </trkpt>
      <trkpt lat="43.56246" lon="5.67112">
        <ele>556.08</ele>
        <time>2022-01-23T08:58:32Z</time>
      </trkpt>
      <trkpt lat="43.56244" lon="5.67085">
        <ele>558.5</ele>
        <time>2022-01-23T08:58:40Z</time>
      </trkpt>
      <trkpt lat="43.56241" lon="5.67058">
        <ele>560.97</ele>
        <time>2022-01-23T08:58:48Z</time>
      </trkpt>
      <trkpt lat="43.56239" lon="5.67033">
        <ele>563.76</ele>
        <time>2022-01-23T08:58:55Z</time>
      </trkpt>
      <trkpt lat="43.56238" lon="5.67007">
        <ele>566.05</ele>
        <time>2022-01-23T08:59:02Z</time>
      </trkpt>
      <trkpt lat="43.5623" lon="5.66983">
        <ele>567.32</ele>
        <time>2022-01-23T08:59:09Z</time>
      </trkpt>
      <trkpt lat="43.56216" lon="5.66966">
        <ele>568.77</ele>
        <time>2022-01-23T08:59:16Z</time>
      </trkpt>
      <trkpt lat="43.56201" lon="5.66952">
        <ele>571.6</ele>
        <time>2022-01-23T08:59:28Z</time>
      </trkpt>
      <trkpt lat="43.56195" lon="5.66928">
        <ele>555.22</ele>
        <time>2022-01-23T09:01:37Z</time>
      </trkpt>
      <trkpt lat="43.56196" lon="5.66901">
        <ele>556.92</ele>
        <time>2022-01-23T09:01:47Z</time>
      </trkpt>
      <trkpt lat="43.562" lon="5.66877">
        <ele>557.54</ele>
        <time>2022-01-23T09:01:57Z</time>
      </trkpt>
      <trkpt lat="43.56205" lon="5.6685">
        <ele>559.58</ele>
        <time>2022-01-23T09:02:07Z</time>
      </trkpt>
      <trkpt lat="43.56208" lon="5.66825">
        <ele>560.54</ele>
        <time>2022-01-23T09:02:15Z</time>
      </trkpt>
      <trkpt lat="43.56211" lon="5.668">
        <ele>561.6</ele>
        <time>2022-01-23T09:02:23Z</time>
      </trkpt>
      <trkpt lat="43.56216" lon="5.66772">
        <ele>562.5</ele>
        <time>2022-01-23T09:02:31Z</time>
      </trkpt>
      <trkpt lat="43.5622" lon="5.66746">
        <ele>564.17</ele>
        <time>2022-01-23T09:02:40Z</time>
      </trkpt>
      <trkpt lat="43.56224" lon="5.6672">
        <ele>566</ele>
        <time>2022-01-23T09:02:48Z</time>
      </trkpt>
      <trkpt lat="43.56227" lon="5.66694">
        <ele>567.42</ele>
        <time>2022-01-23T09:02:56Z</time>
      </trkpt>
      <trkpt lat="43.56228" lon="5.66668">
        <ele>568.8</ele>
        <time>2022-01-23T09:03:04Z</time>
      </trkpt>
      <trkpt lat="43.56229" lon="5.66642">
        <ele>570</ele>
        <time>2022-01-23T09:03:12Z</time>
      </trkpt>
      <trkpt lat="43.56229" lon="5.66618">
        <ele>571.5</ele>
        <time>2022-01-23T09:03:20Z</time>
      </trkpt>
      <trkpt lat="43.56233" lon="5.66592">
        <ele>573.57</ele>
        <time>2022-01-23T09:03:29Z</time>
      </trkpt>
      <trkpt lat="43.5624" lon="5.66567">
        <ele>575.75</ele>
        <time>2022-01-23T09:03:38Z</time>
      </trkpt>
      <trkpt lat="43.56247" lon="5.66542">
        <ele>578.49</ele>
        <time>2022-01-23T09:03:48Z</time>
      </trkpt>
      <trkpt lat="43.56254" lon="5.66519">
        <ele>583.03</ele>
        <time>2022-01-23T09:03:58Z</time>
      </trkpt>
      <trkpt lat="43.5626" lon="5.66492">
        <ele>586.31</ele>
        <time>2022-01-23T09:04:08Z</time>
      </trkpt>
      <trkpt lat="43.56261" lon="5.66466">
        <ele>587.52</ele>
        <time>2022-01-23T09:04:17Z</time>
      </trkpt>
      <trkpt lat="43.5626" lon="5.6644">
        <ele>588.68</ele>
        <time>2022-01-23T09:04:25Z</time>
      </trkpt>
      <trkpt lat="43.56259" lon="5.66413">
        <ele>590.7</ele>
        <time>2022-01-23T09:04:33Z</time>
      </trkpt>
      <trkpt lat="43.56262" lon="5.66386">
        <ele>591.72</ele>
        <time>2022-01-23T09:04:40Z</time>
      </trkpt>
      <trkpt lat="43.56257" lon="5.66359">
        <ele>591.42</ele>
        <time>2022-01-23T09:04:47Z</time>
      </trkpt>
      <trkpt lat="43.56242" lon="5.66339">
        <ele>590.32</ele>
        <time>2022-01-23T09:04:53Z</time>
      </trkpt>
      <trkpt lat="43.56226" lon="5.66325">
        <ele>587.67</ele>
        <time>2022-01-23T09:04:59Z</time>
      </trkpt>
      <trkpt lat="43.56208" lon="5.66309">
        <ele>585.6</ele>
        <time>2022-01-23T09:05:05Z</time>
      </trkpt>
      <trkpt lat="43.562" lon="5.66284">
        <ele>584.67</ele>
        <time>2022-01-23T09:05:11Z</time>
      </trkpt>
      <trkpt lat="43.56193" lon="5.66257">
        <ele>584.25</ele>
        <time>2022-01-23T09:05:17Z</time>
      </trkpt>
      <trkpt lat="43.56183" lon="5.66234">
        <ele>584.25</ele>
        <time>2022-01-23T09:05:23Z</time>
      </trkpt>
      <trkpt lat="43.56174" lon="5.66211">
        <ele>585.2</ele>
        <time>2022-01-23T09:05:30Z</time>
      </trkpt>
      <trkpt lat="43.56171" lon="5.66186">
        <ele>586.49</ele>
        <time>2022-01-23T09:05:37Z</time>
      </trkpt>
      <trkpt lat="43.56191" lon="5.66173">
        <ele>587.32</ele>
        <time>2022-01-23T09:05:42Z</time>
      </trkpt>
      <trkpt lat="43.56212" lon="5.66172">
        <ele>587.89</ele>
        <time>2022-01-23T09:05:46Z</time>
      </trkpt>
      <trkpt lat="43.56232" lon="5.66156">
        <ele>589.01</ele>
        <time>2022-01-23T09:05:51Z</time>
      </trkpt>
      <trkpt lat="43.56241" lon="5.66134">
        <ele>589.7</ele>
        <time>2022-01-23T09:05:55Z</time>
      </trkpt>
      <trkpt lat="43.56251" lon="5.66113">
        <ele>590.04</ele>
        <time>2022-01-23T09:06:00Z</time>
      </trkpt>
      <trkpt lat="43.56264" lon="5.66092">
        <ele>590.24</ele>
        <time>2022-01-23T09:06:05Z</time>
      </trkpt>
      <trkpt lat="43.56274" lon="5.6607">
        <ele>590.34</ele>
        <time>2022-01-23T09:06:09Z</time>
      </trkpt>
      <trkpt lat="43.56281" lon="5.66041">
        <ele>590.55</ele>
        <time>2022-01-23T09:06:14Z</time>
      </trkpt>
      <trkpt lat="43.56283" lon="5.66016">
        <ele>590.15</ele>
        <time>2022-01-23T09:06:18Z</time>
      </trkpt>
      <trkpt lat="43.56285" lon="5.65985">
        <ele>589.59</ele>
        <time>2022-01-23T09:06:22Z</time>
      </trkpt>
      <trkpt lat="43.56287" lon="5.65958">
        <ele>588.9</ele>
        <time>2022-01-23T09:06:25Z</time>
      </trkpt>
      <trkpt lat="43.5629" lon="5.65931">
        <ele>588.77</ele>
        <time>2022-01-23T09:06:29Z</time>
      </trkpt>
      <trkpt lat="43.56295" lon="5.65905">
        <ele>588.17</ele>
        <time>2022-01-23T09:06:35Z</time>
      </trkpt>
      <trkpt lat="43.56303" lon="5.65881">
        <ele>587.49</ele>
        <time>2022-01-23T09:06:41Z</time>
      </trkpt>
      <trkpt lat="43.56308" lon="5.65853">
        <ele>586.6</ele>
        <time>2022-01-23T09:06:47Z</time>
      </trkpt>
      <trkpt lat="43.5631" lon="5.65826">
        <ele>586.12</ele>
        <time>2022-01-23T09:06:52Z</time>
      </trkpt>
      <trkpt lat="43.56319" lon="5.65801">
        <ele>586.46</ele>
        <time>2022-01-23T09:06:57Z</time>
      </trkpt>
      <trkpt lat="43.56328" lon="5.65777">
        <ele>586.05</ele>
        <time>2022-01-23T09:07:01Z</time>
      </trkpt>
      <trkpt lat="43.56337" lon="5.65751">
        <ele>585.65</ele>
        <time>2022-01-23T09:07:05Z</time>
      </trkpt>
      <trkpt lat="43.56345" lon="5.65726">
        <ele>584.98</ele>
        <time>2022-01-23T09:07:09Z</time>
      </trkpt>
      <trkpt lat="43.56353" lon="5.65699">
        <ele>584.77</ele>
        <time>2022-01-23T09:07:13Z</time>
      </trkpt>
      <trkpt lat="43.56355" lon="5.65672">
        <ele>584.58</ele>
        <time>2022-01-23T09:07:17Z</time>
      </trkpt>
      <trkpt lat="43.56355" lon="5.65642">
        <ele>584.46</ele>
        <time>2022-01-23T09:07:22Z</time>
      </trkpt>
      <trkpt lat="43.56352" lon="5.65615">
        <ele>584.83</ele>
        <time>2022-01-23T09:07:27Z</time>
      </trkpt>
      <trkpt lat="43.56346" lon="5.65591">
        <ele>584.75</ele>
        <time>2022-01-23T09:07:32Z</time>
      </trkpt>
      <trkpt lat="43.56342" lon="5.65566">
        <ele>584.75</ele>
        <time>2022-01-23T09:07:38Z</time>
      </trkpt>
      <trkpt lat="43.5635" lon="5.65543">
        <ele>585.6</ele>
        <time>2022-01-23T09:07:45Z</time>
      </trkpt>
      <trkpt lat="43.56364" lon="5.65526">
        <ele>586.14</ele>
        <time>2022-01-23T09:07:49Z</time>
      </trkpt>
      <trkpt lat="43.56382" lon="5.6551">
        <ele>586.52</ele>
        <time>2022-01-23T09:07:53Z</time>
      </trkpt>
      <trkpt lat="43.56401" lon="5.65496">
        <ele>587.68</ele>
        <time>2022-01-23T09:08:00Z</time>
      </trkpt>
      <trkpt lat="43.56416" lon="5.65479">
        <ele>588.31</ele>
        <time>2022-01-23T09:08:07Z</time>
      </trkpt>
      <trkpt lat="43.56435" lon="5.65466">
        <ele>589.77</ele>
        <time>2022-01-23T09:08:13Z</time>
      </trkpt>
      <trkpt lat="43.56453" lon="5.65456">
        <ele>591.36</ele>
        <time>2022-01-23T09:08:17Z</time>
      </trkpt>
      <trkpt lat="43.56473" lon="5.65438">
        <ele>591.74</ele>
        <time>2022-01-23T09:08:21Z</time>
      </trkpt>
      <trkpt lat="43.56492" lon="5.65421">
        <ele>591.83</ele>
        <time>2022-01-23T09:08:24Z</time>
      </trkpt>
      <trkpt lat="43.56508" lon="5.65406">
        <ele>592.2</ele>
        <time>2022-01-23T09:08:27Z</time>
      </trkpt>
      <trkpt lat="43.56524" lon="5.65393">
        <ele>593</ele>
        <time>2022-01-23T09:08:31Z</time>
      </trkpt>
      <trkpt lat="43.5654" lon="5.65381">
        <ele>593.7</ele>
        <time>2022-01-23T09:08:36Z</time>
      </trkpt>
      <trkpt lat="43.56557" lon="5.65368">
        <ele>594.64</ele>
        <time>2022-01-23T09:08:43Z</time>
      </trkpt>
      <trkpt lat="43.56574" lon="5.65354">
        <ele>596.3</ele>
        <time>2022-01-23T09:08:53Z</time>
      </trkpt>
      <trkpt lat="43.5659" lon="5.65341">
        <ele>598.07</ele>
        <time>2022-01-23T09:09:02Z</time>
      </trkpt>
      <trkpt lat="43.56607" lon="5.65328">
        <ele>599</ele>
        <time>2022-01-23T09:09:10Z</time>
      </trkpt>
      <trkpt lat="43.56624" lon="5.65314">
        <ele>600.72</ele>
        <time>2022-01-23T09:09:18Z</time>
      </trkpt>
      <trkpt lat="43.56641" lon="5.65301">
        <ele>602.59</ele>
        <time>2022-01-23T09:09:27Z</time>
      </trkpt>
      <trkpt lat="43.56656" lon="5.65287">
        <ele>603.72</ele>
        <time>2022-01-23T09:09:35Z</time>
      </trkpt>
      <trkpt lat="43.56672" lon="5.65271">
        <ele>604.72</ele>
        <time>2022-01-23T09:09:43Z</time>
      </trkpt>
      <trkpt lat="43.56686" lon="5.65252">
        <ele>605.53</ele>
        <time>2022-01-23T09:09:51Z</time>
      </trkpt>
      <trkpt lat="43.56697" lon="5.65231">
        <ele>606.88</ele>
        <time>2022-01-23T09:09:59Z</time>
      </trkpt>
      <trkpt lat="43.56707" lon="5.65207">
        <ele>608.3</ele>
        <time>2022-01-23T09:10:07Z</time>
      </trkpt>
      <trkpt lat="43.56713" lon="5.6518">
        <ele>609.82</ele>
        <time>2022-01-23T09:10:14Z</time>
      </trkpt>
      <trkpt lat="43.56718" lon="5.65153">
        <ele>610.05</ele>
        <time>2022-01-23T09:10:21Z</time>
      </trkpt>
      <trkpt lat="43.56721" lon="5.65128">
        <ele>610.62</ele>
        <time>2022-01-23T09:10:28Z</time>
      </trkpt>
      <trkpt lat="43.56725" lon="5.65103">
        <ele>611.68</ele>
        <time>2022-01-23T09:10:35Z</time>
      </trkpt>
      <trkpt lat="43.56729" lon="5.65077">
        <ele>612.3</ele>
        <time>2022-01-23T09:10:42Z</time>
      </trkpt>
      <trkpt lat="43.56735" lon="5.65052">
        <ele>612.53</ele>
        <time>2022-01-23T09:10:49Z</time>
      </trkpt>
      <trkpt lat="43.5674" lon="5.65026">
        <ele>613.24</ele>
        <time>2022-01-23T09:10:56Z</time>
      </trkpt>
      <trkpt lat="43.56745" lon="5.65001">
        <ele>613.76</ele>
        <time>2022-01-23T09:11:02Z</time>
      </trkpt>
      <trkpt lat="43.56749" lon="5.64976">
        <ele>615.42</ele>
        <time>2022-01-23T09:11:08Z</time>
      </trkpt>
      <trkpt lat="43.56753" lon="5.64949">
        <ele>615.75</ele>
        <time>2022-01-23T09:11:14Z</time>
      </trkpt>
      <trkpt lat="43.56758" lon="5.64924">
        <ele>614.79</ele>
        <time>2022-01-23T09:11:19Z</time>
      </trkpt>
      <trkpt lat="43.56764" lon="5.64896">
        <ele>612.19</ele>
        <time>2022-01-23T09:11:24Z</time>
      </trkpt>
      <trkpt lat="43.56768" lon="5.64866">
        <ele>610.61</ele>
        <time>2022-01-23T09:11:29Z</time>
      </trkpt>
      <trkpt lat="43.56773" lon="5.64841">
        <ele>609.58</ele>
        <time>2022-01-23T09:11:33Z</time>
      </trkpt>
      <trkpt lat="43.56778" lon="5.64816">
        <ele>608.8</ele>
        <time>2022-01-23T09:11:37Z</time>
      </trkpt>
      <trkpt lat="43.56783" lon="5.64791">
        <ele>607.9</ele>
        <time>2022-01-23T09:11:41Z</time>
      </trkpt>
      <trkpt lat="43.56789" lon="5.64765">
        <ele>607.02</ele>
        <time>2022-01-23T09:11:45Z</time>
      </trkpt>
      <trkpt lat="43.56793" lon="5.64741">
        <ele>606.48</ele>
        <time>2022-01-23T09:11:49Z</time>
      </trkpt>
      <trkpt lat="43.56798" lon="5.64715">
        <ele>606.19</ele>
        <time>2022-01-23T09:11:53Z</time>
      </trkpt>
      <trkpt lat="43.56804" lon="5.64686">
        <ele>606.13</ele>
        <time>2022-01-23T09:11:57Z</time>
      </trkpt>
      <trkpt lat="43.56808" lon="5.64655">
        <ele>605.5</ele>
        <time>2022-01-23T09:12:01Z</time>
      </trkpt>
      <trkpt lat="43.56811" lon="5.64625">
        <ele>604.79</ele>
        <time>2022-01-23T09:12:05Z</time>
      </trkpt>
      <trkpt lat="43.56817" lon="5.64597">
        <ele>604.08</ele>
        <time>2022-01-23T09:12:09Z</time>
      </trkpt>
      <trkpt lat="43.56822" lon="5.64573">
        <ele>603.32</ele>
        <time>2022-01-23T09:12:13Z</time>
      </trkpt>
      <trkpt lat="43.56826" lon="5.64547">
        <ele>602.37</ele>
        <time>2022-01-23T09:12:20Z</time>
      </trkpt>
      <trkpt lat="43.56812" lon="5.64529">
        <ele>602.37</ele>
        <time>2022-01-23T09:12:42Z</time>
      </trkpt>
      <trkpt lat="43.56794" lon="5.64518">
        <ele>600.6</ele>
        <time>2022-01-23T09:12:51Z</time>
      </trkpt>
      <trkpt lat="43.56777" lon="5.64509">
        <ele>601.77</ele>
        <time>2022-01-23T09:13:00Z</time>
      </trkpt>
      <trkpt lat="43.56759" lon="5.64503">
        <ele>601.74</ele>
        <time>2022-01-23T09:13:07Z</time>
      </trkpt>
      <trkpt lat="43.56739" lon="5.64497">
        <ele>602.35</ele>
        <time>2022-01-23T09:13:13Z</time>
      </trkpt>
      <trkpt lat="43.56721" lon="5.6449">
        <ele>603.91</ele>
        <time>2022-01-23T09:13:20Z</time>
      </trkpt>
      <trkpt lat="43.56722" lon="5.64462">
        <ele>602.97</ele>
        <time>2022-01-23T09:13:30Z</time>
      </trkpt>
      <trkpt lat="43.56723" lon="5.64437">
        <ele>602.37</ele>
        <time>2022-01-23T09:13:36Z</time>
      </trkpt>
      <trkpt lat="43.56723" lon="5.64411">
        <ele>602.05</ele>
        <time>2022-01-23T09:13:42Z</time>
      </trkpt>
      <trkpt lat="43.56724" lon="5.64385">
        <ele>602.03</ele>
        <time>2022-01-23T09:13:47Z</time>
      </trkpt>
      <trkpt lat="43.56724" lon="5.64359">
        <ele>601.84</ele>
        <time>2022-01-23T09:13:52Z</time>
      </trkpt>
      <trkpt lat="43.56725" lon="5.64333">
        <ele>601.73</ele>
        <time>2022-01-23T09:13:57Z</time>
      </trkpt>
      <trkpt lat="43.56721" lon="5.64307">
        <ele>603.97</ele>
        <time>2022-01-23T09:14:03Z</time>
      </trkpt>
      <trkpt lat="43.56711" lon="5.64284">
        <ele>605.7</ele>
        <time>2022-01-23T09:14:08Z</time>
      </trkpt>
      <trkpt lat="43.56704" lon="5.64257">
        <ele>606.97</ele>
        <time>2022-01-23T09:14:13Z</time>
      </trkpt>
      <trkpt lat="43.56697" lon="5.64231">
        <ele>608.85</ele>
        <time>2022-01-23T09:14:18Z</time>
      </trkpt>
      <trkpt lat="43.56692" lon="5.64202">
        <ele>610.47</ele>
        <time>2022-01-23T09:14:23Z</time>
      </trkpt>
      <trkpt lat="43.56684" lon="5.64173">
        <ele>612.07</ele>
        <time>2022-01-23T09:14:28Z</time>
      </trkpt>
      <trkpt lat="43.56673" lon="5.64149">
        <ele>613.42</ele>
        <time>2022-01-23T09:14:33Z</time>
      </trkpt>
      <trkpt lat="43.56662" lon="5.64124">
        <ele>614.77</ele>
        <time>2022-01-23T09:14:39Z</time>
      </trkpt>
      <trkpt lat="43.56659" lon="5.64097">
        <ele>616.9</ele>
        <time>2022-01-23T09:14:46Z</time>
      </trkpt>
      <trkpt lat="43.56657" lon="5.64067">
        <ele>616.66</ele>
        <time>2022-01-23T09:14:52Z</time>
      </trkpt>
      <trkpt lat="43.56655" lon="5.64042">
        <ele>615.68</ele>
        <time>2022-01-23T09:14:57Z</time>
      </trkpt>
      <trkpt lat="43.56655" lon="5.64017">
        <ele>614.52</ele>
        <time>2022-01-23T09:15:02Z</time>
      </trkpt>
      <trkpt lat="43.56654" lon="5.63991">
        <ele>613.37</ele>
        <time>2022-01-23T09:15:06Z</time>
      </trkpt>
      <trkpt lat="43.56654" lon="5.63962">
        <ele>612.02</ele>
        <time>2022-01-23T09:15:10Z</time>
      </trkpt>
      <trkpt lat="43.56654" lon="5.63931">
        <ele>611.1</ele>
        <time>2022-01-23T09:15:14Z</time>
      </trkpt>
      <trkpt lat="43.56655" lon="5.639">
        <ele>609.84</ele>
        <time>2022-01-23T09:15:18Z</time>
      </trkpt>
      <trkpt lat="43.56654" lon="5.63874">
        <ele>608.47</ele>
        <time>2022-01-23T09:15:21Z</time>
      </trkpt>
      <trkpt lat="43.56653" lon="5.63846">
        <ele>606.6</ele>
        <time>2022-01-23T09:15:24Z</time>
      </trkpt>
      <trkpt lat="43.56652" lon="5.63816">
        <ele>603.95</ele>
        <time>2022-01-23T09:15:27Z</time>
      </trkpt>
      <trkpt lat="43.56653" lon="5.63783">
        <ele>601.64</ele>
        <time>2022-01-23T09:15:30Z</time>
      </trkpt>
      <trkpt lat="43.56655" lon="5.63749">
        <ele>599.35</ele>
        <time>2022-01-23T09:15:33Z</time>
      </trkpt>
      <trkpt lat="43.56658" lon="5.63715">
        <ele>596.85</ele>
        <time>2022-01-23T09:15:36Z</time>
      </trkpt>
      <trkpt lat="43.56662" lon="5.63681">
        <ele>594.53</ele>
        <time>2022-01-23T09:15:39Z</time>
      </trkpt>
      <trkpt lat="43.56668" lon="5.63646">
        <ele>592.4</ele>
        <time>2022-01-23T09:15:42Z</time>
      </trkpt>
      <trkpt lat="43.56675" lon="5.63616">
        <ele>590.05</ele>
        <time>2022-01-23T09:15:45Z</time>
      </trkpt>
      <trkpt lat="43.56688" lon="5.63593">
        <ele>587.3</ele>
        <time>2022-01-23T09:15:49Z</time>
      </trkpt>
      <trkpt lat="43.56705" lon="5.6358">
        <ele>583.08</ele>
        <time>2022-01-23T09:15:56Z</time>
      </trkpt>
      <trkpt lat="43.56722" lon="5.63565">
        <ele>580.75</ele>
        <time>2022-01-23T09:16:01Z</time>
      </trkpt>
      <trkpt lat="43.56738" lon="5.63544">
        <ele>578.87</ele>
        <time>2022-01-23T09:16:05Z</time>
      </trkpt>
      <trkpt lat="43.56746" lon="5.63515">
        <ele>576.97</ele>
        <time>2022-01-23T09:16:09Z</time>
      </trkpt>
      <trkpt lat="43.56753" lon="5.63487">
        <ele>575.05</ele>
        <time>2022-01-23T09:16:13Z</time>
      </trkpt>
      <trkpt lat="43.56761" lon="5.6346">
        <ele>573.52</ele>
        <time>2022-01-23T09:16:17Z</time>
      </trkpt>
      <trkpt lat="43.56772" lon="5.63434">
        <ele>572.34</ele>
        <time>2022-01-23T09:16:21Z</time>
      </trkpt>
      <trkpt lat="43.56779" lon="5.63406">
        <ele>570.92</ele>
        <time>2022-01-23T09:16:25Z</time>
      </trkpt>
      <trkpt lat="43.5678" lon="5.63381">
        <ele>569.75</ele>
        <time>2022-01-23T09:16:28Z</time>
      </trkpt>
      <trkpt lat="43.56781" lon="5.63354">
        <ele>568.45</ele>
        <time>2022-01-23T09:16:31Z</time>
      </trkpt>
      <trkpt lat="43.56784" lon="5.63329">
        <ele>567.35</ele>
        <time>2022-01-23T09:16:34Z</time>
      </trkpt>
      <trkpt lat="43.56789" lon="5.633">
        <ele>566.24</ele>
        <time>2022-01-23T09:16:37Z</time>
      </trkpt>
      <trkpt lat="43.56796" lon="5.63272">
        <ele>565.32</ele>
        <time>2022-01-23T09:16:40Z</time>
      </trkpt>
      <trkpt lat="43.56809" lon="5.63251">
        <ele>564.44</ele>
        <time>2022-01-23T09:16:43Z</time>
      </trkpt>
      <trkpt lat="43.56821" lon="5.63226">
        <ele>563.35</ele>
        <time>2022-01-23T09:16:46Z</time>
      </trkpt>
      <trkpt lat="43.56828" lon="5.63192">
        <ele>562.25</ele>
        <time>2022-01-23T09:16:49Z</time>
      </trkpt>
      <trkpt lat="43.56834" lon="5.63157">
        <ele>561.14</ele>
        <time>2022-01-23T09:16:52Z</time>
      </trkpt>
      <trkpt lat="43.56846" lon="5.63124">
        <ele>559.95</ele>
        <time>2022-01-23T09:16:55Z</time>
      </trkpt>
      <trkpt lat="43.56856" lon="5.63103">
        <ele>559.15</ele>
        <time>2022-01-23T09:16:57Z</time>
      </trkpt>
      <trkpt lat="43.56863" lon="5.63079">
        <ele>558.35</ele>
        <time>2022-01-23T09:16:59Z</time>
      </trkpt>
      <trkpt lat="43.5687" lon="5.63055">
        <ele>557.55</ele>
        <time>2022-01-23T09:17:01Z</time>
      </trkpt>
      <trkpt lat="43.56877" lon="5.63019">
        <ele>556.07</ele>
        <time>2022-01-23T09:17:04Z</time>
      </trkpt>
      <trkpt lat="43.5688" lon="5.62993">
        <ele>555.17</ele>
        <time>2022-01-23T09:17:06Z</time>
      </trkpt>
      <trkpt lat="43.56884" lon="5.62967">
        <ele>553.66</ele>
        <time>2022-01-23T09:17:08Z</time>
      </trkpt>
      <trkpt lat="43.56887" lon="5.62939">
        <ele>552.22</ele>
        <time>2022-01-23T09:17:10Z</time>
      </trkpt>
      <trkpt lat="43.5689" lon="5.6291">
        <ele>550.53</ele>
        <time>2022-01-23T09:17:12Z</time>
      </trkpt>
      <trkpt lat="43.56893" lon="5.6288">
        <ele>548.74</ele>
        <time>2022-01-23T09:17:14Z</time>
      </trkpt>
      <trkpt lat="43.56897" lon="5.6285">
        <ele>546.97</ele>
        <time>2022-01-23T09:17:16Z</time>
      </trkpt>
      <trkpt lat="43.56902" lon="5.6282">
        <ele>545.49</ele>
        <time>2022-01-23T09:17:18Z</time>
      </trkpt>
      <trkpt lat="43.56905" lon="5.62791">
        <ele>543.51</ele>
        <time>2022-01-23T09:17:20Z</time>
      </trkpt>
      <trkpt lat="43.56908" lon="5.62764">
        <ele>541.05</ele>
        <time>2022-01-23T09:17:22Z</time>
      </trkpt>
      <trkpt lat="43.56911" lon="5.62737">
        <ele>539.62</ele>
        <time>2022-01-23T09:17:24Z</time>
      </trkpt>
      <trkpt lat="43.56913" lon="5.62709">
        <ele>537.61</ele>
        <time>2022-01-23T09:17:26Z</time>
      </trkpt>
      <trkpt lat="43.56911" lon="5.62679">
        <ele>534.89</ele>
        <time>2022-01-23T09:17:28Z</time>
      </trkpt>
      <trkpt lat="43.56909" lon="5.62649">
        <ele>533.02</ele>
        <time>2022-01-23T09:17:30Z</time>
      </trkpt>
      <trkpt lat="43.56907" lon="5.6262">
        <ele>531.24</ele>
        <time>2022-01-23T09:17:32Z</time>
      </trkpt>
      <trkpt lat="43.56905" lon="5.62592">
        <ele>529.9</ele>
        <time>2022-01-23T09:17:34Z</time>
      </trkpt>
      <trkpt lat="43.56904" lon="5.62565">
        <ele>528.79</ele>
        <time>2022-01-23T09:17:36Z</time>
      </trkpt>
      <trkpt lat="43.56906" lon="5.62541">
        <ele>527.95</ele>
        <time>2022-01-23T09:17:38Z</time>
      </trkpt>
      <trkpt lat="43.56916" lon="5.62507">
        <ele>526.83</ele>
        <time>2022-01-23T09:17:41Z</time>
      </trkpt>
      <trkpt lat="43.56926" lon="5.62476">
        <ele>525.83</ele>
        <time>2022-01-23T09:17:44Z</time>
      </trkpt>
      <trkpt lat="43.5694" lon="5.62456">
        <ele>524.84</ele>
        <time>2022-01-23T09:17:47Z</time>
      </trkpt>
      <trkpt lat="43.56959" lon="5.62462">
        <ele>523.9</ele>
        <time>2022-01-23T09:17:51Z</time>
      </trkpt>
      <trkpt lat="43.56978" lon="5.62473">
        <ele>523.2</ele>
        <time>2022-01-23T09:17:56Z</time>
      </trkpt>
      <trkpt lat="43.56997" lon="5.62483">
        <ele>522.59</ele>
        <time>2022-01-23T09:18:00Z</time>
      </trkpt>
      <trkpt lat="43.57016" lon="5.62496">
        <ele>521.85</ele>
        <time>2022-01-23T09:18:03Z</time>
      </trkpt>
      <trkpt lat="43.57036" lon="5.62514">
        <ele>521.22</ele>
        <time>2022-01-23T09:18:06Z</time>
      </trkpt>
      <trkpt lat="43.57056" lon="5.62536">
        <ele>521.26</ele>
        <time>2022-01-23T09:18:09Z</time>
      </trkpt>
      <trkpt lat="43.57074" lon="5.62558">
        <ele>521.17</ele>
        <time>2022-01-23T09:18:12Z</time>
      </trkpt>
      <trkpt lat="43.57091" lon="5.62581">
        <ele>519.63</ele>
        <time>2022-01-23T09:18:15Z</time>
      </trkpt>
      <trkpt lat="43.57109" lon="5.62598">
        <ele>517.67</ele>
        <time>2022-01-23T09:18:18Z</time>
      </trkpt>
      <trkpt lat="43.57127" lon="5.62606">
        <ele>516.54</ele>
        <time>2022-01-23T09:18:21Z</time>
      </trkpt>
      <trkpt lat="43.57149" lon="5.62594">
        <ele>515.56</ele>
        <time>2022-01-23T09:18:25Z</time>
      </trkpt>
      <trkpt lat="43.57168" lon="5.62588">
        <ele>514.9</ele>
        <time>2022-01-23T09:18:28Z</time>
      </trkpt>
      <trkpt lat="43.5719" lon="5.62585">
        <ele>514.1</ele>
        <time>2022-01-23T09:18:32Z</time>
      </trkpt>
      <trkpt lat="43.57207" lon="5.6257">
        <ele>513.99</ele>
        <time>2022-01-23T09:18:40Z</time>
      </trkpt>
      <trkpt lat="43.57225" lon="5.6256">
        <ele>513.93</ele>
        <time>2022-01-23T09:18:47Z</time>
      </trkpt>
      <trkpt lat="43.5724" lon="5.62546">
        <ele>516.83</ele>
        <time>2022-01-23T09:18:59Z</time>
      </trkpt>
      <trkpt lat="43.57248" lon="5.62523">
        <ele>520.76</ele>
        <time>2022-01-23T09:19:10Z</time>
      </trkpt>
      <trkpt lat="43.57264" lon="5.62506">
        <ele>523.59</ele>
        <time>2022-01-23T09:19:19Z</time>
      </trkpt>
      <trkpt lat="43.57276" lon="5.62486">
        <ele>526.06</ele>
        <time>2022-01-23T09:19:28Z</time>
      </trkpt>
      <trkpt lat="43.57286" lon="5.62465">
        <ele>530.29</ele>
        <time>2022-01-23T09:19:38Z</time>
      </trkpt>
      <trkpt lat="43.57295" lon="5.62442">
        <ele>533.05</ele>
        <time>2022-01-23T09:19:48Z</time>
      </trkpt>
      <trkpt lat="43.57306" lon="5.62421">
        <ele>535.2</ele>
        <time>2022-01-23T09:19:59Z</time>
      </trkpt>
      <trkpt lat="43.57325" lon="5.62421">
        <ele>540.2</ele>
        <time>2022-01-23T09:20:14Z</time>
      </trkpt>
      <trkpt lat="43.57333" lon="5.62445">
        <ele>539.92</ele>
        <time>2022-01-23T09:20:19Z</time>
      </trkpt>
      <trkpt lat="43.57341" lon="5.6247">
        <ele>540.48</ele>
        <time>2022-01-23T09:20:23Z</time>
      </trkpt>
      <trkpt lat="43.57346" lon="5.62499">
        <ele>541.12</ele>
        <time>2022-01-23T09:20:28Z</time>
      </trkpt>
      <trkpt lat="43.5735" lon="5.62526">
        <ele>541.25</ele>
        <time>2022-01-23T09:20:33Z</time>
      </trkpt>
      <trkpt lat="43.5735" lon="5.62555">
        <ele>541.07</ele>
        <time>2022-01-23T09:20:40Z</time>
      </trkpt>
      <trkpt lat="43.5735" lon="5.62585">
        <ele>540.85</ele>
        <time>2022-01-23T09:20:46Z</time>
      </trkpt>
      <trkpt lat="43.57349" lon="5.6261">
        <ele>540.29</ele>
        <time>2022-01-23T09:20:51Z</time>
      </trkpt>
      <trkpt lat="43.57347" lon="5.62638">
        <ele>539.77</ele>
        <time>2022-01-23T09:20:57Z</time>
      </trkpt>
      <trkpt lat="43.57348" lon="5.62664">
        <ele>538.66</ele>
        <time>2022-01-23T09:21:02Z</time>
      </trkpt>
      <trkpt lat="43.57348" lon="5.62694">
        <ele>537.7</ele>
        <time>2022-01-23T09:21:06Z</time>
      </trkpt>
      <trkpt lat="43.57344" lon="5.6272">
        <ele>536.82</ele>
        <time>2022-01-23T09:21:10Z</time>
      </trkpt>
      <trkpt lat="43.57335" lon="5.62743">
        <ele>535.49</ele>
        <time>2022-01-23T09:21:17Z</time>
      </trkpt>
      <trkpt lat="43.57332" lon="5.6277">
        <ele>535.13</ele>
        <time>2022-01-23T09:21:25Z</time>
      </trkpt>
      <trkpt lat="43.57328" lon="5.62795">
        <ele>534.75</ele>
        <time>2022-01-23T09:21:33Z</time>
      </trkpt>
      <trkpt lat="43.57317" lon="5.62815">
        <ele>535.42</ele>
        <time>2022-01-23T09:21:42Z</time>
      </trkpt>
      <trkpt lat="43.57319" lon="5.62842">
        <ele>536.78</ele>
        <time>2022-01-23T09:21:51Z</time>
      </trkpt>
      <trkpt lat="43.5732" lon="5.62869">
        <ele>537.94</ele>
        <time>2022-01-23T09:22:00Z</time>
      </trkpt>
      <trkpt lat="43.57316" lon="5.62894">
        <ele>538.64</ele>
        <time>2022-01-23T09:22:08Z</time>
      </trkpt>
      <trkpt lat="43.5731" lon="5.62917">
        <ele>538.95</ele>
        <time>2022-01-23T09:22:16Z</time>
      </trkpt>
      <trkpt lat="43.57303" lon="5.62942">
        <ele>539.42</ele>
        <time>2022-01-23T09:22:24Z</time>
      </trkpt>
      <trkpt lat="43.573" lon="5.62969">
        <ele>540.23</ele>
        <time>2022-01-23T09:22:33Z</time>
      </trkpt>
      <trkpt lat="43.57295" lon="5.62994">
        <ele>541.4</ele>
        <time>2022-01-23T09:22:42Z</time>
      </trkpt>
      <trkpt lat="43.57291" lon="5.63019">
        <ele>542.12</ele>
        <time>2022-01-23T09:22:51Z</time>
      </trkpt>
      <trkpt lat="43.57291" lon="5.63047">
        <ele>543.3</ele>
        <time>2022-01-23T09:22:59Z</time>
      </trkpt>
      <trkpt lat="43.57287" lon="5.63073">
        <ele>544.5</ele>
        <time>2022-01-23T09:23:08Z</time>
      </trkpt>
      <trkpt lat="43.5728" lon="5.63097">
        <ele>546.5</ele>
        <time>2022-01-23T09:23:18Z</time>
      </trkpt>
      <trkpt lat="43.57274" lon="5.63121">
        <ele>548.3</ele>
        <time>2022-01-23T09:23:26Z</time>
      </trkpt>
      <trkpt lat="43.57274" lon="5.63149">
        <ele>549.9</ele>
        <time>2022-01-23T09:23:34Z</time>
      </trkpt>
      <trkpt lat="43.57282" lon="5.63172">
        <ele>552.94</ele>
        <time>2022-01-23T09:23:49Z</time>
      </trkpt>
      <trkpt lat="43.57289" lon="5.63197">
        <ele>552.64</ele>
        <time>2022-01-23T09:24:37Z</time>
      </trkpt>
      <trkpt lat="43.57299" lon="5.63221">
        <ele>551.89</ele>
        <time>2022-01-23T09:24:42Z</time>
      </trkpt>
      <trkpt lat="43.57316" lon="5.63237">
        <ele>551.55</ele>
        <time>2022-01-23T09:24:46Z</time>
      </trkpt>
      <trkpt lat="43.57334" lon="5.63254">
        <ele>552.01</ele>
        <time>2022-01-23T09:24:50Z</time>
      </trkpt>
      <trkpt lat="43.57339" lon="5.63283">
        <ele>552.22</ele>
        <time>2022-01-23T09:24:54Z</time>
      </trkpt>
      <trkpt lat="43.57337" lon="5.63315">
        <ele>552.23</ele>
        <time>2022-01-23T09:24:58Z</time>
      </trkpt>
      <trkpt lat="43.57336" lon="5.63344">
        <ele>551.77</ele>
        <time>2022-01-23T09:25:02Z</time>
      </trkpt>
      <trkpt lat="43.57343" lon="5.63373">
        <ele>551</ele>
        <time>2022-01-23T09:25:06Z</time>
      </trkpt>
      <trkpt lat="43.57347" lon="5.63401">
        <ele>550.47</ele>
        <time>2022-01-23T09:25:10Z</time>
      </trkpt>
      <trkpt lat="43.57347" lon="5.63429">
        <ele>549.97</ele>
        <time>2022-01-23T09:25:14Z</time>
      </trkpt>
      <trkpt lat="43.57348" lon="5.63459">
        <ele>549.3</ele>
        <time>2022-01-23T09:25:18Z</time>
      </trkpt>
      <trkpt lat="43.57352" lon="5.63485">
        <ele>548.99</ele>
        <time>2022-01-23T09:25:22Z</time>
      </trkpt>
      <trkpt lat="43.57362" lon="5.63513">
        <ele>548.57</ele>
        <time>2022-01-23T09:25:26Z</time>
      </trkpt>
      <trkpt lat="43.5737" lon="5.63543">
        <ele>548.47</ele>
        <time>2022-01-23T09:25:30Z</time>
      </trkpt>
      <trkpt lat="43.57381" lon="5.63568">
        <ele>547.95</ele>
        <time>2022-01-23T09:25:34Z</time>
      </trkpt>
      <trkpt lat="43.57401" lon="5.63578">
        <ele>547.75</ele>
        <time>2022-01-23T09:25:39Z</time>
      </trkpt>
      <trkpt lat="43.57419" lon="5.63569">
        <ele>547.35</ele>
        <time>2022-01-23T09:25:44Z</time>
      </trkpt>
      <trkpt lat="43.57437" lon="5.63573">
        <ele>548.23</ele>
        <time>2022-01-23T09:25:50Z</time>
      </trkpt>
      <trkpt lat="43.57444" lon="5.63599">
        <ele>549.23</ele>
        <time>2022-01-23T09:25:57Z</time>
      </trkpt>
      <trkpt lat="43.57447" lon="5.6363">
        <ele>550.45</ele>
        <time>2022-01-23T09:26:03Z</time>
      </trkpt>
      <trkpt lat="43.57455" lon="5.63659">
        <ele>549.89</ele>
        <time>2022-01-23T09:26:07Z</time>
      </trkpt>
      <trkpt lat="43.57461" lon="5.63688">
        <ele>549.67</ele>
        <time>2022-01-23T09:26:11Z</time>
      </trkpt>
      <trkpt lat="43.57463" lon="5.63715">
        <ele>548.99</ele>
        <time>2022-01-23T09:26:15Z</time>
      </trkpt>
      <trkpt lat="43.57462" lon="5.63746">
        <ele>548.12</ele>
        <time>2022-01-23T09:26:19Z</time>
      </trkpt>
      <trkpt lat="43.5746" lon="5.63772">
        <ele>547.3</ele>
        <time>2022-01-23T09:26:22Z</time>
      </trkpt>
      <trkpt lat="43.57459" lon="5.63802">
        <ele>546.48</ele>
        <time>2022-01-23T09:26:26Z</time>
      </trkpt>
      <trkpt lat="43.57459" lon="5.6383">
        <ele>545.3</ele>
        <time>2022-01-23T09:26:31Z</time>
      </trkpt>
      <trkpt lat="43.57458" lon="5.63856">
        <ele>544.38</ele>
        <time>2022-01-23T09:26:36Z</time>
      </trkpt>
      <trkpt lat="43.57454" lon="5.63882">
        <ele>543.3</ele>
        <time>2022-01-23T09:26:41Z</time>
      </trkpt>
      <trkpt lat="43.5745" lon="5.63911">
        <ele>542.12</ele>
        <time>2022-01-23T09:26:45Z</time>
      </trkpt>
      <trkpt lat="43.57445" lon="5.63943">
        <ele>540.84</ele>
        <time>2022-01-23T09:26:49Z</time>
      </trkpt>
      <trkpt lat="43.57439" lon="5.63966">
        <ele>539.91</ele>
        <time>2022-01-23T09:26:52Z</time>
      </trkpt>
      <trkpt lat="43.57434" lon="5.63993">
        <ele>538.75</ele>
        <time>2022-01-23T09:26:55Z</time>
      </trkpt>
      <trkpt lat="43.57432" lon="5.64024">
        <ele>537.55</ele>
        <time>2022-01-23T09:26:58Z</time>
      </trkpt>
      <trkpt lat="43.57432" lon="5.64056">
        <ele>536.53</ele>
        <time>2022-01-23T09:27:01Z</time>
      </trkpt>
      <trkpt lat="43.5743" lon="5.64083">
        <ele>535.04</ele>
        <time>2022-01-23T09:27:05Z</time>
      </trkpt>
      <trkpt lat="43.57419" lon="5.64108">
        <ele>530.6</ele>
        <time>2022-01-23T09:27:20Z</time>
      </trkpt>
      <trkpt lat="43.57411" lon="5.6413">
        <ele>530.03</ele>
        <time>2022-01-23T09:27:25Z</time>
      </trkpt>
      <trkpt lat="43.57403" lon="5.64159">
        <ele>529.18</ele>
        <time>2022-01-23T09:27:30Z</time>
      </trkpt>
      <trkpt lat="43.57389" lon="5.64175">
        <ele>527.01</ele>
        <time>2022-01-23T09:27:34Z</time>
      </trkpt>
      <trkpt lat="43.57377" lon="5.64196">
        <ele>525.17</ele>
        <time>2022-01-23T09:27:38Z</time>
      </trkpt>
      <trkpt lat="43.57357" lon="5.64213">
        <ele>522.42</ele>
        <time>2022-01-23T09:27:42Z</time>
      </trkpt>
      <trkpt lat="43.57339" lon="5.64223">
        <ele>520.25</ele>
        <time>2022-01-23T09:27:46Z</time>
      </trkpt>
      <trkpt lat="43.57326" lon="5.64246">
        <ele>518.5</ele>
        <time>2022-01-23T09:27:51Z</time>
      </trkpt>
      <trkpt lat="43.57327" lon="5.64278">
        <ele>517.72</ele>
        <time>2022-01-23T09:27:55Z</time>
      </trkpt>
      <trkpt lat="43.57329" lon="5.64309">
        <ele>517</ele>
        <time>2022-01-23T09:27:59Z</time>
      </trkpt>
      <trkpt lat="43.57332" lon="5.6434">
        <ele>516.29</ele>
        <time>2022-01-23T09:28:03Z</time>
      </trkpt>
      <trkpt lat="43.57335" lon="5.64366">
        <ele>515.5</ele>
        <time>2022-01-23T09:28:07Z</time>
      </trkpt>
      <trkpt lat="43.57335" lon="5.64396">
        <ele>514.7</ele>
        <time>2022-01-23T09:28:11Z</time>
      </trkpt>
      <trkpt lat="43.57333" lon="5.64428">
        <ele>513.8</ele>
        <time>2022-01-23T09:28:15Z</time>
      </trkpt>
      <trkpt lat="43.57332" lon="5.64453">
        <ele>513.02</ele>
        <time>2022-01-23T09:28:18Z</time>
      </trkpt>
      <trkpt lat="43.57333" lon="5.64485">
        <ele>511.8</ele>
        <time>2022-01-23T09:28:22Z</time>
      </trkpt>
      <trkpt lat="43.57334" lon="5.64513">
        <ele>510.42</ele>
        <time>2022-01-23T09:28:26Z</time>
      </trkpt>
      <trkpt lat="43.57336" lon="5.64537">
        <ele>509.22</ele>
        <time>2022-01-23T09:28:30Z</time>
      </trkpt>
      <trkpt lat="43.57336" lon="5.64563">
        <ele>508.1</ele>
        <time>2022-01-23T09:28:34Z</time>
      </trkpt>
      <trkpt lat="43.57332" lon="5.6459">
        <ele>507.3</ele>
        <time>2022-01-23T09:28:38Z</time>
      </trkpt>
      <trkpt lat="43.57322" lon="5.64615">
        <ele>506.22</ele>
        <time>2022-01-23T09:28:42Z</time>
      </trkpt>
      <trkpt lat="43.57322" lon="5.64643">
        <ele>504.85</ele>
        <time>2022-01-23T09:28:46Z</time>
      </trkpt>
      <trkpt lat="43.57325" lon="5.64675">
        <ele>503.62</ele>
        <time>2022-01-23T09:28:50Z</time>
      </trkpt>
      <trkpt lat="43.57327" lon="5.647">
        <ele>502.72</ele>
        <time>2022-01-23T09:28:54Z</time>
      </trkpt>
      <trkpt lat="43.57328" lon="5.64727">
        <ele>501.54</ele>
        <time>2022-01-23T09:28:58Z</time>
      </trkpt>
      <trkpt lat="43.57329" lon="5.64755">
        <ele>500.7</ele>
        <time>2022-01-23T09:29:02Z</time>
      </trkpt>
      <trkpt lat="43.57336" lon="5.6478">
        <ele>499.9</ele>
        <time>2022-01-23T09:29:06Z</time>
      </trkpt>
      <trkpt lat="43.57343" lon="5.64807">
        <ele>498.9</ele>
        <time>2022-01-23T09:29:10Z</time>
      </trkpt>
      <trkpt lat="43.57352" lon="5.6483">
        <ele>498.06</ele>
        <time>2022-01-23T09:29:15Z</time>
      </trkpt>
      <trkpt lat="43.57365" lon="5.64855">
        <ele>497.16</ele>
        <time>2022-01-23T09:29:19Z</time>
      </trkpt>
      <trkpt lat="43.57369" lon="5.64886">
        <ele>496.77</ele>
        <time>2022-01-23T09:29:24Z</time>
      </trkpt>
      <trkpt lat="43.57371" lon="5.64914">
        <ele>496.2</ele>
        <time>2022-01-23T09:29:28Z</time>
      </trkpt>
      <trkpt lat="43.57374" lon="5.64941">
        <ele>495.5</ele>
        <time>2022-01-23T09:29:32Z</time>
      </trkpt>
      <trkpt lat="43.57378" lon="5.6497">
        <ele>494.6</ele>
        <time>2022-01-23T09:29:36Z</time>
      </trkpt>
      <trkpt lat="43.57383" lon="5.64997">
        <ele>493.54</ele>
        <time>2022-01-23T09:29:40Z</time>
      </trkpt>
      <trkpt lat="43.57382" lon="5.65024">
        <ele>492.5</ele>
        <time>2022-01-23T09:29:44Z</time>
      </trkpt>
      <trkpt lat="43.57385" lon="5.65053">
        <ele>490.97</ele>
        <time>2022-01-23T09:29:48Z</time>
      </trkpt>
      <trkpt lat="43.57391" lon="5.6508">
        <ele>489.98</ele>
        <time>2022-01-23T09:29:52Z</time>
      </trkpt>
      <trkpt lat="43.57393" lon="5.6511">
        <ele>489.17</ele>
        <time>2022-01-23T09:29:56Z</time>
      </trkpt>
      <trkpt lat="43.57397" lon="5.65141">
        <ele>488.42</ele>
        <time>2022-01-23T09:30:00Z</time>
      </trkpt>
      <trkpt lat="43.57399" lon="5.65167">
        <ele>488.06</ele>
        <time>2022-01-23T09:30:03Z</time>
      </trkpt>
      <trkpt lat="43.57401" lon="5.65193">
        <ele>487.5</ele>
        <time>2022-01-23T09:30:06Z</time>
      </trkpt>
      <trkpt lat="43.57401" lon="5.65225">
        <ele>486.71</ele>
        <time>2022-01-23T09:30:10Z</time>
      </trkpt>
      <trkpt lat="43.57397" lon="5.65255">
        <ele>486.45</ele>
        <time>2022-01-23T09:30:14Z</time>
      </trkpt>
      <trkpt lat="43.57394" lon="5.65279">
        <ele>485.99</ele>
        <time>2022-01-23T09:30:18Z</time>
      </trkpt>
      <trkpt lat="43.57395" lon="5.65306">
        <ele>485.49</ele>
        <time>2022-01-23T09:30:22Z</time>
      </trkpt>
      <trkpt lat="43.57395" lon="5.65331">
        <ele>485.06</ele>
        <time>2022-01-23T09:30:26Z</time>
      </trkpt>
      <trkpt lat="43.57397" lon="5.6536">
        <ele>484.93</ele>
        <time>2022-01-23T09:30:31Z</time>
      </trkpt>
      <trkpt lat="43.574" lon="5.65385">
        <ele>484.46</ele>
        <time>2022-01-23T09:30:35Z</time>
      </trkpt>
      <trkpt lat="43.57401" lon="5.65413">
        <ele>484.45</ele>
        <time>2022-01-23T09:30:39Z</time>
      </trkpt>
      <trkpt lat="43.574" lon="5.65444">
        <ele>484.05</ele>
        <time>2022-01-23T09:30:44Z</time>
      </trkpt>
      <trkpt lat="43.57399" lon="5.65469">
        <ele>483.85</ele>
        <time>2022-01-23T09:30:48Z</time>
      </trkpt>
      <trkpt lat="43.574" lon="5.65495">
        <ele>483.02</ele>
        <time>2022-01-23T09:30:52Z</time>
      </trkpt>
      <trkpt lat="43.574" lon="5.65523">
        <ele>482.55</ele>
        <time>2022-01-23T09:30:56Z</time>
      </trkpt>
      <trkpt lat="43.57405" lon="5.65554">
        <ele>481.58</ele>
        <time>2022-01-23T09:31:02Z</time>
      </trkpt>
      <trkpt lat="43.57407" lon="5.65582">
        <ele>480.97</ele>
        <time>2022-01-23T09:31:06Z</time>
      </trkpt>
      <trkpt lat="43.57405" lon="5.6561">
        <ele>480.48</ele>
        <time>2022-01-23T09:31:10Z</time>
      </trkpt>
      <trkpt lat="43.57404" lon="5.65636">
        <ele>479.98</ele>
        <time>2022-01-23T09:31:14Z</time>
      </trkpt>
      <trkpt lat="43.57406" lon="5.65663">
        <ele>479.57</ele>
        <time>2022-01-23T09:31:19Z</time>
      </trkpt>
      <trkpt lat="43.57405" lon="5.6569">
        <ele>479.25</ele>
        <time>2022-01-23T09:31:26Z</time>
      </trkpt>
      <trkpt lat="43.574" lon="5.65714">
        <ele>478.95</ele>
        <time>2022-01-23T09:31:33Z</time>
      </trkpt>
      <trkpt lat="43.57385" lon="5.65732">
        <ele>482.29</ele>
        <time>2022-01-23T09:31:43Z</time>
      </trkpt>
      <trkpt lat="43.57374" lon="5.65754">
        <ele>487.22</ele>
        <time>2022-01-23T09:31:53Z</time>
      </trkpt>
      <trkpt lat="43.57367" lon="5.65778">
        <ele>492.74</ele>
        <time>2022-01-23T09:32:05Z</time>
      </trkpt>
      <trkpt lat="43.57348" lon="5.65783">
        <ele>497.79</ele>
        <time>2022-01-23T09:32:28Z</time>
      </trkpt>
      <trkpt lat="43.57343" lon="5.65808">
        <ele>501.69</ele>
        <time>2022-01-23T09:32:41Z</time>
      </trkpt>
      <trkpt lat="43.57332" lon="5.65828">
        <ele>504.02</ele>
        <time>2022-01-23T09:32:55Z</time>
      </trkpt>
      <trkpt lat="43.57314" lon="5.65833">
        <ele>502.87</ele>
        <time>2022-01-23T09:33:12Z</time>
      </trkpt>
      <trkpt lat="43.57303" lon="5.6581">
        <ele>499.94</ele>
        <time>2022-01-23T09:34:10Z</time>
      </trkpt>
      <trkpt lat="43.57291" lon="5.6579">
        <ele>501.3</ele>
        <time>2022-01-23T09:34:21Z</time>
      </trkpt>
      <trkpt lat="43.57289" lon="5.65764">
        <ele>504.01</ele>
        <time>2022-01-23T09:34:32Z</time>
      </trkpt>
      <trkpt lat="43.57289" lon="5.65737">
        <ele>504.35</ele>
        <time>2022-01-23T09:34:40Z</time>
      </trkpt>
      <trkpt lat="43.5729" lon="5.6571">
        <ele>504.52</ele>
        <time>2022-01-23T09:34:49Z</time>
      </trkpt>
      <trkpt lat="43.57293" lon="5.65683">
        <ele>504.67</ele>
        <time>2022-01-23T09:34:58Z</time>
      </trkpt>
      <trkpt lat="43.57292" lon="5.65658">
        <ele>505.22</ele>
        <time>2022-01-23T09:35:06Z</time>
      </trkpt>
      <trkpt lat="43.5729" lon="5.65632">
        <ele>505.94</ele>
        <time>2022-01-23T09:35:14Z</time>
      </trkpt>
      <trkpt lat="43.5729" lon="5.65604">
        <ele>505.95</ele>
        <time>2022-01-23T09:35:21Z</time>
      </trkpt>
      <trkpt lat="43.57286" lon="5.65579">
        <ele>506.32</ele>
        <time>2022-01-23T09:35:27Z</time>
      </trkpt>
      <trkpt lat="43.57278" lon="5.65556">
        <ele>507.02</ele>
        <time>2022-01-23T09:35:33Z</time>
      </trkpt>
      <trkpt lat="43.5727" lon="5.6553">
        <ele>507.4</ele>
        <time>2022-01-23T09:35:39Z</time>
      </trkpt>
      <trkpt lat="43.57263" lon="5.65506">
        <ele>508.74</ele>
        <time>2022-01-23T09:35:45Z</time>
      </trkpt>
      <trkpt lat="43.57265" lon="5.65481">
        <ele>509.92</ele>
        <time>2022-01-23T09:35:51Z</time>
      </trkpt>
      <trkpt lat="43.57265" lon="5.65456">
        <ele>510.82</ele>
        <time>2022-01-23T09:35:59Z</time>
      </trkpt>
      <trkpt lat="43.57266" lon="5.65428">
        <ele>511.7</ele>
        <time>2022-01-23T09:36:08Z</time>
      </trkpt>
      <trkpt lat="43.57267" lon="5.65402">
        <ele>513.2</ele>
        <time>2022-01-23T09:36:17Z</time>
      </trkpt>
      <trkpt lat="43.57267" lon="5.65376">
        <ele>513.41</ele>
        <time>2022-01-23T09:36:25Z</time>
      </trkpt>
      <trkpt lat="43.57268" lon="5.65348">
        <ele>513.27</ele>
        <time>2022-01-23T09:36:34Z</time>
      </trkpt>
      <trkpt lat="43.57268" lon="5.65323">
        <ele>514.23</ele>
        <time>2022-01-23T09:36:43Z</time>
      </trkpt>
      <trkpt lat="43.57266" lon="5.65297">
        <ele>515.02</ele>
        <time>2022-01-23T09:36:51Z</time>
      </trkpt>
      <trkpt lat="43.57266" lon="5.6527">
        <ele>516.4</ele>
        <time>2022-01-23T09:36:59Z</time>
      </trkpt>
      <trkpt lat="43.57263" lon="5.65245">
        <ele>518.04</ele>
        <time>2022-01-23T09:37:07Z</time>
      </trkpt>
      <trkpt lat="43.57263" lon="5.6522">
        <ele>518.72</ele>
        <time>2022-01-23T09:37:14Z</time>
      </trkpt>
      <trkpt lat="43.57263" lon="5.65195">
        <ele>518.93</ele>
        <time>2022-01-23T09:37:21Z</time>
      </trkpt>
      <trkpt lat="43.57259" lon="5.65169">
        <ele>518.87</ele>
        <time>2022-01-23T09:37:28Z</time>
      </trkpt>
      <trkpt lat="43.57243" lon="5.65151">
        <ele>519.24</ele>
        <time>2022-01-23T09:37:36Z</time>
      </trkpt>
      <trkpt lat="43.57228" lon="5.65134">
        <ele>519.64</ele>
        <time>2022-01-23T09:37:43Z</time>
      </trkpt>
      <trkpt lat="43.57224" lon="5.65106">
        <ele>520.52</ele>
        <time>2022-01-23T09:37:50Z</time>
      </trkpt>
      <trkpt lat="43.5722" lon="5.65081">
        <ele>521.7</ele>
        <time>2022-01-23T09:37:56Z</time>
      </trkpt>
      <trkpt lat="43.57218" lon="5.65055">
        <ele>523.4</ele>
        <time>2022-01-23T09:38:02Z</time>
      </trkpt>
      <trkpt lat="43.57206" lon="5.65037">
        <ele>523.8</ele>
        <time>2022-01-23T09:38:07Z</time>
      </trkpt>
      <trkpt lat="43.57192" lon="5.65021">
        <ele>524.9</ele>
        <time>2022-01-23T09:38:13Z</time>
      </trkpt>
      <trkpt lat="43.57191" lon="5.64994">
        <ele>526.71</ele>
        <time>2022-01-23T09:38:20Z</time>
      </trkpt>
      <trkpt lat="43.57189" lon="5.64965">
        <ele>526.72</ele>
        <time>2022-01-23T09:38:27Z</time>
      </trkpt>
      <trkpt lat="43.57182" lon="5.6494">
        <ele>527</ele>
        <time>2022-01-23T09:38:34Z</time>
      </trkpt>
      <trkpt lat="43.57169" lon="5.64916">
        <ele>527.45</ele>
        <time>2022-01-23T09:40:04Z</time>
      </trkpt>
      <trkpt lat="43.57166" lon="5.64943">
        <ele>527.8</ele>
        <time>2022-01-23T09:40:13Z</time>
      </trkpt>
      <trkpt lat="43.57168" lon="5.64971">
        <ele>528.22</ele>
        <time>2022-01-23T09:40:17Z</time>
      </trkpt>
      <trkpt lat="43.57171" lon="5.65">
        <ele>528.46</ele>
        <time>2022-01-23T09:40:21Z</time>
      </trkpt>
      <trkpt lat="43.57174" lon="5.65031">
        <ele>527.91</ele>
        <time>2022-01-23T09:40:25Z</time>
      </trkpt>
      <trkpt lat="43.57177" lon="5.65056">
        <ele>526.65</ele>
        <time>2022-01-23T09:40:28Z</time>
      </trkpt>
      <trkpt lat="43.57179" lon="5.65081">
        <ele>525.45</ele>
        <time>2022-01-23T09:40:31Z</time>
      </trkpt>
      <trkpt lat="43.57178" lon="5.65107">
        <ele>523.97</ele>
        <time>2022-01-23T09:40:34Z</time>
      </trkpt>
      <trkpt lat="43.57179" lon="5.65135">
        <ele>522.28</ele>
        <time>2022-01-23T09:40:37Z</time>
      </trkpt>
      <trkpt lat="43.57181" lon="5.65161">
        <ele>521.28</ele>
        <time>2022-01-23T09:40:40Z</time>
      </trkpt>
      <trkpt lat="43.57183" lon="5.65187">
        <ele>519.75</ele>
        <time>2022-01-23T09:40:43Z</time>
      </trkpt>
      <trkpt lat="43.57185" lon="5.65212">
        <ele>518.65</ele>
        <time>2022-01-23T09:40:46Z</time>
      </trkpt>
      <trkpt lat="43.57187" lon="5.65239">
        <ele>517</ele>
        <time>2022-01-23T09:40:49Z</time>
      </trkpt>
      <trkpt lat="43.57187" lon="5.65266">
        <ele>515.48</ele>
        <time>2022-01-23T09:40:52Z</time>
      </trkpt>
      <trkpt lat="43.57186" lon="5.65295">
        <ele>513.91</ele>
        <time>2022-01-23T09:40:55Z</time>
      </trkpt>
      <trkpt lat="43.57183" lon="5.65325">
        <ele>512.27</ele>
        <time>2022-01-23T09:40:58Z</time>
      </trkpt>
      <trkpt lat="43.5718" lon="5.65358">
        <ele>510.97</ele>
        <time>2022-01-23T09:41:01Z</time>
      </trkpt>
      <trkpt lat="43.57178" lon="5.65391">
        <ele>509.29</ele>
        <time>2022-01-23T09:41:04Z</time>
      </trkpt>
      <trkpt lat="43.57178" lon="5.65423">
        <ele>507.6</ele>
        <time>2022-01-23T09:41:07Z</time>
      </trkpt>
      <trkpt lat="43.57173" lon="5.65454">
        <ele>505.99</ele>
        <time>2022-01-23T09:41:10Z</time>
      </trkpt>
      <trkpt lat="43.57165" lon="5.65483">
        <ele>504.2</ele>
        <time>2022-01-23T09:41:13Z</time>
      </trkpt>
      <trkpt lat="43.5716" lon="5.65511">
        <ele>502.2</ele>
        <time>2022-01-23T09:41:16Z</time>
      </trkpt>
      <trkpt lat="43.57155" lon="5.6554">
        <ele>499.89</ele>
        <time>2022-01-23T09:41:20Z</time>
      </trkpt>
      <trkpt lat="43.5715" lon="5.65571">
        <ele>497.32</ele>
        <time>2022-01-23T09:41:24Z</time>
      </trkpt>
      <trkpt lat="43.57134" lon="5.65593">
        <ele>493.52</ele>
        <time>2022-01-23T09:41:29Z</time>
      </trkpt>
      <trkpt lat="43.57115" lon="5.65602">
        <ele>490.73</ele>
        <time>2022-01-23T09:41:33Z</time>
      </trkpt>
      <trkpt lat="43.57106" lon="5.65629">
        <ele>490.82</ele>
        <time>2022-01-23T09:41:39Z</time>
      </trkpt>
      <trkpt lat="43.57108" lon="5.65655">
        <ele>490.37</ele>
        <time>2022-01-23T09:41:43Z</time>
      </trkpt>
      <trkpt lat="43.5711" lon="5.65679">
        <ele>490.15</ele>
        <time>2022-01-23T09:41:47Z</time>
      </trkpt>
      <trkpt lat="43.5711" lon="5.65705">
        <ele>490.26</ele>
        <time>2022-01-23T09:41:53Z</time>
      </trkpt>
      <trkpt lat="43.57113" lon="5.65731">
        <ele>490.05</ele>
        <time>2022-01-23T09:41:58Z</time>
      </trkpt>
      <trkpt lat="43.57115" lon="5.65758">
        <ele>489.37</ele>
        <time>2022-01-23T09:42:03Z</time>
      </trkpt>
      <trkpt lat="43.57117" lon="5.65784">
        <ele>488.71</ele>
        <time>2022-01-23T09:42:07Z</time>
      </trkpt>
      <trkpt lat="43.57118" lon="5.65815">
        <ele>487.92</ele>
        <time>2022-01-23T09:42:11Z</time>
      </trkpt>
      <trkpt lat="43.57118" lon="5.65843">
        <ele>487.1</ele>
        <time>2022-01-23T09:42:14Z</time>
      </trkpt>
      <trkpt lat="43.57115" lon="5.65869">
        <ele>486.42</ele>
        <time>2022-01-23T09:42:17Z</time>
      </trkpt>
      <trkpt lat="43.57109" lon="5.65893">
        <ele>485.8</ele>
        <time>2022-01-23T09:42:20Z</time>
      </trkpt>
      <trkpt lat="43.57099" lon="5.6592">
        <ele>485.37</ele>
        <time>2022-01-23T09:42:24Z</time>
      </trkpt>
      <trkpt lat="43.57091" lon="5.65947">
        <ele>484.76</ele>
        <time>2022-01-23T09:42:29Z</time>
      </trkpt>
      <trkpt lat="43.57083" lon="5.65969">
        <ele>484.92</ele>
        <time>2022-01-23T09:42:35Z</time>
      </trkpt>
      <trkpt lat="43.57074" lon="5.65994">
        <ele>485.92</ele>
        <time>2022-01-23T09:42:43Z</time>
      </trkpt>
      <trkpt lat="43.57068" lon="5.66022">
        <ele>486.15</ele>
        <time>2022-01-23T09:42:49Z</time>
      </trkpt>
      <trkpt lat="43.5706" lon="5.6605">
        <ele>486.52</ele>
        <time>2022-01-23T09:42:54Z</time>
      </trkpt>
      <trkpt lat="43.57053" lon="5.66076">
        <ele>487.15</ele>
        <time>2022-01-23T09:43:00Z</time>
      </trkpt>
      <trkpt lat="43.57043" lon="5.66097">
        <ele>487.67</ele>
        <time>2022-01-23T09:43:08Z</time>
      </trkpt>
      <trkpt lat="43.57027" lon="5.66113">
        <ele>487.44</ele>
        <time>2022-01-23T09:43:16Z</time>
      </trkpt>
      <trkpt lat="43.57011" lon="5.66128">
        <ele>486.77</ele>
        <time>2022-01-23T09:43:25Z</time>
      </trkpt>
      <trkpt lat="43.56995" lon="5.66142">
        <ele>486.35</ele>
        <time>2022-01-23T09:43:33Z</time>
      </trkpt>
      <trkpt lat="43.5698" lon="5.66156">
        <ele>487.1</ele>
        <time>2022-01-23T09:43:40Z</time>
      </trkpt>
      <trkpt lat="43.56966" lon="5.66171">
        <ele>487.66</ele>
        <time>2022-01-23T09:43:48Z</time>
      </trkpt>
      <trkpt lat="43.5695" lon="5.66185">
        <ele>487.27</ele>
        <time>2022-01-23T09:43:54Z</time>
      </trkpt>
      <trkpt lat="43.56934" lon="5.66199">
        <ele>486.47</ele>
        <time>2022-01-23T09:44:00Z</time>
      </trkpt>
      <trkpt lat="43.56916" lon="5.66214">
        <ele>485.58</ele>
        <time>2022-01-23T09:44:06Z</time>
      </trkpt>
      <trkpt lat="43.56902" lon="5.66234">
        <ele>484.96</ele>
        <time>2022-01-23T09:44:10Z</time>
      </trkpt>
      <trkpt lat="43.569" lon="5.6626">
        <ele>484.85</ele>
        <time>2022-01-23T09:44:14Z</time>
      </trkpt>
      <trkpt lat="43.56898" lon="5.66289">
        <ele>485.3</ele>
        <time>2022-01-23T09:44:19Z</time>
      </trkpt>
      <trkpt lat="43.56893" lon="5.66314">
        <ele>485.92</ele>
        <time>2022-01-23T09:44:25Z</time>
      </trkpt>
      <trkpt lat="43.56878" lon="5.66333">
        <ele>488.51</ele>
        <time>2022-01-23T09:44:33Z</time>
      </trkpt>
      <trkpt lat="43.56866" lon="5.66351">
        <ele>490.18</ele>
        <time>2022-01-23T09:44:40Z</time>
      </trkpt>
      <trkpt lat="43.56854" lon="5.66371">
        <ele>491.72</ele>
        <time>2022-01-23T09:44:47Z</time>
      </trkpt>
      <trkpt lat="43.56842" lon="5.66393">
        <ele>494.25</ele>
        <time>2022-01-23T09:44:56Z</time>
      </trkpt>
      <trkpt lat="43.56832" lon="5.66417">
        <ele>498.1</ele>
        <time>2022-01-23T09:45:05Z</time>
      </trkpt>
      <trkpt lat="43.56823" lon="5.6644">
        <ele>501.69</ele>
        <time>2022-01-23T09:45:14Z</time>
      </trkpt>
      <trkpt lat="43.56815" lon="5.66463">
        <ele>503.85</ele>
        <time>2022-01-23T09:45:23Z</time>
      </trkpt>
      <trkpt lat="43.56802" lon="5.66483">
        <ele>506.3</ele>
        <time>2022-01-23T09:45:33Z</time>
      </trkpt>
      <trkpt lat="43.56787" lon="5.665">
        <ele>508.32</ele>
        <time>2022-01-23T09:45:43Z</time>
      </trkpt>
      <trkpt lat="43.56774" lon="5.66518">
        <ele>508.93</ele>
        <time>2022-01-23T09:45:51Z</time>
      </trkpt>
      <trkpt lat="43.56756" lon="5.66528">
        <ele>509.15</ele>
        <time>2022-01-23T09:46:03Z</time>
      </trkpt>
      <trkpt lat="43.56739" lon="5.66539">
        <ele>510.44</ele>
        <time>2022-01-23T09:46:15Z</time>
      </trkpt>
      <trkpt lat="43.56722" lon="5.6655">
        <ele>512.9</ele>
        <time>2022-01-23T09:46:28Z</time>
      </trkpt>
      <trkpt lat="43.56705" lon="5.6656">
        <ele>515.68</ele>
        <time>2022-01-23T09:46:41Z</time>
      </trkpt>
      <trkpt lat="43.56687" lon="5.66568">
        <ele>518.89</ele>
        <time>2022-01-23T09:46:53Z</time>
      </trkpt>
      <trkpt lat="43.56669" lon="5.66586">
        <ele>519.8</ele>
        <time>2022-01-23T09:46:58Z</time>
      </trkpt>
      <trkpt lat="43.56656" lon="5.66604">
        <ele>520.48</ele>
        <time>2022-01-23T09:47:01Z</time>
      </trkpt>
      <trkpt lat="43.56639" lon="5.66623">
        <ele>521.02</ele>
        <time>2022-01-23T09:47:04Z</time>
      </trkpt>
      <trkpt lat="43.56619" lon="5.66637">
        <ele>520.79</ele>
        <time>2022-01-23T09:47:07Z</time>
      </trkpt>
      <trkpt lat="43.56599" lon="5.66652">
        <ele>520.04</ele>
        <time>2022-01-23T09:47:10Z</time>
      </trkpt>
      <trkpt lat="43.56584" lon="5.66667">
        <ele>519.25</ele>
        <time>2022-01-23T09:47:13Z</time>
      </trkpt>
      <trkpt lat="43.56571" lon="5.66685">
        <ele>518.01</ele>
        <time>2022-01-23T09:47:17Z</time>
      </trkpt>
      <trkpt lat="43.56559" lon="5.66706">
        <ele>517.42</ele>
        <time>2022-01-23T09:47:26Z</time>
      </trkpt>
      <trkpt lat="43.56553" lon="5.66731">
        <ele>521.29</ele>
        <time>2022-01-23T09:47:38Z</time>
      </trkpt>
      <trkpt lat="43.56554" lon="5.66758">
        <ele>522.92</ele>
        <time>2022-01-23T09:47:46Z</time>
      </trkpt>
      <trkpt lat="43.56552" lon="5.66786">
        <ele>522.65</ele>
        <time>2022-01-23T09:47:54Z</time>
      </trkpt>
      <trkpt lat="43.56553" lon="5.66813">
        <ele>521.83</ele>
        <time>2022-01-23T09:48:01Z</time>
      </trkpt>
      <trkpt lat="43.56553" lon="5.66838">
        <ele>523.4</ele>
        <time>2022-01-23T09:48:10Z</time>
      </trkpt>
      <trkpt lat="43.56554" lon="5.66865">
        <ele>524.54</ele>
        <time>2022-01-23T09:48:20Z</time>
      </trkpt>
      <trkpt lat="43.56553" lon="5.6689">
        <ele>524.95</ele>
        <time>2022-01-23T09:48:29Z</time>
      </trkpt>
      <trkpt lat="43.56553" lon="5.66916">
        <ele>525.3</ele>
        <time>2022-01-23T09:48:40Z</time>
      </trkpt>
      <trkpt lat="43.56554" lon="5.66943">
        <ele>526.8</ele>
        <time>2022-01-23T09:48:50Z</time>
      </trkpt>
      <trkpt lat="43.56556" lon="5.66969">
        <ele>526.92</ele>
        <time>2022-01-23T09:48:56Z</time>
      </trkpt>
      <trkpt lat="43.56559" lon="5.66994">
        <ele>526.97</ele>
        <time>2022-01-23T09:49:02Z</time>
      </trkpt>
      <trkpt lat="43.56563" lon="5.67018">
        <ele>526.02</ele>
        <time>2022-01-23T09:49:08Z</time>
      </trkpt>
      <trkpt lat="43.56571" lon="5.67043">
        <ele>524.15</ele>
        <time>2022-01-23T09:49:14Z</time>
      </trkpt>
      <trkpt lat="43.56578" lon="5.67068">
        <ele>522.13</ele>
        <time>2022-01-23T09:49:20Z</time>
      </trkpt>
      <trkpt lat="43.56584" lon="5.67094">
        <ele>521.35</ele>
        <time>2022-01-23T09:49:27Z</time>
      </trkpt>
      <trkpt lat="43.56589" lon="5.67118">
        <ele>521.05</ele>
        <time>2022-01-23T09:49:34Z</time>
      </trkpt>
      <trkpt lat="43.56594" lon="5.67145">
        <ele>521.82</ele>
        <time>2022-01-23T09:49:44Z</time>
      </trkpt>
      <trkpt lat="43.566" lon="5.67169">
        <ele>524.94</ele>
        <time>2022-01-23T09:49:55Z</time>
      </trkpt>
      <trkpt lat="43.56608" lon="5.67193">
        <ele>527.77</ele>
        <time>2022-01-23T09:50:07Z</time>
      </trkpt>
      <trkpt lat="43.56617" lon="5.67216">
        <ele>532.17</ele>
        <time>2022-01-23T09:50:20Z</time>
      </trkpt>
      <trkpt lat="43.56623" lon="5.6724">
        <ele>535.97</ele>
        <time>2022-01-23T09:50:32Z</time>
      </trkpt>
      <trkpt lat="43.56629" lon="5.67264">
        <ele>539.26</ele>
        <time>2022-01-23T09:50:44Z</time>
      </trkpt>
      <trkpt lat="43.56637" lon="5.67288">
        <ele>544.39</ele>
        <time>2022-01-23T09:50:58Z</time>
      </trkpt>
      <trkpt lat="43.56627" lon="5.6731">
        <ele>548.94</ele>
        <time>2022-01-23T09:51:17Z</time>
      </trkpt>
      <trkpt lat="43.56611" lon="5.67296">
        <ele>554.25</ele>
        <time>2022-01-23T09:51:33Z</time>
      </trkpt>
      <trkpt lat="43.56593" lon="5.67287">
        <ele>557.67</ele>
        <time>2022-01-23T09:51:44Z</time>
      </trkpt>
      <trkpt lat="43.56577" lon="5.67273">
        <ele>561.95</ele>
        <time>2022-01-23T09:51:57Z</time>
      </trkpt>
      <trkpt lat="43.56566" lon="5.67251">
        <ele>566.02</ele>
        <time>2022-01-23T09:52:11Z</time>
      </trkpt>
      <trkpt lat="43.56556" lon="5.6723">
        <ele>569.69</ele>
        <time>2022-01-23T09:52:23Z</time>
      </trkpt>
      <trkpt lat="43.56543" lon="5.67212">
        <ele>571.35</ele>
        <time>2022-01-23T09:52:32Z</time>
      </trkpt>
      <trkpt lat="43.56531" lon="5.67191">
        <ele>572.67</ele>
        <time>2022-01-23T09:52:44Z</time>
      </trkpt>
      <trkpt lat="43.56521" lon="5.67168">
        <ele>572.03</ele>
        <time>2022-01-23T09:52:55Z</time>
      </trkpt>
      <trkpt lat="43.56508" lon="5.67148">
        <ele>572.11</ele>
        <time>2022-01-23T09:53:04Z</time>
      </trkpt>
      <trkpt lat="43.56498" lon="5.67126">
        <ele>574.28</ele>
        <time>2022-01-23T09:53:14Z</time>
      </trkpt>
      <trkpt lat="43.56487" lon="5.67104">
        <ele>576.4</ele>
        <time>2022-01-23T09:53:27Z</time>
      </trkpt>
      <trkpt lat="43.56478" lon="5.6708">
        <ele>579.77</ele>
        <time>2022-01-23T09:53:37Z</time>
      </trkpt>
      <trkpt lat="43.56467" lon="5.67058">
        <ele>583.19</ele>
        <time>2022-01-23T09:53:47Z</time>
      </trkpt>
      <trkpt lat="43.56453" lon="5.67041">
        <ele>584.1</ele>
        <time>2022-01-23T09:53:55Z</time>
      </trkpt>
      <trkpt lat="43.56433" lon="5.67039">
        <ele>579.99</ele>
        <time>2022-01-23T09:54:02Z</time>
      </trkpt>
      <trkpt lat="43.56415" lon="5.67037">
        <ele>576.4</ele>
        <time>2022-01-23T09:54:10Z</time>
      </trkpt>
      <trkpt lat="43.56397" lon="5.67041">
        <ele>574.61</ele>
        <time>2022-01-23T09:54:18Z</time>
      </trkpt>
      <trkpt lat="43.56378" lon="5.67048">
        <ele>573.17</ele>
        <time>2022-01-23T09:54:25Z</time>
      </trkpt>
      <trkpt lat="43.56358" lon="5.67053">
        <ele>572.5</ele>
        <time>2022-01-23T09:54:32Z</time>
      </trkpt>
      <trkpt lat="43.56339" lon="5.67055">
        <ele>572.19</ele>
        <time>2022-01-23T09:54:36Z</time>
      </trkpt>
      <trkpt lat="43.56316" lon="5.67056">
        <ele>571.45</ele>
        <time>2022-01-23T09:54:40Z</time>
      </trkpt>
      <trkpt lat="43.56299" lon="5.67045">
        <ele>571.13</ele>
        <time>2022-01-23T09:54:43Z</time>
      </trkpt>
      <trkpt lat="43.56286" lon="5.67026">
        <ele>570.4</ele>
        <time>2022-01-23T09:54:46Z</time>
      </trkpt>
      <trkpt lat="43.56273" lon="5.67008">
        <ele>569.68</ele>
        <time>2022-01-23T09:54:49Z</time>
      </trkpt>
      <trkpt lat="43.56261" lon="5.6698">
        <ele>567.63</ele>
        <time>2022-01-23T09:54:53Z</time>
      </trkpt>
      <trkpt lat="43.56248" lon="5.66955">
        <ele>566.28</ele>
        <time>2022-01-23T09:54:57Z</time>
      </trkpt>
      <trkpt lat="43.5623" lon="5.6695">
        <ele>565.62</ele>
        <time>2022-01-23T09:55:00Z</time>
      </trkpt>
      <trkpt lat="43.56208" lon="5.66947">
        <ele>564.23</ele>
        <time>2022-01-23T09:55:04Z</time>
      </trkpt>
      <trkpt lat="43.56198" lon="5.66969">
        <ele>563.17</ele>
        <time>2022-01-23T09:55:09Z</time>
      </trkpt>
      <trkpt lat="43.56189" lon="5.66991">
        <ele>562.43</ele>
        <time>2022-01-23T09:55:15Z</time>
      </trkpt>
      <trkpt lat="43.56176" lon="5.67012">
        <ele>565.91</ele>
        <time>2022-01-23T09:55:24Z</time>
      </trkpt>
      <trkpt lat="43.56161" lon="5.67027">
        <ele>567.43</ele>
        <time>2022-01-23T09:55:32Z</time>
      </trkpt>
      <trkpt lat="43.56146" lon="5.67047">
        <ele>567.4</ele>
        <time>2022-01-23T09:55:38Z</time>
      </trkpt>
      <trkpt lat="43.56135" lon="5.67071">
        <ele>566.99</ele>
        <time>2022-01-23T09:55:43Z</time>
      </trkpt>
      <trkpt lat="43.56121" lon="5.67094">
        <ele>563.13</ele>
        <time>2022-01-23T09:55:48Z</time>
      </trkpt>
      <trkpt lat="43.5611" lon="5.67119">
        <ele>561.98</ele>
        <time>2022-01-23T09:55:53Z</time>
      </trkpt>
      <trkpt lat="43.56105" lon="5.67143">
        <ele>560.72</ele>
        <time>2022-01-23T09:55:57Z</time>
      </trkpt>
      <trkpt lat="43.56099" lon="5.67169">
        <ele>558.85</ele>
        <time>2022-01-23T09:56:01Z</time>
      </trkpt>
      <trkpt lat="43.56091" lon="5.67194">
        <ele>556.74</ele>
        <time>2022-01-23T09:56:05Z</time>
      </trkpt>
      <trkpt lat="43.56074" lon="5.67212">
        <ele>552.85</ele>
        <time>2022-01-23T09:56:10Z</time>
      </trkpt>
      <trkpt lat="43.56059" lon="5.67228">
        <ele>549.85</ele>
        <time>2022-01-23T09:56:14Z</time>
      </trkpt>
      <trkpt lat="43.56041" lon="5.67243">
        <ele>545.52</ele>
        <time>2022-01-23T09:56:18Z</time>
      </trkpt>
      <trkpt lat="43.56023" lon="5.67254">
        <ele>541.55</ele>
        <time>2022-01-23T09:56:22Z</time>
      </trkpt>
      <trkpt lat="43.56006" lon="5.67268">
        <ele>536.86</ele>
        <time>2022-01-23T09:56:28Z</time>
      </trkpt>
      <trkpt lat="43.5599" lon="5.67286">
        <ele>533.8</ele>
        <time>2022-01-23T09:56:32Z</time>
      </trkpt>
      <trkpt lat="43.55975" lon="5.67302">
        <ele>532.52</ele>
        <time>2022-01-23T09:56:35Z</time>
      </trkpt>
      <trkpt lat="43.55959" lon="5.67315">
        <ele>531.56</ele>
        <time>2022-01-23T09:56:38Z</time>
      </trkpt>
      <trkpt lat="43.5594" lon="5.67334">
        <ele>530.75</ele>
        <time>2022-01-23T09:56:42Z</time>
      </trkpt>
      <trkpt lat="43.55923" lon="5.67352">
        <ele>530.93</ele>
        <time>2022-01-23T09:56:46Z</time>
      </trkpt>
      <trkpt lat="43.55903" lon="5.67363">
        <ele>533.22</ele>
        <time>2022-01-23T09:56:51Z</time>
      </trkpt>
      <trkpt lat="43.5589" lon="5.67383">
        <ele>536.1</ele>
        <time>2022-01-23T09:56:56Z</time>
      </trkpt>
      <trkpt lat="43.55886" lon="5.67409">
        <ele>539.21</ele>
        <time>2022-01-23T09:57:01Z</time>
      </trkpt>
      <trkpt lat="43.55879" lon="5.67433">
        <ele>540.25</ele>
        <time>2022-01-23T09:57:07Z</time>
      </trkpt>
      <trkpt lat="43.55863" lon="5.67445">
        <ele>542.94</ele>
        <time>2022-01-23T09:57:16Z</time>
      </trkpt>
      <trkpt lat="43.55846" lon="5.67456">
        <ele>543.54</ele>
        <time>2022-01-23T09:57:29Z</time>
      </trkpt>
      <trkpt lat="43.55827" lon="5.67467">
        <ele>543.17</ele>
        <time>2022-01-23T09:57:38Z</time>
      </trkpt>
      <trkpt lat="43.55808" lon="5.67477">
        <ele>543.03</ele>
        <time>2022-01-23T09:57:45Z</time>
      </trkpt>
      <trkpt lat="43.55791" lon="5.67486">
        <ele>543.6</ele>
        <time>2022-01-23T09:57:51Z</time>
      </trkpt>
      <trkpt lat="43.55773" lon="5.67495">
        <ele>543.35</ele>
        <time>2022-01-23T09:57:57Z</time>
      </trkpt>
      <trkpt lat="43.55753" lon="5.67505">
        <ele>542.85</ele>
        <time>2022-01-23T09:58:03Z</time>
      </trkpt>
      <trkpt lat="43.55736" lon="5.67516">
        <ele>542.27</ele>
        <time>2022-01-23T09:58:08Z</time>
      </trkpt>
      <trkpt lat="43.55719" lon="5.67529">
        <ele>541.79</ele>
        <time>2022-01-23T09:58:13Z</time>
      </trkpt>
      <trkpt lat="43.55701" lon="5.67542">
        <ele>541.73</ele>
        <time>2022-01-23T09:58:18Z</time>
      </trkpt>
      <trkpt lat="43.5568" lon="5.67553">
        <ele>541.09</ele>
        <time>2022-01-23T09:58:23Z</time>
      </trkpt>
      <trkpt lat="43.55657" lon="5.6756">
        <ele>540.67</ele>
        <time>2022-01-23T09:58:27Z</time>
      </trkpt>
      <trkpt lat="43.55634" lon="5.67568">
        <ele>540.38</ele>
        <time>2022-01-23T09:58:31Z</time>
      </trkpt>
      <trkpt lat="43.55617" lon="5.67577">
        <ele>540.15</ele>
        <time>2022-01-23T09:58:34Z</time>
      </trkpt>
      <trkpt lat="43.55597" lon="5.6759">
        <ele>539.59</ele>
        <time>2022-01-23T09:58:38Z</time>
      </trkpt>
      <trkpt lat="43.5558" lon="5.67602">
        <ele>539.08</ele>
        <time>2022-01-23T09:58:42Z</time>
      </trkpt>
      <trkpt lat="43.55562" lon="5.67615">
        <ele>538.77</ele>
        <time>2022-01-23T09:58:46Z</time>
      </trkpt>
      <trkpt lat="43.55546" lon="5.67627">
        <ele>538.27</ele>
        <time>2022-01-23T09:58:50Z</time>
      </trkpt>
      <trkpt lat="43.55529" lon="5.67639">
        <ele>538.26</ele>
        <time>2022-01-23T09:58:54Z</time>
      </trkpt>
      <trkpt lat="43.55511" lon="5.67649">
        <ele>537.91</ele>
        <time>2022-01-23T09:58:58Z</time>
      </trkpt>
      <trkpt lat="43.55493" lon="5.67659">
        <ele>537.3</ele>
        <time>2022-01-23T09:59:02Z</time>
      </trkpt>
      <trkpt lat="43.55472" lon="5.67669">
        <ele>536.66</ele>
        <time>2022-01-23T09:59:06Z</time>
      </trkpt>
      <trkpt lat="43.55454" lon="5.67675">
        <ele>535.98</ele>
        <time>2022-01-23T09:59:09Z</time>
      </trkpt>
      <trkpt lat="43.55438" lon="5.67689">
        <ele>536.12</ele>
        <time>2022-01-23T09:59:12Z</time>
      </trkpt>
      <trkpt lat="43.55419" lon="5.67706">
        <ele>537.36</ele>
        <time>2022-01-23T09:59:16Z</time>
      </trkpt>
      <trkpt lat="43.55398" lon="5.67706">
        <ele>538.42</ele>
        <time>2022-01-23T09:59:20Z</time>
      </trkpt>
      <trkpt lat="43.55379" lon="5.67701">
        <ele>539.49</ele>
        <time>2022-01-23T09:59:24Z</time>
      </trkpt>
      <trkpt lat="43.55361" lon="5.67698">
        <ele>540.65</ele>
        <time>2022-01-23T09:59:28Z</time>
      </trkpt>
      <trkpt lat="43.5534" lon="5.67697">
        <ele>542.49</ele>
        <time>2022-01-23T09:59:33Z</time>
      </trkpt>
      <trkpt lat="43.55319" lon="5.67702">
        <ele>543.17</ele>
        <time>2022-01-23T09:59:38Z</time>
      </trkpt>
      <trkpt lat="43.55298" lon="5.67701">
        <ele>544.27</ele>
        <time>2022-01-23T09:59:43Z</time>
      </trkpt>
      <trkpt lat="43.5528" lon="5.67695">
        <ele>544.9</ele>
        <time>2022-01-23T09:59:48Z</time>
      </trkpt>
      <trkpt lat="43.55262" lon="5.67687">
        <ele>545.06</ele>
        <time>2022-01-23T09:59:55Z</time>
      </trkpt>
      <trkpt lat="43.55251" lon="5.67667">
        <ele>548.5</ele>
        <time>2022-01-23T10:03:31Z</time>
      </trkpt>
      <trkpt lat="43.55241" lon="5.67646">
        <ele>549.31</ele>
        <time>2022-01-23T10:03:39Z</time>
      </trkpt>
      <trkpt lat="43.5523" lon="5.6762">
        <ele>547.38</ele>
        <time>2022-01-23T10:03:45Z</time>
      </trkpt>
      <trkpt lat="43.55215" lon="5.67601">
        <ele>545.27</ele>
        <time>2022-01-23T10:03:49Z</time>
      </trkpt>
      <trkpt lat="43.552" lon="5.6758">
        <ele>543.83</ele>
        <time>2022-01-23T10:03:53Z</time>
      </trkpt>
      <trkpt lat="43.5519" lon="5.67555">
        <ele>542.04</ele>
        <time>2022-01-23T10:03:56Z</time>
      </trkpt>
      <trkpt lat="43.55174" lon="5.67527">
        <ele>539.78</ele>
        <time>2022-01-23T10:03:59Z</time>
      </trkpt>
      <trkpt lat="43.55153" lon="5.67503">
        <ele>538.09</ele>
        <time>2022-01-23T10:04:02Z</time>
      </trkpt>
      <trkpt lat="43.55139" lon="5.67488">
        <ele>536.74</ele>
        <time>2022-01-23T10:04:04Z</time>
      </trkpt>
      <trkpt lat="43.55127" lon="5.67469">
        <ele>535.4</ele>
        <time>2022-01-23T10:04:06Z</time>
      </trkpt>
      <trkpt lat="43.55112" lon="5.67444">
        <ele>532.38</ele>
        <time>2022-01-23T10:04:09Z</time>
      </trkpt>
      <trkpt lat="43.551" lon="5.67423">
        <ele>529.97</ele>
        <time>2022-01-23T10:04:14Z</time>
      </trkpt>
      <trkpt lat="43.55099" lon="5.67397">
        <ele>528.32</ele>
        <time>2022-01-23T10:04:20Z</time>
      </trkpt>
      <trkpt lat="43.55098" lon="5.67368">
        <ele>528.79</ele>
        <time>2022-01-23T10:04:26Z</time>
      </trkpt>
      <trkpt lat="43.55094" lon="5.67341">
        <ele>531.15</ele>
        <time>2022-01-23T10:04:32Z</time>
      </trkpt>
      <trkpt lat="43.55085" lon="5.67316">
        <ele>533.55</ele>
        <time>2022-01-23T10:04:39Z</time>
      </trkpt>
      <trkpt lat="43.55073" lon="5.67293">
        <ele>536.26</ele>
        <time>2022-01-23T10:04:46Z</time>
      </trkpt>
      <trkpt lat="43.5506" lon="5.67273">
        <ele>537.58</ele>
        <time>2022-01-23T10:04:53Z</time>
      </trkpt>
      <trkpt lat="43.55042" lon="5.67265">
        <ele>543.14</ele>
        <time>2022-01-23T10:05:07Z</time>
      </trkpt>
      <trkpt lat="43.55025" lon="5.6726">
        <ele>547.07</ele>
        <time>2022-01-23T10:05:17Z</time>
      </trkpt>
      <trkpt lat="43.55005" lon="5.67254">
        <ele>549.51</ele>
        <time>2022-01-23T10:05:24Z</time>
      </trkpt>
      <trkpt lat="43.54987" lon="5.67252">
        <ele>552.49</ele>
        <time>2022-01-23T10:05:31Z</time>
      </trkpt>
      <trkpt lat="43.5497" lon="5.67239">
        <ele>555.25</ele>
        <time>2022-01-23T10:05:40Z</time>
      </trkpt>
      <trkpt lat="43.54952" lon="5.67243">
        <ele>556.41</ele>
        <time>2022-01-23T10:05:49Z</time>
      </trkpt>
      <trkpt lat="43.54936" lon="5.67255">
        <ele>555.12</ele>
        <time>2022-01-23T10:06:01Z</time>
      </trkpt>
      <trkpt lat="43.54916" lon="5.67252">
        <ele>555.27</ele>
        <time>2022-01-23T10:06:10Z</time>
      </trkpt>
      <trkpt lat="43.54897" lon="5.67247">
        <ele>557.17</ele>
        <time>2022-01-23T10:06:19Z</time>
      </trkpt>
      <trkpt lat="43.54877" lon="5.67248">
        <ele>557.92</ele>
        <time>2022-01-23T10:06:30Z</time>
      </trkpt>
      <trkpt lat="43.54859" lon="5.67242">
        <ele>559.21</ele>
        <time>2022-01-23T10:06:41Z</time>
      </trkpt>
      <trkpt lat="43.5484" lon="5.67243">
        <ele>559.6</ele>
        <time>2022-01-23T10:06:52Z</time>
      </trkpt>
      <trkpt lat="43.54821" lon="5.67244">
        <ele>561.51</ele>
        <time>2022-01-23T10:07:01Z</time>
      </trkpt>
      <trkpt lat="43.54802" lon="5.67244">
        <ele>563.26</ele>
        <time>2022-01-23T10:07:11Z</time>
      </trkpt>
      <trkpt lat="43.54784" lon="5.67241">
        <ele>563.65</ele>
        <time>2022-01-23T10:07:22Z</time>
      </trkpt>
      <trkpt lat="43.54766" lon="5.67237">
        <ele>565.09</ele>
        <time>2022-01-23T10:07:31Z</time>
      </trkpt>
      <trkpt lat="43.54748" lon="5.6723">
        <ele>566.82</ele>
        <time>2022-01-23T10:07:41Z</time>
      </trkpt>
      <trkpt lat="43.54729" lon="5.67228">
        <ele>568.99</ele>
        <time>2022-01-23T10:07:51Z</time>
      </trkpt>
      <trkpt lat="43.54712" lon="5.6722">
        <ele>571.68</ele>
        <time>2022-01-23T10:08:02Z</time>
      </trkpt>
      <trkpt lat="43.54698" lon="5.67202">
        <ele>574.38</ele>
        <time>2022-01-23T10:08:14Z</time>
      </trkpt>
      <trkpt lat="43.54695" lon="5.67177">
        <ele>577.2</ele>
        <time>2022-01-23T10:08:29Z</time>
      </trkpt>
      <trkpt lat="43.54682" lon="5.67156">
        <ele>583.26</ele>
        <time>2022-01-23T10:08:46Z</time>
      </trkpt>
      <trkpt lat="43.54666" lon="5.67143">
        <ele>586.07</ele>
        <time>2022-01-23T10:08:56Z</time>
      </trkpt>
      <trkpt lat="43.5465" lon="5.67132">
        <ele>587.55</ele>
        <time>2022-01-23T10:09:05Z</time>
      </trkpt>
      <trkpt lat="43.54641" lon="5.67109">
        <ele>593.12</ele>
        <time>2022-01-23T10:09:19Z</time>
      </trkpt>
      <trkpt lat="43.54624" lon="5.67096">
        <ele>596.37</ele>
        <time>2022-01-23T10:09:26Z</time>
      </trkpt>
      <trkpt lat="43.54607" lon="5.67087">
        <ele>598.17</ele>
        <time>2022-01-23T10:09:33Z</time>
      </trkpt>
      <trkpt lat="43.54592" lon="5.67071">
        <ele>600.58</ele>
        <time>2022-01-23T10:09:45Z</time>
      </trkpt>
      <trkpt lat="43.5458" lon="5.67051">
        <ele>603.85</ele>
        <time>2022-01-23T10:09:56Z</time>
      </trkpt>
      <trkpt lat="43.54568" lon="5.67031">
        <ele>608.65</ele>
        <time>2022-01-23T10:10:08Z</time>
      </trkpt>
      <trkpt lat="43.54549" lon="5.6702">
        <ele>610.75</ele>
        <time>2022-01-23T10:10:15Z</time>
      </trkpt>
      <trkpt lat="43.54528" lon="5.67017">
        <ele>611.3</ele>
        <time>2022-01-23T10:10:22Z</time>
      </trkpt>
      <trkpt lat="43.54509" lon="5.67021">
        <ele>611.32</ele>
        <time>2022-01-23T10:10:28Z</time>
      </trkpt>
      <trkpt lat="43.54514" lon="5.67046">
        <ele>613.01</ele>
        <time>2022-01-23T10:10:44Z</time>
      </trkpt>
      <trkpt lat="43.54509" lon="5.67072">
        <ele>604.75</ele>
        <time>2022-01-23T10:10:59Z</time>
      </trkpt>
      <trkpt lat="43.54504" lon="5.67096">
        <ele>601.4</ele>
        <time>2022-01-23T10:11:10Z</time>
      </trkpt>
      <trkpt lat="43.54517" lon="5.67113">
        <ele>601.62</ele>
        <time>2022-01-23T10:11:23Z</time>
      </trkpt>
      <trkpt lat="43.54533" lon="5.67129">
        <ele>602.35</ele>
        <time>2022-01-23T10:11:34Z</time>
      </trkpt>
      <trkpt lat="43.54546" lon="5.67147">
        <ele>601.64</ele>
        <time>2022-01-23T10:11:46Z</time>
      </trkpt>
      <trkpt lat="43.54553" lon="5.6717">
        <ele>601.96</ele>
        <time>2022-01-23T10:11:58Z</time>
      </trkpt>
      <trkpt lat="43.54558" lon="5.67194">
        <ele>601.74</ele>
        <time>2022-01-23T10:12:08Z</time>
      </trkpt>
      <trkpt lat="43.54557" lon="5.67219">
        <ele>601.95</ele>
        <time>2022-01-23T10:12:18Z</time>
      </trkpt>
      <trkpt lat="43.54545" lon="5.67238">
        <ele>602.67</ele>
        <time>2022-01-23T10:12:29Z</time>
      </trkpt>
      <trkpt lat="43.54527" lon="5.67243">
        <ele>602.82</ele>
        <time>2022-01-23T10:12:43Z</time>
      </trkpt>
      <trkpt lat="43.54508" lon="5.67241">
        <ele>604.02</ele>
        <time>2022-01-23T10:12:56Z</time>
      </trkpt>
      <trkpt lat="43.54489" lon="5.67243">
        <ele>605.6</ele>
        <time>2022-01-23T10:13:05Z</time>
      </trkpt>
      <trkpt lat="43.5447" lon="5.67242">
        <ele>607.4</ele>
        <time>2022-01-23T10:13:14Z</time>
      </trkpt>
      <trkpt lat="43.54451" lon="5.67243">
        <ele>609.49</ele>
        <time>2022-01-23T10:13:22Z</time>
      </trkpt>
      <trkpt lat="43.54432" lon="5.67248">
        <ele>611.8</ele>
        <time>2022-01-23T10:13:31Z</time>
      </trkpt>
      <trkpt lat="43.54413" lon="5.67251">
        <ele>612.76</ele>
        <time>2022-01-23T10:13:44Z</time>
      </trkpt>
      <trkpt lat="43.54415" lon="5.67276">
        <ele>617.07</ele>
        <time>2022-01-23T10:14:02Z</time>
      </trkpt>
      <trkpt lat="43.5443" lon="5.67294">
        <ele>618.44</ele>
        <time>2022-01-23T10:14:13Z</time>
      </trkpt>
      <trkpt lat="43.54441" lon="5.67313">
        <ele>619.84</ele>
        <time>2022-01-23T10:14:23Z</time>
      </trkpt>
      <trkpt lat="43.5445" lon="5.67336">
        <ele>621.59</ele>
        <time>2022-01-23T10:14:35Z</time>
      </trkpt>
      <trkpt lat="43.54457" lon="5.67359">
        <ele>626.15</ele>
        <time>2022-01-23T10:14:48Z</time>
      </trkpt>
      <trkpt lat="43.54468" lon="5.6738">
        <ele>629.32</ele>
        <time>2022-01-23T10:15:02Z</time>
      </trkpt>
      <trkpt lat="43.54473" lon="5.67405">
        <ele>629.99</ele>
        <time>2022-01-23T10:15:14Z</time>
      </trkpt>
      <trkpt lat="43.54458" lon="5.67422">
        <ele>627.6</ele>
        <time>2022-01-23T10:15:24Z</time>
      </trkpt>
      <trkpt lat="43.54441" lon="5.6743">
        <ele>626.75</ele>
        <time>2022-01-23T10:15:34Z</time>
      </trkpt>
      <trkpt lat="43.54422" lon="5.67432">
        <ele>626.52</ele>
        <time>2022-01-23T10:15:44Z</time>
      </trkpt>
      <trkpt lat="43.54403" lon="5.67437">
        <ele>628.38</ele>
        <time>2022-01-23T10:15:54Z</time>
      </trkpt>
      <trkpt lat="43.54386" lon="5.67446">
        <ele>628.95</ele>
        <time>2022-01-23T10:16:04Z</time>
      </trkpt>
      <trkpt lat="43.54369" lon="5.67454">
        <ele>629.32</ele>
        <time>2022-01-23T10:16:13Z</time>
      </trkpt>
      <trkpt lat="43.54365" lon="5.67479">
        <ele>631.6</ele>
        <time>2022-01-23T10:16:27Z</time>
      </trkpt>
      <trkpt lat="43.54379" lon="5.67495">
        <ele>638.01</ele>
        <time>2022-01-23T10:16:46Z</time>
      </trkpt>
      <trkpt lat="43.54396" lon="5.67508">
        <ele>640.53</ele>
        <time>2022-01-23T10:17:00Z</time>
      </trkpt>
      <trkpt lat="43.54411" lon="5.67526">
        <ele>639.56</ele>
        <time>2022-01-23T10:17:09Z</time>
      </trkpt>
      <trkpt lat="43.54404" lon="5.6755">
        <ele>637.67</ele>
        <time>2022-01-23T10:17:20Z</time>
      </trkpt>
      <trkpt lat="43.5439" lon="5.67568">
        <ele>636.85</ele>
        <time>2022-01-23T10:17:29Z</time>
      </trkpt>
      <trkpt lat="43.54374" lon="5.67583">
        <ele>637.5</ele>
        <time>2022-01-23T10:17:37Z</time>
      </trkpt>
      <trkpt lat="43.54359" lon="5.67597">
        <ele>638.04</ele>
        <time>2022-01-23T10:17:46Z</time>
      </trkpt>
      <trkpt lat="43.54349" lon="5.67619">
        <ele>641.48</ele>
        <time>2022-01-23T10:17:59Z</time>
      </trkpt>
      <trkpt lat="43.54343" lon="5.67644">
        <ele>645.52</ele>
        <time>2022-01-23T10:18:12Z</time>
      </trkpt>
      <trkpt lat="43.54326" lon="5.67657">
        <ele>646.01</ele>
        <time>2022-01-23T10:18:22Z</time>
      </trkpt>
      <trkpt lat="43.54307" lon="5.67661">
        <ele>646.25</ele>
        <time>2022-01-23T10:18:33Z</time>
      </trkpt>
      <trkpt lat="43.54289" lon="5.6767">
        <ele>646.05</ele>
        <time>2022-01-23T10:18:45Z</time>
      </trkpt>
      <trkpt lat="43.54281" lon="5.67695">
        <ele>647.02</ele>
        <time>2022-01-23T10:18:54Z</time>
      </trkpt>
      <trkpt lat="43.54277" lon="5.6772">
        <ele>648.3</ele>
        <time>2022-01-23T10:19:02Z</time>
      </trkpt>
      <trkpt lat="43.54275" lon="5.67745">
        <ele>648.62</ele>
        <time>2022-01-23T10:19:08Z</time>
      </trkpt>
      <trkpt lat="43.54275" lon="5.67772">
        <ele>648.45</ele>
        <time>2022-01-23T10:19:12Z</time>
      </trkpt>
      <trkpt lat="43.54276" lon="5.678">
        <ele>648.37</ele>
        <time>2022-01-23T10:19:17Z</time>
      </trkpt>
      <trkpt lat="43.54279" lon="5.67827">
        <ele>646.74</ele>
        <time>2022-01-23T10:19:23Z</time>
      </trkpt>
      <trkpt lat="43.54283" lon="5.67851">
        <ele>646.19</ele>
        <time>2022-01-23T10:19:28Z</time>
      </trkpt>
      <trkpt lat="43.54289" lon="5.67876">
        <ele>646.42</ele>
        <time>2022-01-23T10:19:35Z</time>
      </trkpt>
      <trkpt lat="43.54295" lon="5.679">
        <ele>646.47</ele>
        <time>2022-01-23T10:19:44Z</time>
      </trkpt>
      <trkpt lat="43.54298" lon="5.67925">
        <ele>644.85</ele>
        <time>2022-01-23T10:25:05Z</time>
      </trkpt>
      <trkpt lat="43.54291" lon="5.67951">
        <ele>646.02</ele>
        <time>2022-01-23T10:25:15Z</time>
      </trkpt>
      <trkpt lat="43.54284" lon="5.67976">
        <ele>646.83</ele>
        <time>2022-01-23T10:25:23Z</time>
      </trkpt>
      <trkpt lat="43.54286" lon="5.68004">
        <ele>644.28</ele>
        <time>2022-01-23T10:25:29Z</time>
      </trkpt>
      <trkpt lat="43.54298" lon="5.68026">
        <ele>643.08</ele>
        <time>2022-01-23T10:25:34Z</time>
      </trkpt>
      <trkpt lat="43.54313" lon="5.68047">
        <ele>641.86</ele>
        <time>2022-01-23T10:25:39Z</time>
      </trkpt>
      <trkpt lat="43.5432" lon="5.68073">
        <ele>641.13</ele>
        <time>2022-01-23T10:25:43Z</time>
      </trkpt>
      <trkpt lat="43.54308" lon="5.68093">
        <ele>640.78</ele>
        <time>2022-01-23T10:25:49Z</time>
      </trkpt>
      <trkpt lat="43.54292" lon="5.68104">
        <ele>639.72</ele>
        <time>2022-01-23T10:25:53Z</time>
      </trkpt>
      <trkpt lat="43.54277" lon="5.68124">
        <ele>638.86</ele>
        <time>2022-01-23T10:25:57Z</time>
      </trkpt>
      <trkpt lat="43.54266" lon="5.6815">
        <ele>638</ele>
        <time>2022-01-23T10:26:01Z</time>
      </trkpt>
      <trkpt lat="43.5426" lon="5.68178">
        <ele>635.79</ele>
        <time>2022-01-23T10:26:06Z</time>
      </trkpt>
      <trkpt lat="43.54256" lon="5.68205">
        <ele>631.11</ele>
        <time>2022-01-23T10:26:12Z</time>
      </trkpt>
      <trkpt lat="43.54251" lon="5.68229">
        <ele>627.03</ele>
        <time>2022-01-23T10:26:19Z</time>
      </trkpt>
      <trkpt lat="43.54248" lon="5.68254">
        <ele>625.09</ele>
        <time>2022-01-23T10:26:26Z</time>
      </trkpt>
      <trkpt lat="43.54258" lon="5.68276">
        <ele>625.14</ele>
        <time>2022-01-23T10:26:31Z</time>
      </trkpt>
      <trkpt lat="43.54266" lon="5.68299">
        <ele>623.16</ele>
        <time>2022-01-23T10:26:35Z</time>
      </trkpt>
      <trkpt lat="43.54278" lon="5.68323">
        <ele>621.76</ele>
        <time>2022-01-23T10:26:39Z</time>
      </trkpt>
      <trkpt lat="43.54285" lon="5.68347">
        <ele>620.15</ele>
        <time>2022-01-23T10:26:42Z</time>
      </trkpt>
      <trkpt lat="43.54294" lon="5.68372">
        <ele>618.37</ele>
        <time>2022-01-23T10:26:45Z</time>
      </trkpt>
      <trkpt lat="43.54302" lon="5.68397">
        <ele>616.4</ele>
        <time>2022-01-23T10:26:48Z</time>
      </trkpt>
      <trkpt lat="43.54313" lon="5.68419">
        <ele>615.29</ele>
        <time>2022-01-23T10:26:51Z</time>
      </trkpt>
      <trkpt lat="43.54321" lon="5.68444">
        <ele>614.73</ele>
        <time>2022-01-23T10:26:54Z</time>
      </trkpt>
      <trkpt lat="43.5433" lon="5.68469">
        <ele>613.58</ele>
        <time>2022-01-23T10:26:57Z</time>
      </trkpt>
      <trkpt lat="43.5434" lon="5.68492">
        <ele>612.42</ele>
        <time>2022-01-23T10:27:00Z</time>
      </trkpt>
      <trkpt lat="43.54351" lon="5.68515">
        <ele>611.04</ele>
        <time>2022-01-23T10:27:03Z</time>
      </trkpt>
      <trkpt lat="43.5436" lon="5.6854">
        <ele>609.77</ele>
        <time>2022-01-23T10:27:06Z</time>
      </trkpt>
      <trkpt lat="43.54371" lon="5.68565">
        <ele>608.78</ele>
        <time>2022-01-23T10:27:09Z</time>
      </trkpt>
      <trkpt lat="43.54386" lon="5.68585">
        <ele>608.39</ele>
        <time>2022-01-23T10:27:12Z</time>
      </trkpt>
      <trkpt lat="43.54401" lon="5.68604">
        <ele>608.27</ele>
        <time>2022-01-23T10:27:15Z</time>
      </trkpt>
      <trkpt lat="43.54416" lon="5.68619">
        <ele>608.62</ele>
        <time>2022-01-23T10:27:18Z</time>
      </trkpt>
      <trkpt lat="43.54433" lon="5.68632">
        <ele>609.06</ele>
        <time>2022-01-23T10:27:22Z</time>
      </trkpt>
      <trkpt lat="43.5445" lon="5.6865">
        <ele>609.15</ele>
        <time>2022-01-23T10:27:28Z</time>
      </trkpt>
      <trkpt lat="43.54463" lon="5.6867">
        <ele>608.77</ele>
        <time>2022-01-23T10:27:34Z</time>
      </trkpt>
      <trkpt lat="43.54473" lon="5.68694">
        <ele>608.19</ele>
        <time>2022-01-23T10:27:39Z</time>
      </trkpt>
      <trkpt lat="43.54481" lon="5.68719">
        <ele>607.39</ele>
        <time>2022-01-23T10:27:43Z</time>
      </trkpt>
      <trkpt lat="43.5449" lon="5.68746">
        <ele>606.5</ele>
        <time>2022-01-23T10:27:47Z</time>
      </trkpt>
      <trkpt lat="43.54497" lon="5.6877">
        <ele>604.58</ele>
        <time>2022-01-23T10:27:50Z</time>
      </trkpt>
      <trkpt lat="43.54508" lon="5.68793">
        <ele>602.17</ele>
        <time>2022-01-23T10:27:53Z</time>
      </trkpt>
      <trkpt lat="43.54515" lon="5.6882">
        <ele>600.39</ele>
        <time>2022-01-23T10:27:56Z</time>
      </trkpt>
      <trkpt lat="43.54518" lon="5.68849">
        <ele>598.5</ele>
        <time>2022-01-23T10:27:59Z</time>
      </trkpt>
      <trkpt lat="43.54522" lon="5.68879">
        <ele>597.15</ele>
        <time>2022-01-23T10:28:02Z</time>
      </trkpt>
      <trkpt lat="43.54531" lon="5.68906">
        <ele>595.67</ele>
        <time>2022-01-23T10:28:05Z</time>
      </trkpt>
      <trkpt lat="43.54543" lon="5.6893">
        <ele>595.07</ele>
        <time>2022-01-23T10:28:08Z</time>
      </trkpt>
      <trkpt lat="43.54562" lon="5.68939">
        <ele>595.57</ele>
        <time>2022-01-23T10:28:12Z</time>
      </trkpt>
      <trkpt lat="43.5458" lon="5.68946">
        <ele>598.09</ele>
        <time>2022-01-23T10:28:17Z</time>
      </trkpt>
      <trkpt lat="43.54592" lon="5.68968">
        <ele>600.48</ele>
        <time>2022-01-23T10:28:25Z</time>
      </trkpt>
      <trkpt lat="43.54607" lon="5.68983">
        <ele>602.07</ele>
        <time>2022-01-23T10:28:32Z</time>
      </trkpt>
      <trkpt lat="43.54623" lon="5.68998">
        <ele>604.25</ele>
        <time>2022-01-23T10:28:39Z</time>
      </trkpt>
      <trkpt lat="43.5464" lon="5.69004">
        <ele>606.71</ele>
        <time>2022-01-23T10:28:45Z</time>
      </trkpt>
      <trkpt lat="43.5466" lon="5.69002">
        <ele>608.68</ele>
        <time>2022-01-23T10:28:52Z</time>
      </trkpt>
      <trkpt lat="43.5468" lon="5.68993">
        <ele>609.41</ele>
        <time>2022-01-23T10:28:58Z</time>
      </trkpt>
      <trkpt lat="43.54698" lon="5.69004">
        <ele>607.87</ele>
        <time>2022-01-23T10:29:02Z</time>
      </trkpt>
      <trkpt lat="43.54711" lon="5.69029">
        <ele>606.04</ele>
        <time>2022-01-23T10:29:06Z</time>
      </trkpt>
      <trkpt lat="43.54726" lon="5.69044">
        <ele>604.97</ele>
        <time>2022-01-23T10:29:09Z</time>
      </trkpt>
      <trkpt lat="43.54744" lon="5.69064">
        <ele>601.94</ele>
        <time>2022-01-23T10:29:13Z</time>
      </trkpt>
      <trkpt lat="43.54765" lon="5.69079">
        <ele>600.53</ele>
        <time>2022-01-23T10:29:17Z</time>
      </trkpt>
      <trkpt lat="43.5478" lon="5.69095">
        <ele>598.3</ele>
        <time>2022-01-23T10:29:20Z</time>
      </trkpt>
      <trkpt lat="43.548" lon="5.6909">
        <ele>597.39</ele>
        <time>2022-01-23T10:29:24Z</time>
      </trkpt>
      <trkpt lat="43.54817" lon="5.69082">
        <ele>598.05</ele>
        <time>2022-01-23T10:29:29Z</time>
      </trkpt>
      <trkpt lat="43.54824" lon="5.69105">
        <ele>598.63</ele>
        <time>2022-01-23T10:29:33Z</time>
      </trkpt>
      <trkpt lat="43.54841" lon="5.69122">
        <ele>597.84</ele>
        <time>2022-01-23T10:29:37Z</time>
      </trkpt>
      <trkpt lat="43.54854" lon="5.69142">
        <ele>596.35</ele>
        <time>2022-01-23T10:29:40Z</time>
      </trkpt>
      <trkpt lat="43.54868" lon="5.69163">
        <ele>592.28</ele>
        <time>2022-01-23T10:29:43Z</time>
      </trkpt>
      <trkpt lat="43.54888" lon="5.69176">
        <ele>588.59</ele>
        <time>2022-01-23T10:29:47Z</time>
      </trkpt>
      <trkpt lat="43.54905" lon="5.69188">
        <ele>586.28</ele>
        <time>2022-01-23T10:29:52Z</time>
      </trkpt>
      <trkpt lat="43.54922" lon="5.69201">
        <ele>582.39</ele>
        <time>2022-01-23T10:29:57Z</time>
      </trkpt>
      <trkpt lat="43.54939" lon="5.69213">
        <ele>580.13</ele>
        <time>2022-01-23T10:30:02Z</time>
      </trkpt>
      <trkpt lat="43.54954" lon="5.69229">
        <ele>578.9</ele>
        <time>2022-01-23T10:30:07Z</time>
      </trkpt>
      <trkpt lat="43.54973" lon="5.69245">
        <ele>577.61</ele>
        <time>2022-01-23T10:30:12Z</time>
      </trkpt>
      <trkpt lat="43.54991" lon="5.69254">
        <ele>576.91</ele>
        <time>2022-01-23T10:30:17Z</time>
      </trkpt>
      <trkpt lat="43.55007" lon="5.6927">
        <ele>574.31</ele>
        <time>2022-01-23T10:30:22Z</time>
      </trkpt>
      <trkpt lat="43.55021" lon="5.69285">
        <ele>569.87</ele>
        <time>2022-01-23T10:30:27Z</time>
      </trkpt>
      <trkpt lat="43.55035" lon="5.69303">
        <ele>563.74</ele>
        <time>2022-01-23T10:30:32Z</time>
      </trkpt>
      <trkpt lat="43.55047" lon="5.69327">
        <ele>558.32</ele>
        <time>2022-01-23T10:30:37Z</time>
      </trkpt>
      <trkpt lat="43.55058" lon="5.69349">
        <ele>554.35</ele>
        <time>2022-01-23T10:30:41Z</time>
      </trkpt>
      <trkpt lat="43.5507" lon="5.69371">
        <ele>550.07</ele>
        <time>2022-01-23T10:30:46Z</time>
      </trkpt>
      <trkpt lat="43.55076" lon="5.694">
        <ele>546.01</ele>
        <time>2022-01-23T10:30:51Z</time>
      </trkpt>
      <trkpt lat="43.55083" lon="5.69424">
        <ele>542.77</ele>
        <time>2022-01-23T10:30:55Z</time>
      </trkpt>
      <trkpt lat="43.55092" lon="5.6945">
        <ele>538.77</ele>
        <time>2022-01-23T10:31:00Z</time>
      </trkpt>
      <trkpt lat="43.55089" lon="5.69475">
        <ele>532.7</ele>
        <time>2022-01-23T10:31:15Z</time>
      </trkpt>
      <trkpt lat="43.55097" lon="5.69499">
        <ele>531.11</ele>
        <time>2022-01-23T10:31:22Z</time>
      </trkpt>
      <trkpt lat="43.55109" lon="5.69518">
        <ele>528.4</ele>
        <time>2022-01-23T10:31:26Z</time>
      </trkpt>
      <trkpt lat="43.55123" lon="5.69543">
        <ele>525.07</ele>
        <time>2022-01-23T10:31:31Z</time>
      </trkpt>
      <trkpt lat="43.55133" lon="5.69567">
        <ele>521.67</ele>
        <time>2022-01-23T10:31:35Z</time>
      </trkpt>
      <trkpt lat="43.55139" lon="5.69595">
        <ele>519.15</ele>
        <time>2022-01-23T10:31:40Z</time>
      </trkpt>
      <trkpt lat="43.55144" lon="5.69624">
        <ele>516.52</ele>
        <time>2022-01-23T10:31:44Z</time>
      </trkpt>
      <trkpt lat="43.55153" lon="5.69647">
        <ele>516.53</ele>
        <time>2022-01-23T10:33:07Z</time>
      </trkpt>
      <trkpt lat="43.55158" lon="5.69673">
        <ele>515.88</ele>
        <time>2022-01-23T10:33:13Z</time>
      </trkpt>
      <trkpt lat="43.55167" lon="5.69698">
        <ele>514.54</ele>
        <time>2022-01-23T10:33:17Z</time>
      </trkpt>
      <trkpt lat="43.55184" lon="5.69715">
        <ele>512.93</ele>
        <time>2022-01-23T10:33:21Z</time>
      </trkpt>
      <trkpt lat="43.55205" lon="5.6973">
        <ele>510.07</ele>
        <time>2022-01-23T10:33:25Z</time>
      </trkpt>
      <trkpt lat="43.5522" lon="5.69746">
        <ele>508.35</ele>
        <time>2022-01-23T10:33:28Z</time>
      </trkpt>
      <trkpt lat="43.55234" lon="5.69764">
        <ele>507.39</ele>
        <time>2022-01-23T10:33:31Z</time>
      </trkpt>
      <trkpt lat="43.55247" lon="5.69781">
        <ele>506.33</ele>
        <time>2022-01-23T10:33:34Z</time>
      </trkpt>
      <trkpt lat="43.55258" lon="5.69807">
        <ele>505.69</ele>
        <time>2022-01-23T10:33:38Z</time>
      </trkpt>
      <trkpt lat="43.55263" lon="5.69831">
        <ele>504.4</ele>
        <time>2022-01-23T10:33:41Z</time>
      </trkpt>
      <trkpt lat="43.55271" lon="5.69855">
        <ele>503.68</ele>
        <time>2022-01-23T10:33:44Z</time>
      </trkpt>
      <trkpt lat="43.55279" lon="5.69879">
        <ele>502.98</ele>
        <time>2022-01-23T10:33:47Z</time>
      </trkpt>
      <trkpt lat="43.55286" lon="5.69906">
        <ele>503.04</ele>
        <time>2022-01-23T10:33:50Z</time>
      </trkpt>
      <trkpt lat="43.55293" lon="5.69931">
        <ele>502.77</ele>
        <time>2022-01-23T10:33:53Z</time>
      </trkpt>
      <trkpt lat="43.55302" lon="5.6996">
        <ele>502.12</ele>
        <time>2022-01-23T10:33:57Z</time>
      </trkpt>
      <trkpt lat="43.55317" lon="5.69976">
        <ele>503.09</ele>
        <time>2022-01-23T10:34:01Z</time>
      </trkpt>
      <trkpt lat="43.55329" lon="5.70001">
        <ele>502.86</ele>
        <time>2022-01-23T10:34:05Z</time>
      </trkpt>
      <trkpt lat="43.55348" lon="5.70019">
        <ele>502.05</ele>
        <time>2022-01-23T10:34:09Z</time>
      </trkpt>
      <trkpt lat="43.55362" lon="5.70042">
        <ele>502.75</ele>
        <time>2022-01-23T10:34:13Z</time>
      </trkpt>
      <trkpt lat="43.55371" lon="5.70072">
        <ele>503.53</ele>
        <time>2022-01-23T10:34:17Z</time>
      </trkpt>
      <trkpt lat="43.55378" lon="5.70096">
        <ele>503.46</ele>
        <time>2022-01-23T10:34:20Z</time>
      </trkpt>
      <trkpt lat="43.55386" lon="5.7012">
        <ele>503.38</ele>
        <time>2022-01-23T10:34:23Z</time>
      </trkpt>
      <trkpt lat="43.55391" lon="5.70145">
        <ele>503.07</ele>
        <time>2022-01-23T10:34:26Z</time>
      </trkpt>
      <trkpt lat="43.554" lon="5.70167">
        <ele>502.72</ele>
        <time>2022-01-23T10:34:30Z</time>
      </trkpt>
      <trkpt lat="43.55416" lon="5.70182">
        <ele>502.23</ele>
        <time>2022-01-23T10:34:37Z</time>
      </trkpt>
      <trkpt lat="43.55432" lon="5.70195">
        <ele>499.56</ele>
        <time>2022-01-23T10:34:45Z</time>
      </trkpt>
      <trkpt lat="43.55445" lon="5.70214">
        <ele>496.1</ele>
        <time>2022-01-23T10:34:50Z</time>
      </trkpt>
      <trkpt lat="43.55456" lon="5.70235">
        <ele>493.85</ele>
        <time>2022-01-23T10:34:54Z</time>
      </trkpt>
      <trkpt lat="43.55473" lon="5.70248">
        <ele>491.33</ele>
        <time>2022-01-23T10:35:00Z</time>
      </trkpt>
      <trkpt lat="43.55491" lon="5.70255">
        <ele>490.03</ele>
        <time>2022-01-23T10:35:06Z</time>
      </trkpt>
      <trkpt lat="43.55505" lon="5.70271">
        <ele>489.55</ele>
        <time>2022-01-23T10:35:12Z</time>
      </trkpt>
      <trkpt lat="43.5552" lon="5.70286">
        <ele>487.3</ele>
        <time>2022-01-23T10:35:17Z</time>
      </trkpt>
      <trkpt lat="43.55537" lon="5.70304">
        <ele>483.23</ele>
        <time>2022-01-23T10:35:23Z</time>
      </trkpt>
      <trkpt lat="43.55548" lon="5.70326">
        <ele>480.55</ele>
        <time>2022-01-23T10:35:27Z</time>
      </trkpt>
      <trkpt lat="43.55557" lon="5.70355">
        <ele>476.99</ele>
        <time>2022-01-23T10:35:31Z</time>
      </trkpt>
      <trkpt lat="43.55563" lon="5.70385">
        <ele>473.49</ele>
        <time>2022-01-23T10:35:35Z</time>
      </trkpt>
      <trkpt lat="43.55564" lon="5.70414">
        <ele>470.93</ele>
        <time>2022-01-23T10:35:39Z</time>
      </trkpt>
      <trkpt lat="43.55557" lon="5.70441">
        <ele>468.76</ele>
        <time>2022-01-23T10:35:43Z</time>
      </trkpt>
      <trkpt lat="43.55554" lon="5.70468">
        <ele>466.97</ele>
        <time>2022-01-23T10:35:47Z</time>
      </trkpt>
      <trkpt lat="43.55568" lon="5.70491">
        <ele>464.81</ele>
        <time>2022-01-23T10:35:51Z</time>
      </trkpt>
      <trkpt lat="43.55576" lon="5.70516">
        <ele>463.24</ele>
        <time>2022-01-23T10:35:55Z</time>
      </trkpt>
      <trkpt lat="43.55583" lon="5.70544">
        <ele>460.22</ele>
        <time>2022-01-23T10:36:00Z</time>
      </trkpt>
      <trkpt lat="43.55586" lon="5.7057">
        <ele>460.05</ele>
        <time>2022-01-23T10:36:09Z</time>
      </trkpt>
      <trkpt lat="43.55575" lon="5.7059">
        <ele>461.08</ele>
        <time>2022-01-23T10:36:18Z</time>
      </trkpt>
      <trkpt lat="43.55558" lon="5.70601">
        <ele>462.81</ele>
        <time>2022-01-23T10:36:28Z</time>
      </trkpt>
      <trkpt lat="43.55539" lon="5.70609">
        <ele>465.64</ele>
        <time>2022-01-23T10:36:37Z</time>
      </trkpt>
      <trkpt lat="43.55521" lon="5.70618">
        <ele>468.03</ele>
        <time>2022-01-23T10:36:43Z</time>
      </trkpt>
      <trkpt lat="43.55501" lon="5.70623">
        <ele>469.24</ele>
        <time>2022-01-23T10:36:47Z</time>
      </trkpt>
      <trkpt lat="43.55482" lon="5.70631">
        <ele>471.83</ele>
        <time>2022-01-23T10:36:52Z</time>
      </trkpt>
      <trkpt lat="43.55465" lon="5.70641">
        <ele>473.86</ele>
        <time>2022-01-23T10:36:58Z</time>
      </trkpt>
      <trkpt lat="43.55446" lon="5.7065">
        <ele>474.95</ele>
        <time>2022-01-23T10:37:03Z</time>
      </trkpt>
      <trkpt lat="43.55428" lon="5.70659">
        <ele>475.72</ele>
        <time>2022-01-23T10:37:08Z</time>
      </trkpt>
      <trkpt lat="43.55409" lon="5.70666">
        <ele>475.8</ele>
        <time>2022-01-23T10:37:13Z</time>
      </trkpt>
      <trkpt lat="43.55385" lon="5.70669">
        <ele>473.46</ele>
        <time>2022-01-23T10:37:17Z</time>
      </trkpt>
      <trkpt lat="43.55366" lon="5.70671">
        <ele>471.26</ele>
        <time>2022-01-23T10:37:20Z</time>
      </trkpt>
      <trkpt lat="43.55348" lon="5.70671">
        <ele>468.73</ele>
        <time>2022-01-23T10:37:22Z</time>
      </trkpt>
      <trkpt lat="43.5533" lon="5.70671">
        <ele>466.48</ele>
        <time>2022-01-23T10:37:25Z</time>
      </trkpt>
      <trkpt lat="43.55311" lon="5.70667">
        <ele>464.25</ele>
        <time>2022-01-23T10:37:29Z</time>
      </trkpt>
      <trkpt lat="43.55292" lon="5.70664">
        <ele>462.33</ele>
        <time>2022-01-23T10:37:33Z</time>
      </trkpt>
      <trkpt lat="43.55273" lon="5.70661">
        <ele>460.8</ele>
        <time>2022-01-23T10:37:37Z</time>
      </trkpt>
      <trkpt lat="43.55251" lon="5.70658">
        <ele>457.96</ele>
        <time>2022-01-23T10:37:42Z</time>
      </trkpt>
      <trkpt lat="43.55232" lon="5.70655">
        <ele>456.17</ele>
        <time>2022-01-23T10:37:46Z</time>
      </trkpt>
      <trkpt lat="43.55214" lon="5.70653">
        <ele>454.6</ele>
        <time>2022-01-23T10:37:50Z</time>
      </trkpt>
      <trkpt lat="43.55195" lon="5.70649">
        <ele>453.2</ele>
        <time>2022-01-23T10:37:54Z</time>
      </trkpt>
      <trkpt lat="43.55175" lon="5.70646">
        <ele>453.21</ele>
        <time>2022-01-23T10:37:58Z</time>
      </trkpt>
      <trkpt lat="43.55157" lon="5.70637">
        <ele>454</ele>
        <time>2022-01-23T10:38:04Z</time>
      </trkpt>
      <trkpt lat="43.55136" lon="5.7063">
        <ele>455.21</ele>
        <time>2022-01-23T10:38:09Z</time>
      </trkpt>
      <trkpt lat="43.55118" lon="5.70625">
        <ele>457.64</ele>
        <time>2022-01-23T10:38:14Z</time>
      </trkpt>
      <trkpt lat="43.55098" lon="5.70623">
        <ele>458.84</ele>
        <time>2022-01-23T10:38:19Z</time>
      </trkpt>
      <trkpt lat="43.55079" lon="5.70619">
        <ele>459.26</ele>
        <time>2022-01-23T10:38:23Z</time>
      </trkpt>
      <trkpt lat="43.55059" lon="5.70614">
        <ele>459.38</ele>
        <time>2022-01-23T10:38:28Z</time>
      </trkpt>
      <trkpt lat="43.55041" lon="5.7061">
        <ele>459.67</ele>
        <time>2022-01-23T10:38:33Z</time>
      </trkpt>
      <trkpt lat="43.55021" lon="5.70608">
        <ele>459.1</ele>
        <time>2022-01-23T10:38:38Z</time>
      </trkpt>
      <trkpt lat="43.55001" lon="5.70605">
        <ele>459.26</ele>
        <time>2022-01-23T10:38:43Z</time>
      </trkpt>
      <trkpt lat="43.5498" lon="5.70602">
        <ele>459.89</ele>
        <time>2022-01-23T10:38:49Z</time>
      </trkpt>
      <trkpt lat="43.54958" lon="5.706">
        <ele>460.34</ele>
        <time>2022-01-23T10:38:54Z</time>
      </trkpt>
      <trkpt lat="43.54936" lon="5.70597">
        <ele>459.15</ele>
        <time>2022-01-23T10:38:59Z</time>
      </trkpt>
      <trkpt lat="43.54914" lon="5.70594">
        <ele>458.36</ele>
        <time>2022-01-23T10:39:04Z</time>
      </trkpt>
      <trkpt lat="43.54892" lon="5.70591">
        <ele>457.61</ele>
        <time>2022-01-23T10:39:08Z</time>
      </trkpt>
      <trkpt lat="43.54872" lon="5.70594">
        <ele>457.54</ele>
        <time>2022-01-23T10:39:13Z</time>
      </trkpt>
      <trkpt lat="43.54853" lon="5.70597">
        <ele>459.65</ele>
        <time>2022-01-23T10:39:21Z</time>
      </trkpt>
      <trkpt lat="43.54832" lon="5.70594">
        <ele>462.7</ele>
        <time>2022-01-23T10:39:28Z</time>
      </trkpt>
      <trkpt lat="43.5481" lon="5.7059">
        <ele>466.26</ele>
        <time>2022-01-23T10:39:35Z</time>
      </trkpt>
      <trkpt lat="43.54792" lon="5.70586">
        <ele>468.31</ele>
        <time>2022-01-23T10:39:41Z</time>
      </trkpt>
      <trkpt lat="43.54773" lon="5.70583">
        <ele>473.69</ele>
        <time>2022-01-23T10:39:49Z</time>
      </trkpt>
      <trkpt lat="43.54753" lon="5.70583">
        <ele>473.43</ele>
        <time>2022-01-23T10:39:52Z</time>
      </trkpt>
      <trkpt lat="43.54734" lon="5.70581">
        <ele>471.96</ele>
        <time>2022-01-23T10:39:55Z</time>
      </trkpt>
      <trkpt lat="43.54715" lon="5.70577">
        <ele>471.54</ele>
        <time>2022-01-23T10:39:59Z</time>
      </trkpt>
      <trkpt lat="43.54696" lon="5.70568">
        <ele>469.59</ele>
        <time>2022-01-23T10:40:04Z</time>
      </trkpt>
      <trkpt lat="43.54678" lon="5.7056">
        <ele>466.83</ele>
        <time>2022-01-23T10:40:10Z</time>
      </trkpt>
      <trkpt lat="43.54659" lon="5.70561">
        <ele>461.38</ele>
        <time>2022-01-23T10:40:16Z</time>
      </trkpt>
      <trkpt lat="43.54642" lon="5.70576">
        <ele>458.93</ele>
        <time>2022-01-23T10:40:21Z</time>
      </trkpt>
      <trkpt lat="43.54629" lon="5.70599">
        <ele>458.07</ele>
        <time>2022-01-23T10:40:26Z</time>
      </trkpt>
      <trkpt lat="43.54616" lon="5.70619">
        <ele>458.03</ele>
        <time>2022-01-23T10:40:30Z</time>
      </trkpt>
      <trkpt lat="43.54601" lon="5.70641">
        <ele>458.34</ele>
        <time>2022-01-23T10:40:34Z</time>
      </trkpt>
      <trkpt lat="43.54586" lon="5.70664">
        <ele>458.43</ele>
        <time>2022-01-23T10:40:38Z</time>
      </trkpt>
      <trkpt lat="43.54568" lon="5.70685">
        <ele>458.27</ele>
        <time>2022-01-23T10:40:42Z</time>
      </trkpt>
      <trkpt lat="43.54553" lon="5.70712">
        <ele>458.05</ele>
        <time>2022-01-23T10:40:46Z</time>
      </trkpt>
      <trkpt lat="43.54543" lon="5.70732">
        <ele>458.14</ele>
        <time>2022-01-23T10:40:49Z</time>
      </trkpt>
      <trkpt lat="43.5453" lon="5.7076">
        <ele>458.72</ele>
        <time>2022-01-23T10:40:53Z</time>
      </trkpt>
      <trkpt lat="43.54517" lon="5.70784">
        <ele>458.84</ele>
        <time>2022-01-23T10:40:56Z</time>
      </trkpt>
      <trkpt lat="43.54504" lon="5.70803">
        <ele>458.94</ele>
        <time>2022-01-23T10:40:59Z</time>
      </trkpt>
      <trkpt lat="43.54492" lon="5.70822">
        <ele>458.95</ele>
        <time>2022-01-23T10:41:02Z</time>
      </trkpt>
      <trkpt lat="43.54479" lon="5.70841">
        <ele>459.44</ele>
        <time>2022-01-23T10:41:06Z</time>
      </trkpt>
      <trkpt lat="43.54467" lon="5.70867">
        <ele>459.13</ele>
        <time>2022-01-23T10:41:11Z</time>
      </trkpt>
      <trkpt lat="43.54455" lon="5.70887">
        <ele>459.28</ele>
        <time>2022-01-23T10:41:15Z</time>
      </trkpt>
      <trkpt lat="43.54444" lon="5.70906">
        <ele>459.05</ele>
        <time>2022-01-23T10:41:19Z</time>
      </trkpt>
      <trkpt lat="43.54431" lon="5.70925">
        <ele>458.77</ele>
        <time>2022-01-23T10:41:24Z</time>
      </trkpt>
      <trkpt lat="43.54418" lon="5.70945">
        <ele>458.57</ele>
        <time>2022-01-23T10:41:29Z</time>
      </trkpt>
      <trkpt lat="43.54407" lon="5.70964">
        <ele>458.47</ele>
        <time>2022-01-23T10:41:33Z</time>
      </trkpt>
      <trkpt lat="43.54393" lon="5.70984">
        <ele>458.17</ele>
        <time>2022-01-23T10:41:38Z</time>
      </trkpt>
      <trkpt lat="43.54378" lon="5.71003">
        <ele>457.61</ele>
        <time>2022-01-23T10:41:43Z</time>
      </trkpt>
      <trkpt lat="43.54366" lon="5.71026">
        <ele>458.24</ele>
        <time>2022-01-23T10:41:48Z</time>
      </trkpt>
      <trkpt lat="43.54352" lon="5.71045">
        <ele>458.82</ele>
        <time>2022-01-23T10:41:53Z</time>
      </trkpt>
      <trkpt lat="43.54337" lon="5.71065">
        <ele>459.61</ele>
        <time>2022-01-23T10:41:58Z</time>
      </trkpt>
      <trkpt lat="43.54326" lon="5.71088">
        <ele>460.7</ele>
        <time>2022-01-23T10:42:03Z</time>
      </trkpt>
      <trkpt lat="43.54311" lon="5.71106">
        <ele>463.32</ele>
        <time>2022-01-23T10:42:09Z</time>
      </trkpt>
      <trkpt lat="43.54301" lon="5.71128">
        <ele>465.92</ele>
        <time>2022-01-23T10:42:15Z</time>
      </trkpt>
      <trkpt lat="43.54292" lon="5.7115">
        <ele>469.25</ele>
        <time>2022-01-23T10:42:22Z</time>
      </trkpt>
      <trkpt lat="43.54279" lon="5.71169">
        <ele>470.49</ele>
        <time>2022-01-23T10:42:28Z</time>
      </trkpt>
      <trkpt lat="43.54266" lon="5.71189">
        <ele>472.55</ele>
        <time>2022-01-23T10:42:35Z</time>
      </trkpt>
      <trkpt lat="43.54254" lon="5.71212">
        <ele>476.9</ele>
        <time>2022-01-23T10:42:43Z</time>
      </trkpt>
      <trkpt lat="43.54243" lon="5.71234">
        <ele>482.02</ele>
        <time>2022-01-23T10:42:52Z</time>
      </trkpt>
      <trkpt lat="43.54231" lon="5.71255">
        <ele>486.04</ele>
        <time>2022-01-23T10:43:01Z</time>
      </trkpt>
      <trkpt lat="43.54219" lon="5.71276">
        <ele>489.75</ele>
        <time>2022-01-23T10:43:10Z</time>
      </trkpt>
      <trkpt lat="43.54207" lon="5.71295">
        <ele>493.44</ele>
        <time>2022-01-23T10:43:18Z</time>
      </trkpt>
      <trkpt lat="43.54196" lon="5.71319">
        <ele>497.44</ele>
        <time>2022-01-23T10:43:27Z</time>
      </trkpt>
      <trkpt lat="43.54185" lon="5.7134">
        <ele>500.87</ele>
        <time>2022-01-23T10:43:36Z</time>
      </trkpt>
      <trkpt lat="43.54171" lon="5.71357">
        <ele>503.06</ele>
        <time>2022-01-23T10:43:44Z</time>
      </trkpt>
      <trkpt lat="43.54158" lon="5.71377">
        <ele>504.57</ele>
        <time>2022-01-23T10:43:52Z</time>
      </trkpt>
      <trkpt lat="43.54143" lon="5.71393">
        <ele>502.01</ele>
        <time>2022-01-23T10:43:58Z</time>
      </trkpt>
      <trkpt lat="43.54126" lon="5.7141">
        <ele>501.05</ele>
        <time>2022-01-23T10:44:05Z</time>
      </trkpt>
      <trkpt lat="43.54111" lon="5.71427">
        <ele>499.36</ele>
        <time>2022-01-23T10:44:12Z</time>
      </trkpt>
      <trkpt lat="43.54095" lon="5.71442">
        <ele>497.7</ele>
        <time>2022-01-23T10:44:18Z</time>
      </trkpt>
      <trkpt lat="43.54081" lon="5.71459">
        <ele>496.07</ele>
        <time>2022-01-23T10:44:24Z</time>
      </trkpt>
      <trkpt lat="43.54065" lon="5.71475">
        <ele>495.35</ele>
        <time>2022-01-23T10:44:31Z</time>
      </trkpt>
      <trkpt lat="43.54048" lon="5.71495">
        <ele>495.14</ele>
        <time>2022-01-23T10:44:38Z</time>
      </trkpt>
      <trkpt lat="43.54032" lon="5.71513">
        <ele>495.62</ele>
        <time>2022-01-23T10:44:44Z</time>
      </trkpt>
      <trkpt lat="43.54015" lon="5.71524">
        <ele>494.87</ele>
        <time>2022-01-23T10:44:49Z</time>
      </trkpt>
      <trkpt lat="43.53997" lon="5.71531">
        <ele>493.03</ele>
        <time>2022-01-23T10:44:53Z</time>
      </trkpt>
      <trkpt lat="43.53979" lon="5.71535">
        <ele>490.51</ele>
        <time>2022-01-23T10:44:58Z</time>
      </trkpt>
      <trkpt lat="43.53961" lon="5.7154">
        <ele>485.92</ele>
        <time>2022-01-23T10:45:04Z</time>
      </trkpt>
      <trkpt lat="43.53939" lon="5.71543">
        <ele>480.91</ele>
        <time>2022-01-23T10:45:10Z</time>
      </trkpt>
      <trkpt lat="43.53917" lon="5.71548">
        <ele>477.93</ele>
        <time>2022-01-23T10:45:14Z</time>
      </trkpt>
      <trkpt lat="43.53897" lon="5.71551">
        <ele>473.67</ele>
        <time>2022-01-23T10:45:17Z</time>
      </trkpt>
      <trkpt lat="43.53876" lon="5.71553">
        <ele>469.85</ele>
        <time>2022-01-23T10:45:20Z</time>
      </trkpt>
      <trkpt lat="43.53852" lon="5.71556">
        <ele>466.15</ele>
        <time>2022-01-23T10:45:23Z</time>
      </trkpt>
      <trkpt lat="43.53827" lon="5.71559">
        <ele>463.45</ele>
        <time>2022-01-23T10:45:26Z</time>
      </trkpt>
      <trkpt lat="43.53802" lon="5.71563">
        <ele>461.15</ele>
        <time>2022-01-23T10:45:29Z</time>
      </trkpt>
      <trkpt lat="43.53776" lon="5.71567">
        <ele>458.62</ele>
        <time>2022-01-23T10:45:32Z</time>
      </trkpt>
      <trkpt lat="43.53752" lon="5.71572">
        <ele>456.56</ele>
        <time>2022-01-23T10:45:35Z</time>
      </trkpt>
      <trkpt lat="43.53731" lon="5.71572">
        <ele>454.97</ele>
        <time>2022-01-23T10:45:38Z</time>
      </trkpt>
      <trkpt lat="43.53723" lon="5.71545">
        <ele>451.35</ele>
        <time>2022-01-23T10:45:42Z</time>
      </trkpt>
      <trkpt lat="43.53732" lon="5.71522">
        <ele>449.1</ele>
        <time>2022-01-23T10:45:45Z</time>
      </trkpt>
      <trkpt lat="43.53744" lon="5.71501">
        <ele>447.12</ele>
        <time>2022-01-23T10:45:48Z</time>
      </trkpt>
      <trkpt lat="43.53753" lon="5.71477">
        <ele>445.56</ele>
        <time>2022-01-23T10:45:51Z</time>
      </trkpt>
      <trkpt lat="43.53753" lon="5.71449">
        <ele>443.67</ele>
        <time>2022-01-23T10:45:55Z</time>
      </trkpt>
      <trkpt lat="43.53735" lon="5.71427">
        <ele>442.05</ele>
        <time>2022-01-23T10:45:59Z</time>
      </trkpt>
      <trkpt lat="43.53719" lon="5.71409">
        <ele>441.2</ele>
        <time>2022-01-23T10:46:02Z</time>
      </trkpt>
      <trkpt lat="43.53706" lon="5.71389">
        <ele>440.22</ele>
        <time>2022-01-23T10:46:05Z</time>
      </trkpt>
      <trkpt lat="43.53693" lon="5.71366">
        <ele>439.23</ele>
        <time>2022-01-23T10:46:08Z</time>
      </trkpt>
      <trkpt lat="43.53679" lon="5.71343">
        <ele>438.52</ele>
        <time>2022-01-23T10:46:11Z</time>
      </trkpt>
      <trkpt lat="43.53665" lon="5.71321">
        <ele>437.8</ele>
        <time>2022-01-23T10:46:14Z</time>
      </trkpt>
      <trkpt lat="43.53651" lon="5.71299">
        <ele>437.37</ele>
        <time>2022-01-23T10:46:17Z</time>
      </trkpt>
      <trkpt lat="43.53638" lon="5.71277">
        <ele>437.07</ele>
        <time>2022-01-23T10:46:20Z</time>
      </trkpt>
      <trkpt lat="43.53625" lon="5.71255">
        <ele>436.58</ele>
        <time>2022-01-23T10:46:23Z</time>
      </trkpt>
      <trkpt lat="43.5361" lon="5.71233">
        <ele>436.35</ele>
        <time>2022-01-23T10:46:26Z</time>
      </trkpt>
      <trkpt lat="43.53596" lon="5.71212">
        <ele>436.25</ele>
        <time>2022-01-23T10:46:29Z</time>
      </trkpt>
      <trkpt lat="43.53583" lon="5.71194">
        <ele>436.44</ele>
        <time>2022-01-23T10:46:32Z</time>
      </trkpt>
      <trkpt lat="43.5357" lon="5.71175">
        <ele>436.81</ele>
        <time>2022-01-23T10:46:35Z</time>
      </trkpt>
      <trkpt lat="43.53558" lon="5.71156">
        <ele>436.49</ele>
        <time>2022-01-23T10:46:38Z</time>
      </trkpt>
      <trkpt lat="43.53546" lon="5.71129">
        <ele>436.15</ele>
        <time>2022-01-23T10:46:42Z</time>
      </trkpt>
      <trkpt lat="43.53536" lon="5.71102">
        <ele>436.36</ele>
        <time>2022-01-23T10:46:46Z</time>
      </trkpt>
      <trkpt lat="43.53528" lon="5.7108">
        <ele>436.41</ele>
        <time>2022-01-23T10:46:50Z</time>
      </trkpt>
      <trkpt lat="43.53518" lon="5.71054">
        <ele>436.4</ele>
        <time>2022-01-23T10:46:55Z</time>
      </trkpt>
      <trkpt lat="43.5351" lon="5.71031">
        <ele>435.28</ele>
        <time>2022-01-23T10:46:59Z</time>
      </trkpt>
      <trkpt lat="43.53502" lon="5.71008">
        <ele>434.75</ele>
        <time>2022-01-23T10:47:03Z</time>
      </trkpt>
      <trkpt lat="43.53493" lon="5.70986">
        <ele>432.88</ele>
        <time>2022-01-23T10:47:07Z</time>
      </trkpt>
      <trkpt lat="43.53483" lon="5.70959">
        <ele>432.93</ele>
        <time>2022-01-23T10:47:12Z</time>
      </trkpt>
      <trkpt lat="43.53474" lon="5.70935">
        <ele>432.07</ele>
        <time>2022-01-23T10:47:16Z</time>
      </trkpt>
      <trkpt lat="43.53466" lon="5.7091">
        <ele>430.96</ele>
        <time>2022-01-23T10:47:20Z</time>
      </trkpt>
      <trkpt lat="43.5346" lon="5.70885">
        <ele>430.34</ele>
        <time>2022-01-23T10:47:24Z</time>
      </trkpt>
      <trkpt lat="43.53452" lon="5.70857">
        <ele>430.19</ele>
        <time>2022-01-23T10:47:29Z</time>
      </trkpt>
      <trkpt lat="43.53441" lon="5.70832">
        <ele>430.78</ele>
        <time>2022-01-23T10:47:34Z</time>
      </trkpt>
      <trkpt lat="43.53433" lon="5.7081">
        <ele>431.09</ele>
        <time>2022-01-23T10:47:38Z</time>
      </trkpt>
      <trkpt lat="43.53424" lon="5.70782">
        <ele>431.54</ele>
        <time>2022-01-23T10:47:43Z</time>
      </trkpt>
      <trkpt lat="43.53415" lon="5.70755">
        <ele>430.69</ele>
        <time>2022-01-23T10:47:48Z</time>
      </trkpt>
      <trkpt lat="43.53405" lon="5.70729">
        <ele>430.17</ele>
        <time>2022-01-23T10:47:53Z</time>
      </trkpt>
      <trkpt lat="43.53396" lon="5.70706">
        <ele>430.42</ele>
        <time>2022-01-23T10:47:57Z</time>
      </trkpt>
      <trkpt lat="43.53387" lon="5.70683">
        <ele>430.54</ele>
        <time>2022-01-23T10:48:01Z</time>
      </trkpt>
      <trkpt lat="43.53377" lon="5.70661">
        <ele>430.47</ele>
        <time>2022-01-23T10:48:05Z</time>
      </trkpt>
      <trkpt lat="43.53368" lon="5.7064">
        <ele>431.67</ele>
        <time>2022-01-23T10:48:09Z</time>
      </trkpt>
      <trkpt lat="43.53359" lon="5.70617">
        <ele>431.02</ele>
        <time>2022-01-23T10:48:13Z</time>
      </trkpt>
      <trkpt lat="43.53349" lon="5.70594">
        <ele>430.35</ele>
        <time>2022-01-23T10:48:17Z</time>
      </trkpt>
      <trkpt lat="43.53339" lon="5.70571">
        <ele>430.35</ele>
        <time>2022-01-23T10:48:21Z</time>
      </trkpt>
      <trkpt lat="43.53329" lon="5.70548">
        <ele>430.36</ele>
        <time>2022-01-23T10:48:25Z</time>
      </trkpt>
      <trkpt lat="43.53318" lon="5.70525">
        <ele>429.85</ele>
        <time>2022-01-23T10:48:29Z</time>
      </trkpt>
      <trkpt lat="43.53308" lon="5.70502">
        <ele>429.53</ele>
        <time>2022-01-23T10:48:33Z</time>
      </trkpt>
      <trkpt lat="43.53299" lon="5.70479">
        <ele>429.36</ele>
        <time>2022-01-23T10:48:37Z</time>
      </trkpt>
      <trkpt lat="43.53291" lon="5.70456">
        <ele>429.21</ele>
        <time>2022-01-23T10:48:41Z</time>
      </trkpt>
      <trkpt lat="43.53281" lon="5.70429">
        <ele>428.46</ele>
        <time>2022-01-23T10:48:46Z</time>
      </trkpt>
      <trkpt lat="43.53274" lon="5.70401">
        <ele>428.8</ele>
        <time>2022-01-23T10:48:51Z</time>
      </trkpt>
      <trkpt lat="43.53267" lon="5.70375">
        <ele>427.68</ele>
        <time>2022-01-23T10:48:56Z</time>
      </trkpt>
      <trkpt lat="43.53265" lon="5.7035">
        <ele>426.75</ele>
        <time>2022-01-23T10:49:00Z</time>
      </trkpt>
      <trkpt lat="43.53264" lon="5.70322">
        <ele>425.3</ele>
        <time>2022-01-23T10:49:04Z</time>
      </trkpt>
      <trkpt lat="43.53261" lon="5.70296">
        <ele>424.25</ele>
        <time>2022-01-23T10:50:27Z</time>
      </trkpt>
      <trkpt lat="43.53262" lon="5.7027">
        <ele>423.77</ele>
        <time>2022-01-23T10:50:31Z</time>
      </trkpt>
      <trkpt lat="43.53244" lon="5.70251">
        <ele>422.02</ele>
        <time>2022-01-23T10:50:36Z</time>
      </trkpt>
      <trkpt lat="43.53224" lon="5.70231">
        <ele>420.65</ele>
        <time>2022-01-23T10:50:40Z</time>
      </trkpt>
      <trkpt lat="43.53217" lon="5.70205">
        <ele>420.39</ele>
        <time>2022-01-23T10:50:43Z</time>
      </trkpt>
      <trkpt lat="43.53212" lon="5.70174">
        <ele>418.53</ele>
        <time>2022-01-23T10:50:46Z</time>
      </trkpt>
      <trkpt lat="43.53206" lon="5.70143">
        <ele>416.5</ele>
        <time>2022-01-23T10:50:49Z</time>
      </trkpt>
      <trkpt lat="43.532" lon="5.70114">
        <ele>414.7</ele>
        <time>2022-01-23T10:50:52Z</time>
      </trkpt>
      <trkpt lat="43.53198" lon="5.70085">
        <ele>411.88</ele>
        <time>2022-01-23T10:50:56Z</time>
      </trkpt>
      <trkpt lat="43.53197" lon="5.70057">
        <ele>409.62</ele>
        <time>2022-01-23T10:50:59Z</time>
      </trkpt>
      <trkpt lat="43.53191" lon="5.70029">
        <ele>407.68</ele>
        <time>2022-01-23T10:51:02Z</time>
      </trkpt>
      <trkpt lat="43.53194" lon="5.70003">
        <ele>407.01</ele>
        <time>2022-01-23T10:51:05Z</time>
      </trkpt>
      <trkpt lat="43.53206" lon="5.69981">
        <ele>405.77</ele>
        <time>2022-01-23T10:51:08Z</time>
      </trkpt>
      <trkpt lat="43.53218" lon="5.69958">
        <ele>403.64</ele>
        <time>2022-01-23T10:51:11Z</time>
      </trkpt>
      <trkpt lat="43.53216" lon="5.69933">
        <ele>402.13</ele>
        <time>2022-01-23T10:51:14Z</time>
      </trkpt>
      <trkpt lat="43.53195" lon="5.6992">
        <ele>399.66</ele>
        <time>2022-01-23T10:51:18Z</time>
      </trkpt>
      <trkpt lat="43.5318" lon="5.69906">
        <ele>397.41</ele>
        <time>2022-01-23T10:51:21Z</time>
      </trkpt>
      <trkpt lat="43.53163" lon="5.69889">
        <ele>395.07</ele>
        <time>2022-01-23T10:51:24Z</time>
      </trkpt>
      <trkpt lat="43.53149" lon="5.69869">
        <ele>393.45</ele>
        <time>2022-01-23T10:51:27Z</time>
      </trkpt>
      <trkpt lat="43.53139" lon="5.69844">
        <ele>392.25</ele>
        <time>2022-01-23T10:51:30Z</time>
      </trkpt>
      <trkpt lat="43.53139" lon="5.69813">
        <ele>390.87</ele>
        <time>2022-01-23T10:51:33Z</time>
      </trkpt>
      <trkpt lat="43.53151" lon="5.69788">
        <ele>389.82</ele>
        <time>2022-01-23T10:51:36Z</time>
      </trkpt>
      <trkpt lat="43.53164" lon="5.69766">
        <ele>388.61</ele>
        <time>2022-01-23T10:51:40Z</time>
      </trkpt>
      <trkpt lat="43.5315" lon="5.69748">
        <ele>387.66</ele>
        <time>2022-01-23T10:51:44Z</time>
      </trkpt>
      <trkpt lat="43.53129" lon="5.69744">
        <ele>387</ele>
        <time>2022-01-23T10:51:47Z</time>
      </trkpt>
      <trkpt lat="43.53107" lon="5.69734">
        <ele>385.02</ele>
        <time>2022-01-23T10:51:50Z</time>
      </trkpt>
      <trkpt lat="43.53089" lon="5.69721">
        <ele>382.44</ele>
        <time>2022-01-23T10:51:53Z</time>
      </trkpt>
      <trkpt lat="43.53078" lon="5.69696">
        <ele>379.71</ele>
        <time>2022-01-23T10:51:56Z</time>
      </trkpt>
      <trkpt lat="43.53075" lon="5.69663">
        <ele>377.15</ele>
        <time>2022-01-23T10:51:59Z</time>
      </trkpt>
      <trkpt lat="43.53071" lon="5.69627">
        <ele>375.1</ele>
        <time>2022-01-23T10:52:02Z</time>
      </trkpt>
      <trkpt lat="43.53064" lon="5.69594">
        <ele>374.26</ele>
        <time>2022-01-23T10:52:05Z</time>
      </trkpt>
      <trkpt lat="43.53058" lon="5.69563">
        <ele>372.72</ele>
        <time>2022-01-23T10:52:08Z</time>
      </trkpt>
      <trkpt lat="43.53052" lon="5.69531">
        <ele>370.64</ele>
        <time>2022-01-23T10:52:11Z</time>
      </trkpt>
      <trkpt lat="43.53049" lon="5.69499">
        <ele>368.79</ele>
        <time>2022-01-23T10:52:14Z</time>
      </trkpt>
      <trkpt lat="43.53048" lon="5.69463">
        <ele>366.45</ele>
        <time>2022-01-23T10:52:17Z</time>
      </trkpt>
      <trkpt lat="43.53039" lon="5.6944">
        <ele>363.32</ele>
        <time>2022-01-23T10:52:21Z</time>
      </trkpt>
      <trkpt lat="43.53016" lon="5.6945">
        <ele>359.88</ele>
        <time>2022-01-23T10:52:25Z</time>
      </trkpt>
      <trkpt lat="43.52998" lon="5.69461">
        <ele>357.62</ele>
        <time>2022-01-23T10:52:28Z</time>
      </trkpt>
      <trkpt lat="43.52978" lon="5.69474">
        <ele>355.52</ele>
        <time>2022-01-23T10:52:31Z</time>
      </trkpt>
      <trkpt lat="43.52955" lon="5.6948">
        <ele>354.19</ele>
        <time>2022-01-23T10:52:34Z</time>
      </trkpt>
      <trkpt lat="43.52933" lon="5.69476">
        <ele>351.8</ele>
        <time>2022-01-23T10:52:37Z</time>
      </trkpt>
      <trkpt lat="43.52917" lon="5.69463">
        <ele>349.25</ele>
        <time>2022-01-23T10:52:40Z</time>
      </trkpt>
      <trkpt lat="43.52904" lon="5.69443">
        <ele>346.26</ele>
        <time>2022-01-23T10:52:44Z</time>
      </trkpt>
      <trkpt lat="43.52894" lon="5.6942">
        <ele>342.95</ele>
        <time>2022-01-23T10:52:47Z</time>
      </trkpt>
      <trkpt lat="43.52885" lon="5.69391">
        <ele>340.08</ele>
        <time>2022-01-23T10:52:50Z</time>
      </trkpt>
      <trkpt lat="43.52881" lon="5.69363">
        <ele>338.4</ele>
        <time>2022-01-23T10:52:53Z</time>
      </trkpt>
      <trkpt lat="43.52876" lon="5.69332">
        <ele>336.03</ele>
        <time>2022-01-23T10:52:56Z</time>
      </trkpt>
      <trkpt lat="43.52874" lon="5.69302">
        <ele>333.86</ele>
        <time>2022-01-23T10:52:59Z</time>
      </trkpt>
      <trkpt lat="43.52876" lon="5.69271">
        <ele>331.78</ele>
        <time>2022-01-23T10:53:02Z</time>
      </trkpt>
      <trkpt lat="43.52859" lon="5.6925">
        <ele>328.37</ele>
        <time>2022-01-23T10:53:06Z</time>
      </trkpt>
      <trkpt lat="43.52836" lon="5.69247">
        <ele>326.24</ele>
        <time>2022-01-23T10:53:09Z</time>
      </trkpt>
      <trkpt lat="43.52812" lon="5.69247">
        <ele>324.01</ele>
        <time>2022-01-23T10:53:12Z</time>
      </trkpt>
      <trkpt lat="43.52793" lon="5.69237">
        <ele>321.84</ele>
        <time>2022-01-23T10:53:16Z</time>
      </trkpt>
      <trkpt lat="43.52782" lon="5.6921">
        <ele>320.65</ele>
        <time>2022-01-23T10:53:20Z</time>
      </trkpt>
      <trkpt lat="43.5277" lon="5.69186">
        <ele>319.55</ele>
        <time>2022-01-23T10:53:23Z</time>
      </trkpt>
      <trkpt lat="43.52759" lon="5.69158">
        <ele>319.08</ele>
        <time>2022-01-23T10:53:26Z</time>
      </trkpt>
      <trkpt lat="43.52747" lon="5.69129">
        <ele>317.46</ele>
        <time>2022-01-23T10:53:29Z</time>
      </trkpt>
      <trkpt lat="43.52736" lon="5.69102">
        <ele>316.56</ele>
        <time>2022-01-23T10:53:32Z</time>
      </trkpt>
      <trkpt lat="43.52728" lon="5.69077">
        <ele>316.51</ele>
        <time>2022-01-23T10:53:35Z</time>
      </trkpt>
      <trkpt lat="43.5272" lon="5.69052">
        <ele>316.7</ele>
        <time>2022-01-23T10:53:38Z</time>
      </trkpt>
      <trkpt lat="43.52707" lon="5.69034">
        <ele>315.5</ele>
        <time>2022-01-23T10:53:41Z</time>
      </trkpt>
      <trkpt lat="43.52692" lon="5.69017">
        <ele>315</ele>
        <time>2022-01-23T10:53:44Z</time>
      </trkpt>
      <trkpt lat="43.52685" lon="5.6899">
        <ele>314.34</ele>
        <time>2022-01-23T10:53:47Z</time>
      </trkpt>
      <trkpt lat="43.52682" lon="5.68957">
        <ele>311.85</ele>
        <time>2022-01-23T10:53:50Z</time>
      </trkpt>
      <trkpt lat="43.52677" lon="5.68923">
        <ele>309.51</ele>
        <time>2022-01-23T10:53:53Z</time>
      </trkpt>
      <trkpt lat="43.52673" lon="5.68888">
        <ele>307.79</ele>
        <time>2022-01-23T10:53:56Z</time>
      </trkpt>
      <trkpt lat="43.52673" lon="5.68854">
        <ele>305.83</ele>
        <time>2022-01-23T10:53:59Z</time>
      </trkpt>
      <trkpt lat="43.52671" lon="5.68822">
        <ele>304.58</ele>
        <time>2022-01-23T10:54:02Z</time>
      </trkpt>
      <trkpt lat="43.52666" lon="5.68795">
        <ele>302.88</ele>
        <time>2022-01-23T10:54:05Z</time>
      </trkpt>
      <trkpt lat="43.52656" lon="5.6877">
        <ele>301.63</ele>
        <time>2022-01-23T10:54:08Z</time>
      </trkpt>
      <trkpt lat="43.52647" lon="5.68748">
        <ele>300.86</ele>
        <time>2022-01-23T10:54:11Z</time>
      </trkpt>
      <trkpt lat="43.52637" lon="5.68723">
        <ele>301.03</ele>
        <time>2022-01-23T10:54:15Z</time>
      </trkpt>
      <trkpt lat="43.52626" lon="5.68701">
        <ele>300.86</ele>
        <time>2022-01-23T10:54:20Z</time>
      </trkpt>
      <trkpt lat="43.52614" lon="5.68683">
        <ele>308.04</ele>
        <time>2022-01-23T10:55:02Z</time>
      </trkpt>
      <trkpt lat="43.52607" lon="5.68659">
        <ele>309.24</ele>
        <time>2022-01-23T10:55:09Z</time>
      </trkpt>
      <trkpt lat="43.52604" lon="5.68631">
        <ele>313.08</ele>
        <time>2022-01-23T10:55:17Z</time>
      </trkpt>
      <trkpt lat="43.52605" lon="5.68604">
        <ele>315.29</ele>
        <time>2022-01-23T10:55:24Z</time>
      </trkpt>
      <trkpt lat="43.52609" lon="5.68579">
        <ele>315.74</ele>
        <time>2022-01-23T10:55:30Z</time>
      </trkpt>
      <trkpt lat="43.52613" lon="5.68553">
        <ele>314.72</ele>
        <time>2022-01-23T10:55:37Z</time>
      </trkpt>
      <trkpt lat="43.52619" lon="5.68527">
        <ele>316.42</ele>
        <time>2022-01-23T10:55:45Z</time>
      </trkpt>
      <trkpt lat="43.52625" lon="5.68504">
        <ele>317.24</ele>
        <time>2022-01-23T10:55:51Z</time>
      </trkpt>
      <trkpt lat="43.52634" lon="5.68477">
        <ele>315.8</ele>
        <time>2022-01-23T10:55:57Z</time>
      </trkpt>
      <trkpt lat="43.52641" lon="5.68449">
        <ele>313.32</ele>
        <time>2022-01-23T10:56:03Z</time>
      </trkpt>
      <trkpt lat="43.52644" lon="5.68424">
        <ele>313.15</ele>
        <time>2022-01-23T10:56:09Z</time>
      </trkpt>
      <trkpt lat="43.52645" lon="5.68396">
        <ele>314.74</ele>
        <time>2022-01-23T10:56:16Z</time>
      </trkpt>
      <trkpt lat="43.52642" lon="5.68367">
        <ele>316.55</ele>
        <time>2022-01-23T10:56:23Z</time>
      </trkpt>
      <trkpt lat="43.52639" lon="5.6834">
        <ele>319.08</ele>
        <time>2022-01-23T10:56:30Z</time>
      </trkpt>
      <trkpt lat="43.52636" lon="5.68313">
        <ele>320.08</ele>
        <time>2022-01-23T10:56:36Z</time>
      </trkpt>
      <trkpt lat="43.52635" lon="5.68287">
        <ele>322.5</ele>
        <time>2022-01-23T10:56:43Z</time>
      </trkpt>
      <trkpt lat="43.52631" lon="5.68259">
        <ele>321.54</ele>
        <time>2022-01-23T10:56:49Z</time>
      </trkpt>
      <trkpt lat="43.52631" lon="5.68233">
        <ele>320.82</ele>
        <time>2022-01-23T10:56:53Z</time>
      </trkpt>
      <trkpt lat="43.52635" lon="5.68205">
        <ele>319.73</ele>
        <time>2022-01-23T10:56:57Z</time>
      </trkpt>
      <trkpt lat="43.52638" lon="5.68178">
        <ele>317.75</ele>
        <time>2022-01-23T10:57:01Z</time>
      </trkpt>
      <trkpt lat="43.5264" lon="5.68153">
        <ele>316.15</ele>
        <time>2022-01-23T10:57:09Z</time>
      </trkpt>
    </trkseg>
  </trk>
</gpx>